<?xml version="1.0" encoding="UTF-8" standalone="no" ?>
<gpx xmlns="http://www.topografix.com/GPX/1/1" xmlns:xsi="http://www.w3.org/2001/XMLSchema-instance" xsi:schemaLocation="http://www.topografix.com/GPX/1/1 http://www.topografix.com/GPX/1/1/gpx.xsd" version="1.1" creator="VisuGPX - https://www.visugpx.com">
  <metadata>
    <name>Les Chapelles janvier 2016</name>
    <desc><![CDATA[ski de rando Les Amis du Vieux Lyon, Christo 17 janvier 2016
Les Chapelles, Beaufortin]]></desc>
  </metadata>
  <trk>
    <name><![CDATA[LES CHAPELLES 17 J7]]></name>
    <trkseg>
      <trkpt lat="45.58852" lon="6.72785">
        <ele>1281.57</ele>
        <time>2016-01-17T09:29:09Z</time>
      </trkpt>
      <trkpt lat="45.58852" lon="6.72785">
        <ele>1284.94</ele>
        <time>2016-01-17T09:29:18Z</time>
      </trkpt>
      <trkpt lat="45.58852" lon="6.72785">
        <ele>1286.38</ele>
        <time>2016-01-17T09:29:23Z</time>
      </trkpt>
      <trkpt lat="45.58851" lon="6.72785">
        <ele>1289.75</ele>
        <time>2016-01-17T09:29:38Z</time>
      </trkpt>
      <trkpt lat="45.58851" lon="6.72784">
        <ele>1286.38</ele>
        <time>2016-01-17T09:29:39Z</time>
      </trkpt>
      <trkpt lat="45.58851" lon="6.72784">
        <ele>1292.63</ele>
        <time>2016-01-17T09:29:40Z</time>
      </trkpt>
      <trkpt lat="45.58851" lon="6.72784">
        <ele>1289.27</ele>
        <time>2016-01-17T09:29:41Z</time>
      </trkpt>
      <trkpt lat="45.58852" lon="6.72781">
        <ele>1291.67</ele>
        <time>2016-01-17T09:30:14Z</time>
      </trkpt>
      <trkpt lat="45.58851" lon="6.7278">
        <ele>1291.67</ele>
        <time>2016-01-17T09:30:47Z</time>
      </trkpt>
      <trkpt lat="45.58851" lon="6.72783">
        <ele>1292.63</ele>
        <time>2016-01-17T09:31:23Z</time>
      </trkpt>
      <trkpt lat="45.5885" lon="6.72783">
        <ele>1292.15</ele>
        <time>2016-01-17T09:31:48Z</time>
      </trkpt>
      <trkpt lat="45.5885" lon="6.72783">
        <ele>1292.15</ele>
        <time>2016-01-17T09:32:15Z</time>
      </trkpt>
      <trkpt lat="45.58851" lon="6.7278">
        <ele>1293.11</ele>
        <time>2016-01-17T09:33:01Z</time>
      </trkpt>
      <trkpt lat="45.58851" lon="6.72781">
        <ele>1292.63</ele>
        <time>2016-01-17T09:33:44Z</time>
      </trkpt>
      <trkpt lat="45.58851" lon="6.72782">
        <ele>1292.63</ele>
        <time>2016-01-17T09:34:12Z</time>
      </trkpt>
      <trkpt lat="45.58853" lon="6.72782">
        <ele>1292.63</ele>
        <time>2016-01-17T09:34:49Z</time>
      </trkpt>
      <trkpt lat="45.58851" lon="6.72781">
        <ele>1293.59</ele>
        <time>2016-01-17T09:35:22Z</time>
      </trkpt>
      <trkpt lat="45.58853" lon="6.72781">
        <ele>1293.59</ele>
        <time>2016-01-17T09:35:46Z</time>
      </trkpt>
      <trkpt lat="45.58849" lon="6.72782">
        <ele>1294.07</ele>
        <time>2016-01-17T09:36:22Z</time>
      </trkpt>
      <trkpt lat="45.58851" lon="6.7278">
        <ele>1294.55</ele>
        <time>2016-01-17T09:36:53Z</time>
      </trkpt>
      <trkpt lat="45.58851" lon="6.72783">
        <ele>1293.59</ele>
        <time>2016-01-17T09:37:31Z</time>
      </trkpt>
      <trkpt lat="45.58851" lon="6.72783">
        <ele>1295.03</ele>
        <time>2016-01-17T09:38:06Z</time>
      </trkpt>
      <trkpt lat="45.58851" lon="6.72783">
        <ele>1294.55</ele>
        <time>2016-01-17T09:38:33Z</time>
      </trkpt>
      <trkpt lat="45.58853" lon="6.72783">
        <ele>1294.55</ele>
        <time>2016-01-17T09:38:47Z</time>
      </trkpt>
      <trkpt lat="45.58854" lon="6.7278">
        <ele>1294.55</ele>
        <time>2016-01-17T09:39:07Z</time>
      </trkpt>
      <trkpt lat="45.58855" lon="6.72779">
        <ele>1295.03</ele>
        <time>2016-01-17T09:39:27Z</time>
      </trkpt>
      <trkpt lat="45.58856" lon="6.7278">
        <ele>1294.55</ele>
        <time>2016-01-17T09:39:48Z</time>
      </trkpt>
      <trkpt lat="45.58854" lon="6.72779">
        <ele>1295.51</ele>
        <time>2016-01-17T09:40:10Z</time>
      </trkpt>
      <trkpt lat="45.58853" lon="6.72771">
        <ele>1296.96</ele>
        <time>2016-01-17T09:40:29Z</time>
      </trkpt>
      <trkpt lat="45.58854" lon="6.72771">
        <ele>1297.44</ele>
        <time>2016-01-17T09:41:08Z</time>
      </trkpt>
      <trkpt lat="45.58852" lon="6.7277">
        <ele>1297.44</ele>
        <time>2016-01-17T09:41:37Z</time>
      </trkpt>
      <trkpt lat="45.58852" lon="6.72771">
        <ele>1297.44</ele>
        <time>2016-01-17T09:42:15Z</time>
      </trkpt>
      <trkpt lat="45.58854" lon="6.7277">
        <ele>1297.44</ele>
        <time>2016-01-17T09:42:58Z</time>
      </trkpt>
      <trkpt lat="45.58853" lon="6.72771">
        <ele>1296.96</ele>
        <time>2016-01-17T09:43:34Z</time>
      </trkpt>
      <trkpt lat="45.58852" lon="6.72764">
        <ele>1297.92</ele>
        <time>2016-01-17T09:44:00Z</time>
      </trkpt>
      <trkpt lat="45.58852" lon="6.72756">
        <ele>1298.88</ele>
        <time>2016-01-17T09:44:20Z</time>
      </trkpt>
      <trkpt lat="45.58853" lon="6.72755">
        <ele>1299.36</ele>
        <time>2016-01-17T09:44:58Z</time>
      </trkpt>
      <trkpt lat="45.58854" lon="6.72752">
        <ele>1299.36</ele>
        <time>2016-01-17T09:45:20Z</time>
      </trkpt>
      <trkpt lat="45.58853" lon="6.72754">
        <ele>1299.84</ele>
        <time>2016-01-17T09:45:59Z</time>
      </trkpt>
      <trkpt lat="45.58853" lon="6.72752">
        <ele>1299.36</ele>
        <time>2016-01-17T09:46:31Z</time>
      </trkpt>
      <trkpt lat="45.58855" lon="6.72751">
        <ele>1299.84</ele>
        <time>2016-01-17T09:46:53Z</time>
      </trkpt>
      <trkpt lat="45.58855" lon="6.72743">
        <ele>1300.8</ele>
        <time>2016-01-17T09:47:09Z</time>
      </trkpt>
      <trkpt lat="45.5886" lon="6.72724">
        <ele>1303.69</ele>
        <time>2016-01-17T09:47:30Z</time>
      </trkpt>
      <trkpt lat="45.58864" lon="6.72711">
        <ele>1305.61</ele>
        <time>2016-01-17T09:47:55Z</time>
      </trkpt>
      <trkpt lat="45.58865" lon="6.72694">
        <ele>1308.97</ele>
        <time>2016-01-17T09:48:11Z</time>
      </trkpt>
      <trkpt lat="45.58864" lon="6.72678">
        <ele>1311.86</ele>
        <time>2016-01-17T09:48:27Z</time>
      </trkpt>
      <trkpt lat="45.58863" lon="6.72665">
        <ele>1315.22</ele>
        <time>2016-01-17T09:48:41Z</time>
      </trkpt>
      <trkpt lat="45.58861" lon="6.72654">
        <ele>1317.14</ele>
        <time>2016-01-17T09:48:59Z</time>
      </trkpt>
      <trkpt lat="45.58862" lon="6.72656">
        <ele>1317.14</ele>
        <time>2016-01-17T09:49:22Z</time>
      </trkpt>
      <trkpt lat="45.58862" lon="6.72656">
        <ele>1316.66</ele>
        <time>2016-01-17T09:50:01Z</time>
      </trkpt>
      <trkpt lat="45.58861" lon="6.72655">
        <ele>1316.66</ele>
        <time>2016-01-17T09:50:33Z</time>
      </trkpt>
      <trkpt lat="45.58866" lon="6.72648">
        <ele>1318.1</ele>
        <time>2016-01-17T09:50:53Z</time>
      </trkpt>
      <trkpt lat="45.58859" lon="6.72624">
        <ele>1320.99</ele>
        <time>2016-01-17T09:51:13Z</time>
      </trkpt>
      <trkpt lat="45.58867" lon="6.72619">
        <ele>1322.91</ele>
        <time>2016-01-17T09:51:28Z</time>
      </trkpt>
      <trkpt lat="45.58885" lon="6.72618">
        <ele>1325.8</ele>
        <time>2016-01-17T09:51:49Z</time>
      </trkpt>
      <trkpt lat="45.58901" lon="6.72617">
        <ele>1328.68</ele>
        <time>2016-01-17T09:52:08Z</time>
      </trkpt>
      <trkpt lat="45.5891" lon="6.72608">
        <ele>1331.56</ele>
        <time>2016-01-17T09:52:25Z</time>
      </trkpt>
      <trkpt lat="45.58911" lon="6.72591">
        <ele>1334.93</ele>
        <time>2016-01-17T09:52:46Z</time>
      </trkpt>
      <trkpt lat="45.5891" lon="6.72578">
        <ele>1337.81</ele>
        <time>2016-01-17T09:53:05Z</time>
      </trkpt>
      <trkpt lat="45.58912" lon="6.72564">
        <ele>1340.7</ele>
        <time>2016-01-17T09:53:27Z</time>
      </trkpt>
      <trkpt lat="45.58913" lon="6.7256">
        <ele>1342.14</ele>
        <time>2016-01-17T09:53:48Z</time>
      </trkpt>
      <trkpt lat="45.58918" lon="6.7255">
        <ele>1344.06</ele>
        <time>2016-01-17T09:54:06Z</time>
      </trkpt>
      <trkpt lat="45.5892" lon="6.72549">
        <ele>1344.54</ele>
        <time>2016-01-17T09:54:09Z</time>
      </trkpt>
      <trkpt lat="45.58937" lon="6.72548">
        <ele>1347.91</ele>
        <time>2016-01-17T09:54:28Z</time>
      </trkpt>
      <trkpt lat="45.58953" lon="6.72548">
        <ele>1350.79</ele>
        <time>2016-01-17T09:54:50Z</time>
      </trkpt>
      <trkpt lat="45.58965" lon="6.72551">
        <ele>1353.19</ele>
        <time>2016-01-17T09:55:11Z</time>
      </trkpt>
      <trkpt lat="45.58968" lon="6.72545">
        <ele>1355.12</ele>
        <time>2016-01-17T09:55:30Z</time>
      </trkpt>
      <trkpt lat="45.58963" lon="6.72532">
        <ele>1357.52</ele>
        <time>2016-01-17T09:55:49Z</time>
      </trkpt>
      <trkpt lat="45.58959" lon="6.72515">
        <ele>1360.88</ele>
        <time>2016-01-17T09:56:11Z</time>
      </trkpt>
      <trkpt lat="45.58953" lon="6.72499">
        <ele>1361.84</ele>
        <time>2016-01-17T09:56:30Z</time>
      </trkpt>
      <trkpt lat="45.58947" lon="6.72485">
        <ele>1364.25</ele>
        <time>2016-01-17T09:56:49Z</time>
      </trkpt>
      <trkpt lat="45.58945" lon="6.72465">
        <ele>1366.65</ele>
        <time>2016-01-17T09:57:12Z</time>
      </trkpt>
      <trkpt lat="45.58944" lon="6.72452">
        <ele>1369.05</ele>
        <time>2016-01-17T09:57:30Z</time>
      </trkpt>
      <trkpt lat="45.58945" lon="6.72439">
        <ele>1372.42</ele>
        <time>2016-01-17T09:57:49Z</time>
      </trkpt>
      <trkpt lat="45.58945" lon="6.72422">
        <ele>1374.82</ele>
        <time>2016-01-17T09:58:12Z</time>
      </trkpt>
      <trkpt lat="45.58945" lon="6.72416">
        <ele>1376.26</ele>
        <time>2016-01-17T09:58:28Z</time>
      </trkpt>
      <trkpt lat="45.58951" lon="6.72416">
        <ele>1377.71</ele>
        <time>2016-01-17T09:58:42Z</time>
      </trkpt>
      <trkpt lat="45.58956" lon="6.72419">
        <ele>1379.63</ele>
        <time>2016-01-17T09:59:00Z</time>
      </trkpt>
      <trkpt lat="45.58954" lon="6.72407">
        <ele>1381.07</ele>
        <time>2016-01-17T09:59:21Z</time>
      </trkpt>
      <trkpt lat="45.58951" lon="6.72395">
        <ele>1383.47</ele>
        <time>2016-01-17T09:59:41Z</time>
      </trkpt>
      <trkpt lat="45.58961" lon="6.724">
        <ele>1385.88</ele>
        <time>2016-01-17T09:59:58Z</time>
      </trkpt>
      <trkpt lat="45.58964" lon="6.72404">
        <ele>1387.32</ele>
        <time>2016-01-17T10:00:18Z</time>
      </trkpt>
      <trkpt lat="45.58969" lon="6.72403">
        <ele>1389.24</ele>
        <time>2016-01-17T10:00:37Z</time>
      </trkpt>
      <trkpt lat="45.58968" lon="6.72385">
        <ele>1391.65</ele>
        <time>2016-01-17T10:00:58Z</time>
      </trkpt>
      <trkpt lat="45.58979" lon="6.72391">
        <ele>1394.53</ele>
        <time>2016-01-17T10:01:17Z</time>
      </trkpt>
      <trkpt lat="45.58977" lon="6.72379">
        <ele>1396.45</ele>
        <time>2016-01-17T10:01:32Z</time>
      </trkpt>
      <trkpt lat="45.58976" lon="6.72364">
        <ele>1398.86</ele>
        <time>2016-01-17T10:01:51Z</time>
      </trkpt>
      <trkpt lat="45.58975" lon="6.72348">
        <ele>1401.74</ele>
        <time>2016-01-17T10:02:13Z</time>
      </trkpt>
      <trkpt lat="45.58977" lon="6.72335">
        <ele>1405.1</ele>
        <time>2016-01-17T10:02:33Z</time>
      </trkpt>
      <trkpt lat="45.58981" lon="6.72323">
        <ele>1407.99</ele>
        <time>2016-01-17T10:02:51Z</time>
      </trkpt>
      <trkpt lat="45.58986" lon="6.72309">
        <ele>1411.35</ele>
        <time>2016-01-17T10:03:13Z</time>
      </trkpt>
      <trkpt lat="45.58987" lon="6.72302">
        <ele>1413.28</ele>
        <time>2016-01-17T10:03:36Z</time>
      </trkpt>
      <trkpt lat="45.5899" lon="6.72294">
        <ele>1415.2</ele>
        <time>2016-01-17T10:03:58Z</time>
      </trkpt>
      <trkpt lat="45.58997" lon="6.72284">
        <ele>1418.56</ele>
        <time>2016-01-17T10:04:14Z</time>
      </trkpt>
      <trkpt lat="45.59004" lon="6.72278">
        <ele>1421.45</ele>
        <time>2016-01-17T10:04:29Z</time>
      </trkpt>
      <trkpt lat="45.59012" lon="6.72272">
        <ele>1424.33</ele>
        <time>2016-01-17T10:04:50Z</time>
      </trkpt>
      <trkpt lat="45.5902" lon="6.72268">
        <ele>1426.25</ele>
        <time>2016-01-17T10:05:07Z</time>
      </trkpt>
      <trkpt lat="45.5902" lon="6.72258">
        <ele>1428.18</ele>
        <time>2016-01-17T10:05:22Z</time>
      </trkpt>
      <trkpt lat="45.59023" lon="6.72243">
        <ele>1431.06</ele>
        <time>2016-01-17T10:05:42Z</time>
      </trkpt>
      <trkpt lat="45.59026" lon="6.72229">
        <ele>1433.94</ele>
        <time>2016-01-17T10:06:02Z</time>
      </trkpt>
      <trkpt lat="45.59027" lon="6.72214">
        <ele>1437.31</ele>
        <time>2016-01-17T10:06:25Z</time>
      </trkpt>
      <trkpt lat="45.59029" lon="6.72194">
        <ele>1439.23</ele>
        <time>2016-01-17T10:06:49Z</time>
      </trkpt>
      <trkpt lat="45.59032" lon="6.72177">
        <ele>1442.6</ele>
        <time>2016-01-17T10:07:10Z</time>
      </trkpt>
      <trkpt lat="45.59034" lon="6.72161">
        <ele>1445</ele>
        <time>2016-01-17T10:07:32Z</time>
      </trkpt>
      <trkpt lat="45.59035" lon="6.72142">
        <ele>1447.88</ele>
        <time>2016-01-17T10:07:56Z</time>
      </trkpt>
      <trkpt lat="45.59037" lon="6.72132">
        <ele>1450.29</ele>
        <time>2016-01-17T10:08:16Z</time>
      </trkpt>
      <trkpt lat="45.59045" lon="6.72134">
        <ele>1452.69</ele>
        <time>2016-01-17T10:08:37Z</time>
      </trkpt>
      <trkpt lat="45.59047" lon="6.72138">
        <ele>1453.17</ele>
        <time>2016-01-17T10:09:06Z</time>
      </trkpt>
      <trkpt lat="45.59046" lon="6.72139">
        <ele>1453.17</ele>
        <time>2016-01-17T10:09:38Z</time>
      </trkpt>
      <trkpt lat="45.59044" lon="6.72138">
        <ele>1453.17</ele>
        <time>2016-01-17T10:10:09Z</time>
      </trkpt>
      <trkpt lat="45.59047" lon="6.72139">
        <ele>1453.17</ele>
        <time>2016-01-17T10:10:26Z</time>
      </trkpt>
      <trkpt lat="45.59047" lon="6.7214">
        <ele>1452.21</ele>
        <time>2016-01-17T10:10:45Z</time>
      </trkpt>
      <trkpt lat="45.59047" lon="6.72138">
        <ele>1452.21</ele>
        <time>2016-01-17T10:11:13Z</time>
      </trkpt>
      <trkpt lat="45.59048" lon="6.72138">
        <ele>1451.73</ele>
        <time>2016-01-17T10:11:44Z</time>
      </trkpt>
      <trkpt lat="45.59049" lon="6.72137">
        <ele>1453.17</ele>
        <time>2016-01-17T10:12:20Z</time>
      </trkpt>
      <trkpt lat="45.59047" lon="6.7214">
        <ele>1450.77</ele>
        <time>2016-01-17T10:12:55Z</time>
      </trkpt>
      <trkpt lat="45.59048" lon="6.72139">
        <ele>1450.77</ele>
        <time>2016-01-17T10:13:25Z</time>
      </trkpt>
      <trkpt lat="45.59048" lon="6.72139">
        <ele>1450.77</ele>
        <time>2016-01-17T10:13:38Z</time>
      </trkpt>
      <trkpt lat="45.59045" lon="6.7214">
        <ele>1450.77</ele>
        <time>2016-01-17T10:14:16Z</time>
      </trkpt>
      <trkpt lat="45.59047" lon="6.72139">
        <ele>1451.73</ele>
        <time>2016-01-17T10:14:48Z</time>
      </trkpt>
      <trkpt lat="45.59048" lon="6.7214">
        <ele>1451.25</ele>
        <time>2016-01-17T10:15:23Z</time>
      </trkpt>
      <trkpt lat="45.59048" lon="6.7214">
        <ele>1451.73</ele>
        <time>2016-01-17T10:15:54Z</time>
      </trkpt>
      <trkpt lat="45.59048" lon="6.72138">
        <ele>1451.25</ele>
        <time>2016-01-17T10:16:25Z</time>
      </trkpt>
      <trkpt lat="45.59048" lon="6.72139">
        <ele>1451.25</ele>
        <time>2016-01-17T10:16:55Z</time>
      </trkpt>
      <trkpt lat="45.59045" lon="6.72137">
        <ele>1450.29</ele>
        <time>2016-01-17T10:17:12Z</time>
      </trkpt>
      <trkpt lat="45.59045" lon="6.72137">
        <ele>1450.29</ele>
        <time>2016-01-17T10:17:13Z</time>
      </trkpt>
      <trkpt lat="45.59036" lon="6.72135">
        <ele>1447.4</ele>
        <time>2016-01-17T10:17:27Z</time>
      </trkpt>
      <trkpt lat="45.59034" lon="6.72143">
        <ele>1445.96</ele>
        <time>2016-01-17T10:17:32Z</time>
      </trkpt>
      <trkpt lat="45.59031" lon="6.72161">
        <ele>1442.11</ele>
        <time>2016-01-17T10:17:42Z</time>
      </trkpt>
      <trkpt lat="45.59029" lon="6.72181">
        <ele>1439.23</ele>
        <time>2016-01-17T10:17:51Z</time>
      </trkpt>
      <trkpt lat="45.59027" lon="6.72195">
        <ele>1436.35</ele>
        <time>2016-01-17T10:17:58Z</time>
      </trkpt>
      <trkpt lat="45.59025" lon="6.72216">
        <ele>1433.46</ele>
        <time>2016-01-17T10:18:07Z</time>
      </trkpt>
      <trkpt lat="45.59024" lon="6.72228">
        <ele>1431.06</ele>
        <time>2016-01-17T10:18:12Z</time>
      </trkpt>
      <trkpt lat="45.59023" lon="6.72244">
        <ele>1428.18</ele>
        <time>2016-01-17T10:18:20Z</time>
      </trkpt>
      <trkpt lat="45.5902" lon="6.72259">
        <ele>1424.81</ele>
        <time>2016-01-17T10:18:33Z</time>
      </trkpt>
      <trkpt lat="45.59018" lon="6.72263">
        <ele>1423.85</ele>
        <time>2016-01-17T10:18:52Z</time>
      </trkpt>
      <trkpt lat="45.5902" lon="6.72261">
        <ele>1423.85</ele>
        <time>2016-01-17T10:19:28Z</time>
      </trkpt>
      <trkpt lat="45.59017" lon="6.72264">
        <ele>1423.85</ele>
        <time>2016-01-17T10:19:47Z</time>
      </trkpt>
      <trkpt lat="45.59018" lon="6.72267">
        <ele>1423.37</ele>
        <time>2016-01-17T10:20:08Z</time>
      </trkpt>
      <trkpt lat="45.5902" lon="6.72265">
        <ele>1424.33</ele>
        <time>2016-01-17T10:20:21Z</time>
      </trkpt>
      <trkpt lat="45.5902" lon="6.72262">
        <ele>1425.29</ele>
        <time>2016-01-17T10:20:28Z</time>
      </trkpt>
      <trkpt lat="45.59024" lon="6.72245">
        <ele>1428.66</ele>
        <time>2016-01-17T10:20:42Z</time>
      </trkpt>
      <trkpt lat="45.59027" lon="6.72231">
        <ele>1431.54</ele>
        <time>2016-01-17T10:20:55Z</time>
      </trkpt>
      <trkpt lat="45.59029" lon="6.72214">
        <ele>1434.91</ele>
        <time>2016-01-17T10:21:10Z</time>
      </trkpt>
      <trkpt lat="45.5903" lon="6.72193">
        <ele>1437.79</ele>
        <time>2016-01-17T10:21:27Z</time>
      </trkpt>
      <trkpt lat="45.59033" lon="6.7218">
        <ele>1441.15</ele>
        <time>2016-01-17T10:21:40Z</time>
      </trkpt>
      <trkpt lat="45.59035" lon="6.72161">
        <ele>1444.04</ele>
        <time>2016-01-17T10:21:58Z</time>
      </trkpt>
      <trkpt lat="45.59037" lon="6.72143">
        <ele>1446.92</ele>
        <time>2016-01-17T10:22:14Z</time>
      </trkpt>
      <trkpt lat="45.5904" lon="6.72134">
        <ele>1449.32</ele>
        <time>2016-01-17T10:22:27Z</time>
      </trkpt>
      <trkpt lat="45.59043" lon="6.72136">
        <ele>1450.29</ele>
        <time>2016-01-17T10:22:42Z</time>
      </trkpt>
      <trkpt lat="45.59049" lon="6.72138">
        <ele>1452.21</ele>
        <time>2016-01-17T10:22:57Z</time>
      </trkpt>
      <trkpt lat="45.5905" lon="6.7214">
        <ele>1452.69</ele>
        <time>2016-01-17T10:23:12Z</time>
      </trkpt>
      <trkpt lat="45.59061" lon="6.72144">
        <ele>1455.09</ele>
        <time>2016-01-17T10:23:26Z</time>
      </trkpt>
      <trkpt lat="45.5907" lon="6.7215">
        <ele>1457.98</ele>
        <time>2016-01-17T10:23:42Z</time>
      </trkpt>
      <trkpt lat="45.59075" lon="6.72154">
        <ele>1459.9</ele>
        <time>2016-01-17T10:23:57Z</time>
      </trkpt>
      <trkpt lat="45.59078" lon="6.72156">
        <ele>1460.86</ele>
        <time>2016-01-17T10:24:15Z</time>
      </trkpt>
      <trkpt lat="45.59081" lon="6.72151">
        <ele>1461.82</ele>
        <time>2016-01-17T10:24:28Z</time>
      </trkpt>
      <trkpt lat="45.59079" lon="6.72145">
        <ele>1464.23</ele>
        <time>2016-01-17T10:24:50Z</time>
      </trkpt>
      <trkpt lat="45.59079" lon="6.7214">
        <ele>1465.19</ele>
        <time>2016-01-17T10:25:05Z</time>
      </trkpt>
      <trkpt lat="45.59082" lon="6.72144">
        <ele>1465.19</ele>
        <time>2016-01-17T10:25:10Z</time>
      </trkpt>
      <trkpt lat="45.59093" lon="6.72161">
        <ele>1467.11</ele>
        <time>2016-01-17T10:25:28Z</time>
      </trkpt>
      <trkpt lat="45.59098" lon="6.72165">
        <ele>1467.59</ele>
        <time>2016-01-17T10:25:43Z</time>
      </trkpt>
      <trkpt lat="45.59097" lon="6.72151">
        <ele>1470.95</ele>
        <time>2016-01-17T10:25:58Z</time>
      </trkpt>
      <trkpt lat="45.59094" lon="6.7213">
        <ele>1474.32</ele>
        <time>2016-01-17T10:26:18Z</time>
      </trkpt>
      <trkpt lat="45.59094" lon="6.72122">
        <ele>1476.24</ele>
        <time>2016-01-17T10:26:33Z</time>
      </trkpt>
      <trkpt lat="45.59093" lon="6.72118">
        <ele>1478.16</ele>
        <time>2016-01-17T10:26:48Z</time>
      </trkpt>
      <trkpt lat="45.59099" lon="6.72125">
        <ele>1480.09</ele>
        <time>2016-01-17T10:27:04Z</time>
      </trkpt>
      <trkpt lat="45.59109" lon="6.72131">
        <ele>1483.45</ele>
        <time>2016-01-17T10:27:21Z</time>
      </trkpt>
      <trkpt lat="45.59117" lon="6.72141">
        <ele>1485.37</ele>
        <time>2016-01-17T10:27:39Z</time>
      </trkpt>
      <trkpt lat="45.59126" lon="6.72149">
        <ele>1487.78</ele>
        <time>2016-01-17T10:27:57Z</time>
      </trkpt>
      <trkpt lat="45.59135" lon="6.72153">
        <ele>1489.7</ele>
        <time>2016-01-17T10:28:12Z</time>
      </trkpt>
      <trkpt lat="45.59141" lon="6.72156">
        <ele>1492.1</ele>
        <time>2016-01-17T10:28:27Z</time>
      </trkpt>
      <trkpt lat="45.59149" lon="6.7216">
        <ele>1494.03</ele>
        <time>2016-01-17T10:28:43Z</time>
      </trkpt>
      <trkpt lat="45.59155" lon="6.72161">
        <ele>1496.91</ele>
        <time>2016-01-17T10:29:03Z</time>
      </trkpt>
      <trkpt lat="45.59159" lon="6.72161">
        <ele>1497.87</ele>
        <time>2016-01-17T10:29:23Z</time>
      </trkpt>
      <trkpt lat="45.59165" lon="6.72164">
        <ele>1499.31</ele>
        <time>2016-01-17T10:29:36Z</time>
      </trkpt>
      <trkpt lat="45.59172" lon="6.7217">
        <ele>1501.24</ele>
        <time>2016-01-17T10:29:52Z</time>
      </trkpt>
      <trkpt lat="45.59179" lon="6.72175">
        <ele>1502.68</ele>
        <time>2016-01-17T10:30:06Z</time>
      </trkpt>
      <trkpt lat="45.59182" lon="6.72177">
        <ele>1503.16</ele>
        <time>2016-01-17T10:30:20Z</time>
      </trkpt>
      <trkpt lat="45.59184" lon="6.7217">
        <ele>1505.08</ele>
        <time>2016-01-17T10:30:35Z</time>
      </trkpt>
      <trkpt lat="45.59182" lon="6.72157">
        <ele>1507.48</ele>
        <time>2016-01-17T10:30:50Z</time>
      </trkpt>
      <trkpt lat="45.59182" lon="6.72142">
        <ele>1510.37</ele>
        <time>2016-01-17T10:31:10Z</time>
      </trkpt>
      <trkpt lat="45.59183" lon="6.72136">
        <ele>1512.77</ele>
        <time>2016-01-17T10:31:25Z</time>
      </trkpt>
      <trkpt lat="45.59195" lon="6.7214">
        <ele>1515.66</ele>
        <time>2016-01-17T10:31:45Z</time>
      </trkpt>
      <trkpt lat="45.59202" lon="6.72146">
        <ele>1517.1</ele>
        <time>2016-01-17T10:32:01Z</time>
      </trkpt>
      <trkpt lat="45.59212" lon="6.72149">
        <ele>1518.54</ele>
        <time>2016-01-17T10:32:18Z</time>
      </trkpt>
      <trkpt lat="45.59216" lon="6.72149">
        <ele>1520.94</ele>
        <time>2016-01-17T10:32:33Z</time>
      </trkpt>
      <trkpt lat="45.59213" lon="6.72136">
        <ele>1522.39</ele>
        <time>2016-01-17T10:32:51Z</time>
      </trkpt>
      <trkpt lat="45.59209" lon="6.72123">
        <ele>1524.31</ele>
        <time>2016-01-17T10:33:06Z</time>
      </trkpt>
      <trkpt lat="45.59211" lon="6.72123">
        <ele>1525.27</ele>
        <time>2016-01-17T10:33:18Z</time>
      </trkpt>
      <trkpt lat="45.59218" lon="6.72129">
        <ele>1527.19</ele>
        <time>2016-01-17T10:33:34Z</time>
      </trkpt>
      <trkpt lat="45.59224" lon="6.72132">
        <ele>1528.63</ele>
        <time>2016-01-17T10:33:48Z</time>
      </trkpt>
      <trkpt lat="45.59232" lon="6.72136">
        <ele>1530.08</ele>
        <time>2016-01-17T10:34:03Z</time>
      </trkpt>
      <trkpt lat="45.5924" lon="6.7214">
        <ele>1531.52</ele>
        <time>2016-01-17T10:34:18Z</time>
      </trkpt>
      <trkpt lat="45.59246" lon="6.72144">
        <ele>1532.48</ele>
        <time>2016-01-17T10:34:34Z</time>
      </trkpt>
      <trkpt lat="45.5925" lon="6.72141">
        <ele>1534.4</ele>
        <time>2016-01-17T10:34:46Z</time>
      </trkpt>
      <trkpt lat="45.5925" lon="6.72135">
        <ele>1535.36</ele>
        <time>2016-01-17T10:35:03Z</time>
      </trkpt>
      <trkpt lat="45.5925" lon="6.7213">
        <ele>1536.8</ele>
        <time>2016-01-17T10:35:20Z</time>
      </trkpt>
      <trkpt lat="45.59259" lon="6.72133">
        <ele>1539.69</ele>
        <time>2016-01-17T10:35:36Z</time>
      </trkpt>
      <trkpt lat="45.59269" lon="6.72134">
        <ele>1542.57</ele>
        <time>2016-01-17T10:35:51Z</time>
      </trkpt>
      <trkpt lat="45.59276" lon="6.72133">
        <ele>1544.5</ele>
        <time>2016-01-17T10:36:06Z</time>
      </trkpt>
      <trkpt lat="45.59285" lon="6.72135">
        <ele>1545.94</ele>
        <time>2016-01-17T10:36:20Z</time>
      </trkpt>
      <trkpt lat="45.59295" lon="6.72137">
        <ele>1547.86</ele>
        <time>2016-01-17T10:36:36Z</time>
      </trkpt>
      <trkpt lat="45.593" lon="6.7214">
        <ele>1549.78</ele>
        <time>2016-01-17T10:36:51Z</time>
      </trkpt>
      <trkpt lat="45.59311" lon="6.72139">
        <ele>1552.19</ele>
        <time>2016-01-17T10:37:08Z</time>
      </trkpt>
      <trkpt lat="45.59316" lon="6.72138">
        <ele>1553.15</ele>
        <time>2016-01-17T10:37:23Z</time>
      </trkpt>
      <trkpt lat="45.59326" lon="6.72137">
        <ele>1555.55</ele>
        <time>2016-01-17T10:37:40Z</time>
      </trkpt>
      <trkpt lat="45.59334" lon="6.72139">
        <ele>1557.47</ele>
        <time>2016-01-17T10:37:55Z</time>
      </trkpt>
      <trkpt lat="45.59341" lon="6.72138">
        <ele>1559.4</ele>
        <time>2016-01-17T10:38:12Z</time>
      </trkpt>
      <trkpt lat="45.59347" lon="6.72137">
        <ele>1561.8</ele>
        <time>2016-01-17T10:38:28Z</time>
      </trkpt>
      <trkpt lat="45.59356" lon="6.72139">
        <ele>1564.2</ele>
        <time>2016-01-17T10:38:45Z</time>
      </trkpt>
      <trkpt lat="45.59363" lon="6.72142">
        <ele>1565.64</ele>
        <time>2016-01-17T10:39:00Z</time>
      </trkpt>
      <trkpt lat="45.59369" lon="6.72142">
        <ele>1567.09</ele>
        <time>2016-01-17T10:39:14Z</time>
      </trkpt>
      <trkpt lat="45.59374" lon="6.72141">
        <ele>1569.01</ele>
        <time>2016-01-17T10:39:29Z</time>
      </trkpt>
      <trkpt lat="45.59381" lon="6.72141">
        <ele>1571.41</ele>
        <time>2016-01-17T10:39:43Z</time>
      </trkpt>
      <trkpt lat="45.59386" lon="6.72141">
        <ele>1573.33</ele>
        <time>2016-01-17T10:40:01Z</time>
      </trkpt>
      <trkpt lat="45.59393" lon="6.7214">
        <ele>1575.26</ele>
        <time>2016-01-17T10:40:15Z</time>
      </trkpt>
      <trkpt lat="45.59401" lon="6.72136">
        <ele>1578.62</ele>
        <time>2016-01-17T10:40:31Z</time>
      </trkpt>
      <trkpt lat="45.5941" lon="6.72136">
        <ele>1581.51</ele>
        <time>2016-01-17T10:40:48Z</time>
      </trkpt>
      <trkpt lat="45.59415" lon="6.72134">
        <ele>1583.43</ele>
        <time>2016-01-17T10:41:02Z</time>
      </trkpt>
      <trkpt lat="45.59425" lon="6.72133">
        <ele>1585.83</ele>
        <time>2016-01-17T10:41:17Z</time>
      </trkpt>
      <trkpt lat="45.59434" lon="6.72133">
        <ele>1589.2</ele>
        <time>2016-01-17T10:41:33Z</time>
      </trkpt>
      <trkpt lat="45.59443" lon="6.72131">
        <ele>1591.6</ele>
        <time>2016-01-17T10:41:50Z</time>
      </trkpt>
      <trkpt lat="45.59452" lon="6.72131">
        <ele>1594.48</ele>
        <time>2016-01-17T10:42:06Z</time>
      </trkpt>
      <trkpt lat="45.59461" lon="6.7213">
        <ele>1597.37</ele>
        <time>2016-01-17T10:42:22Z</time>
      </trkpt>
      <trkpt lat="45.59468" lon="6.72128">
        <ele>1599.77</ele>
        <time>2016-01-17T10:42:37Z</time>
      </trkpt>
      <trkpt lat="45.59477" lon="6.72129">
        <ele>1602.17</ele>
        <time>2016-01-17T10:42:53Z</time>
      </trkpt>
      <trkpt lat="45.59484" lon="6.7213">
        <ele>1605.06</ele>
        <time>2016-01-17T10:43:09Z</time>
      </trkpt>
      <trkpt lat="45.59495" lon="6.72128">
        <ele>1607.94</ele>
        <time>2016-01-17T10:43:27Z</time>
      </trkpt>
      <trkpt lat="45.59507" lon="6.72127">
        <ele>1610.35</ele>
        <time>2016-01-17T10:43:44Z</time>
      </trkpt>
      <trkpt lat="45.59517" lon="6.72123">
        <ele>1613.23</ele>
        <time>2016-01-17T10:44:00Z</time>
      </trkpt>
      <trkpt lat="45.59526" lon="6.72117">
        <ele>1615.63</ele>
        <time>2016-01-17T10:44:16Z</time>
      </trkpt>
      <trkpt lat="45.5953" lon="6.72105">
        <ele>1619</ele>
        <time>2016-01-17T10:44:33Z</time>
      </trkpt>
      <trkpt lat="45.59525" lon="6.72095">
        <ele>1618.52</ele>
        <time>2016-01-17T10:44:45Z</time>
      </trkpt>
      <trkpt lat="45.59515" lon="6.72081">
        <ele>1620.92</ele>
        <time>2016-01-17T10:45:03Z</time>
      </trkpt>
      <trkpt lat="45.59507" lon="6.72067">
        <ele>1623.32</ele>
        <time>2016-01-17T10:45:21Z</time>
      </trkpt>
      <trkpt lat="45.59502" lon="6.72053">
        <ele>1626.21</ele>
        <time>2016-01-17T10:45:39Z</time>
      </trkpt>
      <trkpt lat="45.59498" lon="6.72038">
        <ele>1628.61</ele>
        <time>2016-01-17T10:45:56Z</time>
      </trkpt>
      <trkpt lat="45.59494" lon="6.72027">
        <ele>1631.49</ele>
        <time>2016-01-17T10:46:12Z</time>
      </trkpt>
      <trkpt lat="45.59493" lon="6.72019">
        <ele>1633.42</ele>
        <time>2016-01-17T10:46:34Z</time>
      </trkpt>
      <trkpt lat="45.59497" lon="6.72017">
        <ele>1633.9</ele>
        <time>2016-01-17T10:46:41Z</time>
      </trkpt>
      <trkpt lat="45.59508" lon="6.72016">
        <ele>1635.34</ele>
        <time>2016-01-17T10:46:55Z</time>
      </trkpt>
      <trkpt lat="45.59512" lon="6.72016">
        <ele>1635.82</ele>
        <time>2016-01-17T10:47:00Z</time>
      </trkpt>
      <trkpt lat="45.5952" lon="6.72018">
        <ele>1636.3</ele>
        <time>2016-01-17T10:47:10Z</time>
      </trkpt>
      <trkpt lat="45.59527" lon="6.72003">
        <ele>1638.22</ele>
        <time>2016-01-17T10:47:27Z</time>
      </trkpt>
      <trkpt lat="45.59527" lon="6.71986">
        <ele>1640.15</ele>
        <time>2016-01-17T10:47:43Z</time>
      </trkpt>
      <trkpt lat="45.59529" lon="6.71972">
        <ele>1642.55</ele>
        <time>2016-01-17T10:47:57Z</time>
      </trkpt>
      <trkpt lat="45.59537" lon="6.71962">
        <ele>1644.95</ele>
        <time>2016-01-17T10:48:13Z</time>
      </trkpt>
      <trkpt lat="45.59537" lon="6.71962">
        <ele>1644.95</ele>
        <time>2016-01-17T10:48:14Z</time>
      </trkpt>
      <trkpt lat="45.59549" lon="6.71963">
        <ele>1647.36</ele>
        <time>2016-01-17T10:48:31Z</time>
      </trkpt>
      <trkpt lat="45.5956" lon="6.71964">
        <ele>1649.76</ele>
        <time>2016-01-17T10:48:47Z</time>
      </trkpt>
      <trkpt lat="45.59569" lon="6.71967">
        <ele>1652.16</ele>
        <time>2016-01-17T10:49:02Z</time>
      </trkpt>
      <trkpt lat="45.59578" lon="6.71966">
        <ele>1654.09</ele>
        <time>2016-01-17T10:49:17Z</time>
      </trkpt>
      <trkpt lat="45.59573" lon="6.71951">
        <ele>1656.49</ele>
        <time>2016-01-17T10:49:36Z</time>
      </trkpt>
      <trkpt lat="45.59577" lon="6.71952">
        <ele>1657.93</ele>
        <time>2016-01-17T10:49:49Z</time>
      </trkpt>
      <trkpt lat="45.59586" lon="6.71958">
        <ele>1659.85</ele>
        <time>2016-01-17T10:50:05Z</time>
      </trkpt>
      <trkpt lat="45.59587" lon="6.71948">
        <ele>1662.74</ele>
        <time>2016-01-17T10:50:21Z</time>
      </trkpt>
      <trkpt lat="45.59583" lon="6.71931">
        <ele>1665.62</ele>
        <time>2016-01-17T10:50:41Z</time>
      </trkpt>
      <trkpt lat="45.59581" lon="6.71922">
        <ele>1668.02</ele>
        <time>2016-01-17T10:51:00Z</time>
      </trkpt>
      <trkpt lat="45.59581" lon="6.71919">
        <ele>1668.99</ele>
        <time>2016-01-17T10:51:14Z</time>
      </trkpt>
      <trkpt lat="45.59583" lon="6.71919">
        <ele>1669.47</ele>
        <time>2016-01-17T10:51:17Z</time>
      </trkpt>
      <trkpt lat="45.59593" lon="6.71926">
        <ele>1670.43</ele>
        <time>2016-01-17T10:51:32Z</time>
      </trkpt>
      <trkpt lat="45.59601" lon="6.71928">
        <ele>1672.35</ele>
        <time>2016-01-17T10:51:45Z</time>
      </trkpt>
      <trkpt lat="45.59609" lon="6.7193">
        <ele>1674.75</ele>
        <time>2016-01-17T10:52:00Z</time>
      </trkpt>
      <trkpt lat="45.59615" lon="6.71927">
        <ele>1676.68</ele>
        <time>2016-01-17T10:52:14Z</time>
      </trkpt>
      <trkpt lat="45.5961" lon="6.71917">
        <ele>1680.04</ele>
        <time>2016-01-17T10:52:32Z</time>
      </trkpt>
      <trkpt lat="45.59605" lon="6.719">
        <ele>1682.93</ele>
        <time>2016-01-17T10:52:54Z</time>
      </trkpt>
      <trkpt lat="45.59601" lon="6.71886">
        <ele>1685.81</ele>
        <time>2016-01-17T10:53:17Z</time>
      </trkpt>
      <trkpt lat="45.59595" lon="6.71871">
        <ele>1687.73</ele>
        <time>2016-01-17T10:53:36Z</time>
      </trkpt>
      <trkpt lat="45.59599" lon="6.71856">
        <ele>1689.17</ele>
        <time>2016-01-17T10:53:52Z</time>
      </trkpt>
      <trkpt lat="45.59603" lon="6.71853">
        <ele>1689.17</ele>
        <time>2016-01-17T10:53:58Z</time>
      </trkpt>
      <trkpt lat="45.5961" lon="6.71836">
        <ele>1689.17</ele>
        <time>2016-01-17T10:54:17Z</time>
      </trkpt>
      <trkpt lat="45.59608" lon="6.7182">
        <ele>1692.06</ele>
        <time>2016-01-17T10:54:38Z</time>
      </trkpt>
      <trkpt lat="45.59607" lon="6.71804">
        <ele>1693.5</ele>
        <time>2016-01-17T10:54:57Z</time>
      </trkpt>
      <trkpt lat="45.59605" lon="6.71803">
        <ele>1693.5</ele>
        <time>2016-01-17T10:55:19Z</time>
      </trkpt>
      <trkpt lat="45.59603" lon="6.71803">
        <ele>1693.5</ele>
        <time>2016-01-17T10:55:49Z</time>
      </trkpt>
      <trkpt lat="45.59604" lon="6.71801">
        <ele>1692.06</ele>
        <time>2016-01-17T10:56:13Z</time>
      </trkpt>
      <trkpt lat="45.59605" lon="6.718">
        <ele>1692.06</ele>
        <time>2016-01-17T10:56:50Z</time>
      </trkpt>
      <trkpt lat="45.59605" lon="6.718">
        <ele>1692.06</ele>
        <time>2016-01-17T10:56:51Z</time>
      </trkpt>
      <trkpt lat="45.59608" lon="6.718">
        <ele>1692.06</ele>
        <time>2016-01-17T10:57:28Z</time>
      </trkpt>
      <trkpt lat="45.59606" lon="6.71801">
        <ele>1692.06</ele>
        <time>2016-01-17T10:58:13Z</time>
      </trkpt>
      <trkpt lat="45.59605" lon="6.71803">
        <ele>1693.02</ele>
        <time>2016-01-17T10:58:38Z</time>
      </trkpt>
      <trkpt lat="45.59606" lon="6.71802">
        <ele>1693.02</ele>
        <time>2016-01-17T10:59:03Z</time>
      </trkpt>
      <trkpt lat="45.59606" lon="6.71802">
        <ele>1693.02</ele>
        <time>2016-01-17T10:59:23Z</time>
      </trkpt>
      <trkpt lat="45.59605" lon="6.71801">
        <ele>1692.54</ele>
        <time>2016-01-17T10:59:43Z</time>
      </trkpt>
      <trkpt lat="45.59605" lon="6.71801">
        <ele>1692.54</ele>
        <time>2016-01-17T11:00:04Z</time>
      </trkpt>
      <trkpt lat="45.59605" lon="6.71801">
        <ele>1692.54</ele>
        <time>2016-01-17T11:00:28Z</time>
      </trkpt>
      <trkpt lat="45.59605" lon="6.71802">
        <ele>1692.54</ele>
        <time>2016-01-17T11:00:53Z</time>
      </trkpt>
      <trkpt lat="45.59604" lon="6.718">
        <ele>1692.54</ele>
        <time>2016-01-17T11:01:22Z</time>
      </trkpt>
      <trkpt lat="45.59604" lon="6.71801">
        <ele>1693.02</ele>
        <time>2016-01-17T11:01:45Z</time>
      </trkpt>
      <trkpt lat="45.59605" lon="6.71801">
        <ele>1692.54</ele>
        <time>2016-01-17T11:02:07Z</time>
      </trkpt>
      <trkpt lat="45.59606" lon="6.71795">
        <ele>1693.98</ele>
        <time>2016-01-17T11:02:27Z</time>
      </trkpt>
      <trkpt lat="45.59605" lon="6.71785">
        <ele>1696.86</ele>
        <time>2016-01-17T11:02:43Z</time>
      </trkpt>
      <trkpt lat="45.59606" lon="6.7177">
        <ele>1699.75</ele>
        <time>2016-01-17T11:02:59Z</time>
      </trkpt>
      <trkpt lat="45.59604" lon="6.71758">
        <ele>1701.19</ele>
        <time>2016-01-17T11:03:11Z</time>
      </trkpt>
      <trkpt lat="45.59601" lon="6.71742">
        <ele>1703.11</ele>
        <time>2016-01-17T11:03:30Z</time>
      </trkpt>
      <trkpt lat="45.59601" lon="6.71732">
        <ele>1706</ele>
        <time>2016-01-17T11:03:45Z</time>
      </trkpt>
      <trkpt lat="45.59601" lon="6.71722">
        <ele>1709.36</ele>
        <time>2016-01-17T11:03:56Z</time>
      </trkpt>
      <trkpt lat="45.59603" lon="6.71713">
        <ele>1709.36</ele>
        <time>2016-01-17T11:04:10Z</time>
      </trkpt>
      <trkpt lat="45.59605" lon="6.71702">
        <ele>1712.73</ele>
        <time>2016-01-17T11:04:27Z</time>
      </trkpt>
      <trkpt lat="45.59608" lon="6.71692">
        <ele>1714.65</ele>
        <time>2016-01-17T11:04:45Z</time>
      </trkpt>
      <trkpt lat="45.5961" lon="6.71684">
        <ele>1716.57</ele>
        <time>2016-01-17T11:04:59Z</time>
      </trkpt>
      <trkpt lat="45.59613" lon="6.71672">
        <ele>1719.46</ele>
        <time>2016-01-17T11:05:14Z</time>
      </trkpt>
      <trkpt lat="45.59619" lon="6.71661">
        <ele>1721.86</ele>
        <time>2016-01-17T11:05:31Z</time>
      </trkpt>
      <trkpt lat="45.59622" lon="6.71651">
        <ele>1723.3</ele>
        <time>2016-01-17T11:05:48Z</time>
      </trkpt>
      <trkpt lat="45.59625" lon="6.71639">
        <ele>1725.7</ele>
        <time>2016-01-17T11:06:05Z</time>
      </trkpt>
      <trkpt lat="45.59626" lon="6.71629">
        <ele>1728.11</ele>
        <time>2016-01-17T11:06:20Z</time>
      </trkpt>
      <trkpt lat="45.59627" lon="6.71617">
        <ele>1730.51</ele>
        <time>2016-01-17T11:06:37Z</time>
      </trkpt>
      <trkpt lat="45.59631" lon="6.71605">
        <ele>1732.43</ele>
        <time>2016-01-17T11:06:52Z</time>
      </trkpt>
      <trkpt lat="45.59633" lon="6.71594">
        <ele>1735.32</ele>
        <time>2016-01-17T11:07:08Z</time>
      </trkpt>
      <trkpt lat="45.59635" lon="6.71578">
        <ele>1737.24</ele>
        <time>2016-01-17T11:07:25Z</time>
      </trkpt>
      <trkpt lat="45.59637" lon="6.71562">
        <ele>1738.68</ele>
        <time>2016-01-17T11:07:43Z</time>
      </trkpt>
      <trkpt lat="45.59639" lon="6.71547">
        <ele>1740.6</ele>
        <time>2016-01-17T11:08:00Z</time>
      </trkpt>
      <trkpt lat="45.5964" lon="6.71532">
        <ele>1742.53</ele>
        <time>2016-01-17T11:08:18Z</time>
      </trkpt>
      <trkpt lat="45.59642" lon="6.71517">
        <ele>1744.45</ele>
        <time>2016-01-17T11:08:35Z</time>
      </trkpt>
      <trkpt lat="45.59641" lon="6.71506">
        <ele>1746.37</ele>
        <time>2016-01-17T11:08:50Z</time>
      </trkpt>
      <trkpt lat="45.5964" lon="6.71496">
        <ele>1748.78</ele>
        <time>2016-01-17T11:09:04Z</time>
      </trkpt>
      <trkpt lat="45.59639" lon="6.71487">
        <ele>1751.66</ele>
        <time>2016-01-17T11:09:19Z</time>
      </trkpt>
      <trkpt lat="45.59639" lon="6.71476">
        <ele>1753.1</ele>
        <time>2016-01-17T11:09:34Z</time>
      </trkpt>
      <trkpt lat="45.59641" lon="6.71466">
        <ele>1754.54</ele>
        <time>2016-01-17T11:09:48Z</time>
      </trkpt>
      <trkpt lat="45.59646" lon="6.71464">
        <ele>1756.47</ele>
        <time>2016-01-17T11:10:00Z</time>
      </trkpt>
      <trkpt lat="45.59651" lon="6.71461">
        <ele>1758.87</ele>
        <time>2016-01-17T11:10:14Z</time>
      </trkpt>
      <trkpt lat="45.59656" lon="6.71457">
        <ele>1760.79</ele>
        <time>2016-01-17T11:10:27Z</time>
      </trkpt>
      <trkpt lat="45.59666" lon="6.71452">
        <ele>1763.2</ele>
        <time>2016-01-17T11:10:43Z</time>
      </trkpt>
      <trkpt lat="45.59673" lon="6.71447">
        <ele>1765.6</ele>
        <time>2016-01-17T11:10:57Z</time>
      </trkpt>
      <trkpt lat="45.59678" lon="6.71443">
        <ele>1768</ele>
        <time>2016-01-17T11:11:13Z</time>
      </trkpt>
      <trkpt lat="45.59685" lon="6.7144">
        <ele>1769.92</ele>
        <time>2016-01-17T11:11:26Z</time>
      </trkpt>
      <trkpt lat="45.59693" lon="6.71434">
        <ele>1771.37</ele>
        <time>2016-01-17T11:11:41Z</time>
      </trkpt>
      <trkpt lat="45.597" lon="6.7143">
        <ele>1773.29</ele>
        <time>2016-01-17T11:11:54Z</time>
      </trkpt>
      <trkpt lat="45.59708" lon="6.71427">
        <ele>1775.21</ele>
        <time>2016-01-17T11:12:09Z</time>
      </trkpt>
      <trkpt lat="45.59715" lon="6.7142">
        <ele>1777.61</ele>
        <time>2016-01-17T11:12:24Z</time>
      </trkpt>
      <trkpt lat="45.59721" lon="6.71415">
        <ele>1778.58</ele>
        <time>2016-01-17T11:12:41Z</time>
      </trkpt>
      <trkpt lat="45.59726" lon="6.71414">
        <ele>1780.02</ele>
        <time>2016-01-17T11:12:55Z</time>
      </trkpt>
      <trkpt lat="45.59737" lon="6.71413">
        <ele>1783.38</ele>
        <time>2016-01-17T11:13:10Z</time>
      </trkpt>
      <trkpt lat="45.59739" lon="6.71413">
        <ele>1783.86</ele>
        <time>2016-01-17T11:13:14Z</time>
      </trkpt>
      <trkpt lat="45.59748" lon="6.71406">
        <ele>1786.27</ele>
        <time>2016-01-17T11:13:30Z</time>
      </trkpt>
      <trkpt lat="45.59756" lon="6.71396">
        <ele>1788.19</ele>
        <time>2016-01-17T11:13:45Z</time>
      </trkpt>
      <trkpt lat="45.59762" lon="6.71386">
        <ele>1791.07</ele>
        <time>2016-01-17T11:14:02Z</time>
      </trkpt>
      <trkpt lat="45.59764" lon="6.71371">
        <ele>1794.44</ele>
        <time>2016-01-17T11:14:20Z</time>
      </trkpt>
      <trkpt lat="45.59768" lon="6.71357">
        <ele>1796.36</ele>
        <time>2016-01-17T11:14:36Z</time>
      </trkpt>
      <trkpt lat="45.59772" lon="6.71343">
        <ele>1798.76</ele>
        <time>2016-01-17T11:14:55Z</time>
      </trkpt>
      <trkpt lat="45.59776" lon="6.71328">
        <ele>1800.69</ele>
        <time>2016-01-17T11:15:12Z</time>
      </trkpt>
      <trkpt lat="45.59779" lon="6.71317">
        <ele>1803.09</ele>
        <time>2016-01-17T11:15:29Z</time>
      </trkpt>
      <trkpt lat="45.59785" lon="6.71304">
        <ele>1805.97</ele>
        <time>2016-01-17T11:15:47Z</time>
      </trkpt>
      <trkpt lat="45.59783" lon="6.7129">
        <ele>1808.38</ele>
        <time>2016-01-17T11:16:05Z</time>
      </trkpt>
      <trkpt lat="45.59782" lon="6.71287">
        <ele>1808.38</ele>
        <time>2016-01-17T11:16:24Z</time>
      </trkpt>
      <trkpt lat="45.59782" lon="6.71277">
        <ele>1810.78</ele>
        <time>2016-01-17T11:16:38Z</time>
      </trkpt>
      <trkpt lat="45.59788" lon="6.71275">
        <ele>1812.7</ele>
        <time>2016-01-17T11:16:52Z</time>
      </trkpt>
      <trkpt lat="45.59795" lon="6.71278">
        <ele>1815.59</ele>
        <time>2016-01-17T11:17:07Z</time>
      </trkpt>
      <trkpt lat="45.598" lon="6.71282">
        <ele>1817.03</ele>
        <time>2016-01-17T11:17:22Z</time>
      </trkpt>
      <trkpt lat="45.59807" lon="6.71285">
        <ele>1818.95</ele>
        <time>2016-01-17T11:17:37Z</time>
      </trkpt>
      <trkpt lat="45.59816" lon="6.71291">
        <ele>1821.35</ele>
        <time>2016-01-17T11:17:54Z</time>
      </trkpt>
      <trkpt lat="45.59824" lon="6.71293">
        <ele>1823.28</ele>
        <time>2016-01-17T11:18:08Z</time>
      </trkpt>
      <trkpt lat="45.59833" lon="6.71295">
        <ele>1824.72</ele>
        <time>2016-01-17T11:18:24Z</time>
      </trkpt>
      <trkpt lat="45.59841" lon="6.71298">
        <ele>1826.64</ele>
        <time>2016-01-17T11:18:38Z</time>
      </trkpt>
      <trkpt lat="45.5985" lon="6.71302">
        <ele>1828.56</ele>
        <time>2016-01-17T11:18:54Z</time>
      </trkpt>
      <trkpt lat="45.59858" lon="6.71304">
        <ele>1830.49</ele>
        <time>2016-01-17T11:19:10Z</time>
      </trkpt>
      <trkpt lat="45.59867" lon="6.71308">
        <ele>1832.41</ele>
        <time>2016-01-17T11:19:27Z</time>
      </trkpt>
      <trkpt lat="45.59873" lon="6.71308">
        <ele>1834.33</ele>
        <time>2016-01-17T11:19:41Z</time>
      </trkpt>
      <trkpt lat="45.59876" lon="6.71302">
        <ele>1837.7</ele>
        <time>2016-01-17T11:19:58Z</time>
      </trkpt>
      <trkpt lat="45.59876" lon="6.71286">
        <ele>1840.58</ele>
        <time>2016-01-17T11:20:20Z</time>
      </trkpt>
      <trkpt lat="45.59876" lon="6.71276">
        <ele>1842.5</ele>
        <time>2016-01-17T11:20:34Z</time>
      </trkpt>
      <trkpt lat="45.59876" lon="6.71267">
        <ele>1843.95</ele>
        <time>2016-01-17T11:20:47Z</time>
      </trkpt>
      <trkpt lat="45.59877" lon="6.71257">
        <ele>1846.35</ele>
        <time>2016-01-17T11:21:03Z</time>
      </trkpt>
      <trkpt lat="45.59878" lon="6.71248">
        <ele>1848.27</ele>
        <time>2016-01-17T11:21:18Z</time>
      </trkpt>
      <trkpt lat="45.59878" lon="6.71239">
        <ele>1850.19</ele>
        <time>2016-01-17T11:21:30Z</time>
      </trkpt>
      <trkpt lat="45.59877" lon="6.71226">
        <ele>1852.12</ele>
        <time>2016-01-17T11:21:49Z</time>
      </trkpt>
      <trkpt lat="45.59877" lon="6.71216">
        <ele>1853.56</ele>
        <time>2016-01-17T11:22:03Z</time>
      </trkpt>
      <trkpt lat="45.59879" lon="6.71203">
        <ele>1855</ele>
        <time>2016-01-17T11:22:19Z</time>
      </trkpt>
      <trkpt lat="45.59883" lon="6.7119">
        <ele>1857.4</ele>
        <time>2016-01-17T11:22:37Z</time>
      </trkpt>
      <trkpt lat="45.59888" lon="6.71176">
        <ele>1859.33</ele>
        <time>2016-01-17T11:22:55Z</time>
      </trkpt>
      <trkpt lat="45.59894" lon="6.71163">
        <ele>1861.25</ele>
        <time>2016-01-17T11:23:15Z</time>
      </trkpt>
      <trkpt lat="45.59898" lon="6.71148">
        <ele>1863.65</ele>
        <time>2016-01-17T11:23:35Z</time>
      </trkpt>
      <trkpt lat="45.59902" lon="6.71143">
        <ele>1864.61</ele>
        <time>2016-01-17T11:23:48Z</time>
      </trkpt>
      <trkpt lat="45.59912" lon="6.71137">
        <ele>1867.02</ele>
        <time>2016-01-17T11:24:04Z</time>
      </trkpt>
      <trkpt lat="45.5992" lon="6.71132">
        <ele>1869.42</ele>
        <time>2016-01-17T11:24:19Z</time>
      </trkpt>
      <trkpt lat="45.59924" lon="6.71123">
        <ele>1872.79</ele>
        <time>2016-01-17T11:24:35Z</time>
      </trkpt>
      <trkpt lat="45.59927" lon="6.71112">
        <ele>1874.71</ele>
        <time>2016-01-17T11:24:52Z</time>
      </trkpt>
      <trkpt lat="45.59936" lon="6.71112">
        <ele>1877.11</ele>
        <time>2016-01-17T11:25:07Z</time>
      </trkpt>
      <trkpt lat="45.59946" lon="6.71105">
        <ele>1879.51</ele>
        <time>2016-01-17T11:25:24Z</time>
      </trkpt>
      <trkpt lat="45.59948" lon="6.71088">
        <ele>1882.4</ele>
        <time>2016-01-17T11:25:42Z</time>
      </trkpt>
      <trkpt lat="45.5995" lon="6.71073">
        <ele>1885.28</ele>
        <time>2016-01-17T11:25:58Z</time>
      </trkpt>
      <trkpt lat="45.59951" lon="6.71057">
        <ele>1887.69</ele>
        <time>2016-01-17T11:26:16Z</time>
      </trkpt>
      <trkpt lat="45.59951" lon="6.71047">
        <ele>1890.09</ele>
        <time>2016-01-17T11:26:30Z</time>
      </trkpt>
      <trkpt lat="45.59953" lon="6.71034">
        <ele>1892.97</ele>
        <time>2016-01-17T11:26:46Z</time>
      </trkpt>
      <trkpt lat="45.59955" lon="6.71021">
        <ele>1894.9</ele>
        <time>2016-01-17T11:27:02Z</time>
      </trkpt>
      <trkpt lat="45.59958" lon="6.7101">
        <ele>1897.3</ele>
        <time>2016-01-17T11:27:18Z</time>
      </trkpt>
      <trkpt lat="45.59961" lon="6.71002">
        <ele>1899.7</ele>
        <time>2016-01-17T11:27:34Z</time>
      </trkpt>
      <trkpt lat="45.59965" lon="6.70992">
        <ele>1902.11</ele>
        <time>2016-01-17T11:27:51Z</time>
      </trkpt>
      <trkpt lat="45.59968" lon="6.70983">
        <ele>1904.03</ele>
        <time>2016-01-17T11:28:09Z</time>
      </trkpt>
      <trkpt lat="45.59973" lon="6.70974">
        <ele>1906.43</ele>
        <time>2016-01-17T11:28:29Z</time>
      </trkpt>
      <trkpt lat="45.5998" lon="6.7097">
        <ele>1908.83</ele>
        <time>2016-01-17T11:28:44Z</time>
      </trkpt>
      <trkpt lat="45.59984" lon="6.70971">
        <ele>1910.76</ele>
        <time>2016-01-17T11:28:57Z</time>
      </trkpt>
      <trkpt lat="45.59991" lon="6.70973">
        <ele>1912.2</ele>
        <time>2016-01-17T11:29:10Z</time>
      </trkpt>
      <trkpt lat="45.59996" lon="6.70976">
        <ele>1914.6</ele>
        <time>2016-01-17T11:29:24Z</time>
      </trkpt>
      <trkpt lat="45.60002" lon="6.70979">
        <ele>1917.01</ele>
        <time>2016-01-17T11:29:39Z</time>
      </trkpt>
      <trkpt lat="45.60008" lon="6.70981">
        <ele>1918.45</ele>
        <time>2016-01-17T11:29:53Z</time>
      </trkpt>
      <trkpt lat="45.60013" lon="6.70979">
        <ele>1920.37</ele>
        <time>2016-01-17T11:30:07Z</time>
      </trkpt>
      <trkpt lat="45.60013" lon="6.70967">
        <ele>1922.77</ele>
        <time>2016-01-17T11:30:25Z</time>
      </trkpt>
      <trkpt lat="45.60015" lon="6.70955">
        <ele>1925.18</ele>
        <time>2016-01-17T11:30:43Z</time>
      </trkpt>
      <trkpt lat="45.60018" lon="6.70945">
        <ele>1926.62</ele>
        <time>2016-01-17T11:31:00Z</time>
      </trkpt>
      <trkpt lat="45.60022" lon="6.70936">
        <ele>1928.54</ele>
        <time>2016-01-17T11:31:17Z</time>
      </trkpt>
      <trkpt lat="45.60024" lon="6.70925">
        <ele>1930.95</ele>
        <time>2016-01-17T11:31:34Z</time>
      </trkpt>
      <trkpt lat="45.60027" lon="6.70911">
        <ele>1933.35</ele>
        <time>2016-01-17T11:31:55Z</time>
      </trkpt>
      <trkpt lat="45.60036" lon="6.70905">
        <ele>1935.75</ele>
        <time>2016-01-17T11:32:10Z</time>
      </trkpt>
      <trkpt lat="45.60043" lon="6.70902">
        <ele>1937.19</ele>
        <time>2016-01-17T11:32:26Z</time>
      </trkpt>
      <trkpt lat="45.6005" lon="6.70902">
        <ele>1938.64</ele>
        <time>2016-01-17T11:32:40Z</time>
      </trkpt>
      <trkpt lat="45.6006" lon="6.70902">
        <ele>1940.56</ele>
        <time>2016-01-17T11:32:56Z</time>
      </trkpt>
      <trkpt lat="45.60066" lon="6.70902">
        <ele>1941.52</ele>
        <time>2016-01-17T11:33:11Z</time>
      </trkpt>
      <trkpt lat="45.60072" lon="6.70899">
        <ele>1944.4</ele>
        <time>2016-01-17T11:33:30Z</time>
      </trkpt>
      <trkpt lat="45.60075" lon="6.70888">
        <ele>1945.85</ele>
        <time>2016-01-17T11:33:46Z</time>
      </trkpt>
      <trkpt lat="45.60078" lon="6.70875">
        <ele>1947.77</ele>
        <time>2016-01-17T11:34:03Z</time>
      </trkpt>
      <trkpt lat="45.60079" lon="6.70874">
        <ele>1947.77</ele>
        <time>2016-01-17T11:34:21Z</time>
      </trkpt>
      <trkpt lat="45.6008" lon="6.70875">
        <ele>1947.29</ele>
        <time>2016-01-17T11:35:02Z</time>
      </trkpt>
      <trkpt lat="45.6008" lon="6.70875">
        <ele>1947.29</ele>
        <time>2016-01-17T11:35:32Z</time>
      </trkpt>
      <trkpt lat="45.6008" lon="6.70873">
        <ele>1947.29</ele>
        <time>2016-01-17T11:35:47Z</time>
      </trkpt>
      <trkpt lat="45.6008" lon="6.70872">
        <ele>1947.29</ele>
        <time>2016-01-17T11:36:09Z</time>
      </trkpt>
      <trkpt lat="45.60081" lon="6.70873">
        <ele>1947.29</ele>
        <time>2016-01-17T11:36:45Z</time>
      </trkpt>
      <trkpt lat="45.6008" lon="6.70874">
        <ele>1946.81</ele>
        <time>2016-01-17T11:37:19Z</time>
      </trkpt>
      <trkpt lat="45.60078" lon="6.70874">
        <ele>1946.81</ele>
        <time>2016-01-17T11:37:45Z</time>
      </trkpt>
      <trkpt lat="45.60076" lon="6.70876">
        <ele>1946.81</ele>
        <time>2016-01-17T11:38:03Z</time>
      </trkpt>
      <trkpt lat="45.60078" lon="6.70875">
        <ele>1946.33</ele>
        <time>2016-01-17T11:38:23Z</time>
      </trkpt>
      <trkpt lat="45.60078" lon="6.70874">
        <ele>1946.81</ele>
        <time>2016-01-17T11:38:54Z</time>
      </trkpt>
      <trkpt lat="45.60079" lon="6.7087">
        <ele>1946.33</ele>
        <time>2016-01-17T11:39:16Z</time>
      </trkpt>
      <trkpt lat="45.60079" lon="6.7087">
        <ele>1946.33</ele>
        <time>2016-01-17T11:39:43Z</time>
      </trkpt>
      <trkpt lat="45.60079" lon="6.7087">
        <ele>1946.33</ele>
        <time>2016-01-17T11:40:05Z</time>
      </trkpt>
      <trkpt lat="45.60079" lon="6.7087">
        <ele>1945.85</ele>
        <time>2016-01-17T11:40:23Z</time>
      </trkpt>
      <trkpt lat="45.60078" lon="6.7087">
        <ele>1945.85</ele>
        <time>2016-01-17T11:40:44Z</time>
      </trkpt>
      <trkpt lat="45.60078" lon="6.7087">
        <ele>1945.85</ele>
        <time>2016-01-17T11:41:05Z</time>
      </trkpt>
      <trkpt lat="45.60077" lon="6.70871">
        <ele>1945.85</ele>
        <time>2016-01-17T11:41:14Z</time>
      </trkpt>
      <trkpt lat="45.60078" lon="6.7087">
        <ele>1945.85</ele>
        <time>2016-01-17T11:41:38Z</time>
      </trkpt>
      <trkpt lat="45.60077" lon="6.7087">
        <ele>1945.85</ele>
        <time>2016-01-17T11:41:59Z</time>
      </trkpt>
      <trkpt lat="45.60077" lon="6.70869">
        <ele>1945.85</ele>
        <time>2016-01-17T11:42:29Z</time>
      </trkpt>
      <trkpt lat="45.60077" lon="6.70869">
        <ele>1945.85</ele>
        <time>2016-01-17T11:42:56Z</time>
      </trkpt>
      <trkpt lat="45.60077" lon="6.70871">
        <ele>1945.85</ele>
        <time>2016-01-17T11:43:29Z</time>
      </trkpt>
      <trkpt lat="45.60077" lon="6.7087">
        <ele>1945.85</ele>
        <time>2016-01-17T11:43:48Z</time>
      </trkpt>
      <trkpt lat="45.60076" lon="6.70871">
        <ele>1945.85</ele>
        <time>2016-01-17T11:44:11Z</time>
      </trkpt>
      <trkpt lat="45.60076" lon="6.70867">
        <ele>1946.33</ele>
        <time>2016-01-17T11:44:19Z</time>
      </trkpt>
      <trkpt lat="45.60078" lon="6.70848">
        <ele>1946.81</ele>
        <time>2016-01-17T11:44:35Z</time>
      </trkpt>
      <trkpt lat="45.6008" lon="6.70835">
        <ele>1946.81</ele>
        <time>2016-01-17T11:44:51Z</time>
      </trkpt>
      <trkpt lat="45.60089" lon="6.70829">
        <ele>1948.73</ele>
        <time>2016-01-17T11:45:07Z</time>
      </trkpt>
      <trkpt lat="45.60098" lon="6.70823">
        <ele>1950.65</ele>
        <time>2016-01-17T11:45:22Z</time>
      </trkpt>
      <trkpt lat="45.60104" lon="6.70814">
        <ele>1950.17</ele>
        <time>2016-01-17T11:45:35Z</time>
      </trkpt>
      <trkpt lat="45.60109" lon="6.70805">
        <ele>1951.61</ele>
        <time>2016-01-17T11:45:50Z</time>
      </trkpt>
      <trkpt lat="45.60113" lon="6.708">
        <ele>1954.02</ele>
        <time>2016-01-17T11:46:04Z</time>
      </trkpt>
      <trkpt lat="45.6012" lon="6.70796">
        <ele>1955.46</ele>
        <time>2016-01-17T11:46:20Z</time>
      </trkpt>
      <trkpt lat="45.60128" lon="6.70798">
        <ele>1957.86</ele>
        <time>2016-01-17T11:46:33Z</time>
      </trkpt>
      <trkpt lat="45.60133" lon="6.70802">
        <ele>1960.27</ele>
        <time>2016-01-17T11:46:51Z</time>
      </trkpt>
      <trkpt lat="45.60137" lon="6.70808">
        <ele>1961.71</ele>
        <time>2016-01-17T11:47:04Z</time>
      </trkpt>
      <trkpt lat="45.60141" lon="6.70812">
        <ele>1962.67</ele>
        <time>2016-01-17T11:47:18Z</time>
      </trkpt>
      <trkpt lat="45.60145" lon="6.70812">
        <ele>1965.07</ele>
        <time>2016-01-17T11:47:32Z</time>
      </trkpt>
      <trkpt lat="45.60148" lon="6.70815">
        <ele>1966.51</ele>
        <time>2016-01-17T11:47:46Z</time>
      </trkpt>
      <trkpt lat="45.60152" lon="6.70821">
        <ele>1967.96</ele>
        <time>2016-01-17T11:47:59Z</time>
      </trkpt>
      <trkpt lat="45.60157" lon="6.70826">
        <ele>1969.88</ele>
        <time>2016-01-17T11:48:15Z</time>
      </trkpt>
      <trkpt lat="45.60162" lon="6.70831">
        <ele>1971.32</ele>
        <time>2016-01-17T11:48:29Z</time>
      </trkpt>
      <trkpt lat="45.60167" lon="6.70837">
        <ele>1972.28</ele>
        <time>2016-01-17T11:48:42Z</time>
      </trkpt>
      <trkpt lat="45.60172" lon="6.7084">
        <ele>1974.2</ele>
        <time>2016-01-17T11:48:56Z</time>
      </trkpt>
      <trkpt lat="45.60178" lon="6.70843">
        <ele>1975.65</ele>
        <time>2016-01-17T11:49:08Z</time>
      </trkpt>
      <trkpt lat="45.60184" lon="6.70845">
        <ele>1978.05</ele>
        <time>2016-01-17T11:49:25Z</time>
      </trkpt>
      <trkpt lat="45.6019" lon="6.70846">
        <ele>1979.49</ele>
        <time>2016-01-17T11:49:41Z</time>
      </trkpt>
      <trkpt lat="45.60196" lon="6.70849">
        <ele>1980.93</ele>
        <time>2016-01-17T11:49:56Z</time>
      </trkpt>
      <trkpt lat="45.60201" lon="6.70853">
        <ele>1982.86</ele>
        <time>2016-01-17T11:50:10Z</time>
      </trkpt>
      <trkpt lat="45.60207" lon="6.70858">
        <ele>1983.82</ele>
        <time>2016-01-17T11:50:24Z</time>
      </trkpt>
      <trkpt lat="45.60214" lon="6.70864">
        <ele>1986.7</ele>
        <time>2016-01-17T11:50:44Z</time>
      </trkpt>
      <trkpt lat="45.60222" lon="6.7087">
        <ele>1987.66</ele>
        <time>2016-01-17T11:50:59Z</time>
      </trkpt>
      <trkpt lat="45.60228" lon="6.70878">
        <ele>1988.62</ele>
        <time>2016-01-17T11:51:15Z</time>
      </trkpt>
      <trkpt lat="45.60237" lon="6.70885">
        <ele>1991.03</ele>
        <time>2016-01-17T11:51:34Z</time>
      </trkpt>
      <trkpt lat="45.60243" lon="6.70888">
        <ele>1992.95</ele>
        <time>2016-01-17T11:51:50Z</time>
      </trkpt>
      <trkpt lat="45.60249" lon="6.70889">
        <ele>1994.39</ele>
        <time>2016-01-17T11:52:04Z</time>
      </trkpt>
      <trkpt lat="45.60255" lon="6.7089">
        <ele>1995.83</ele>
        <time>2016-01-17T11:52:18Z</time>
      </trkpt>
      <trkpt lat="45.60263" lon="6.7089">
        <ele>1997.76</ele>
        <time>2016-01-17T11:52:33Z</time>
      </trkpt>
      <trkpt lat="45.60273" lon="6.7089">
        <ele>1998.72</ele>
        <time>2016-01-17T11:52:49Z</time>
      </trkpt>
      <trkpt lat="45.60275" lon="6.70889">
        <ele>1998.72</ele>
        <time>2016-01-17T11:52:52Z</time>
      </trkpt>
      <trkpt lat="45.60284" lon="6.70886">
        <ele>1999.68</ele>
        <time>2016-01-17T11:53:07Z</time>
      </trkpt>
      <trkpt lat="45.60289" lon="6.70883">
        <ele>2000.64</ele>
        <time>2016-01-17T11:53:21Z</time>
      </trkpt>
      <trkpt lat="45.60296" lon="6.70881">
        <ele>2002.08</ele>
        <time>2016-01-17T11:53:34Z</time>
      </trkpt>
      <trkpt lat="45.60301" lon="6.7088">
        <ele>2004.49</ele>
        <time>2016-01-17T11:53:54Z</time>
      </trkpt>
      <trkpt lat="45.60307" lon="6.70879">
        <ele>2006.89</ele>
        <time>2016-01-17T11:54:08Z</time>
      </trkpt>
      <trkpt lat="45.60318" lon="6.70878">
        <ele>2009.29</ele>
        <time>2016-01-17T11:54:30Z</time>
      </trkpt>
      <trkpt lat="45.60324" lon="6.70877">
        <ele>2010.73</ele>
        <time>2016-01-17T11:54:43Z</time>
      </trkpt>
      <trkpt lat="45.60329" lon="6.70875">
        <ele>2012.66</ele>
        <time>2016-01-17T11:55:00Z</time>
      </trkpt>
      <trkpt lat="45.60335" lon="6.70874">
        <ele>2014.58</ele>
        <time>2016-01-17T11:55:15Z</time>
      </trkpt>
      <trkpt lat="45.60341" lon="6.70873">
        <ele>2017.46</ele>
        <time>2016-01-17T11:55:32Z</time>
      </trkpt>
      <trkpt lat="45.60351" lon="6.70872">
        <ele>2019.87</ele>
        <time>2016-01-17T11:55:49Z</time>
      </trkpt>
      <trkpt lat="45.60359" lon="6.70873">
        <ele>2021.79</ele>
        <time>2016-01-17T11:56:05Z</time>
      </trkpt>
      <trkpt lat="45.60368" lon="6.70874">
        <ele>2024.19</ele>
        <time>2016-01-17T11:56:22Z</time>
      </trkpt>
      <trkpt lat="45.60376" lon="6.70873">
        <ele>2025.64</ele>
        <time>2016-01-17T11:56:37Z</time>
      </trkpt>
      <trkpt lat="45.60383" lon="6.70873">
        <ele>2027.56</ele>
        <time>2016-01-17T11:56:55Z</time>
      </trkpt>
      <trkpt lat="45.6039" lon="6.70874">
        <ele>2029</ele>
        <time>2016-01-17T11:57:08Z</time>
      </trkpt>
      <trkpt lat="45.60397" lon="6.70874">
        <ele>2030.44</ele>
        <time>2016-01-17T11:57:22Z</time>
      </trkpt>
      <trkpt lat="45.60403" lon="6.70871">
        <ele>2032.36</ele>
        <time>2016-01-17T11:57:40Z</time>
      </trkpt>
      <trkpt lat="45.60411" lon="6.7087">
        <ele>2033.81</ele>
        <time>2016-01-17T11:57:56Z</time>
      </trkpt>
      <trkpt lat="45.60416" lon="6.70869">
        <ele>2035.73</ele>
        <time>2016-01-17T11:58:11Z</time>
      </trkpt>
      <trkpt lat="45.60425" lon="6.7087">
        <ele>2037.17</ele>
        <time>2016-01-17T11:58:28Z</time>
      </trkpt>
      <trkpt lat="45.60433" lon="6.70877">
        <ele>2038.13</ele>
        <time>2016-01-17T11:58:43Z</time>
      </trkpt>
      <trkpt lat="45.60443" lon="6.70885">
        <ele>2039.09</ele>
        <time>2016-01-17T11:59:01Z</time>
      </trkpt>
      <trkpt lat="45.60451" lon="6.70884">
        <ele>2039.09</ele>
        <time>2016-01-17T11:59:16Z</time>
      </trkpt>
      <trkpt lat="45.60457" lon="6.70883">
        <ele>2040.54</ele>
        <time>2016-01-17T11:59:30Z</time>
      </trkpt>
      <trkpt lat="45.60462" lon="6.70878">
        <ele>2041.98</ele>
        <time>2016-01-17T11:59:47Z</time>
      </trkpt>
      <trkpt lat="45.60464" lon="6.7087">
        <ele>2044.38</ele>
        <time>2016-01-17T12:00:01Z</time>
      </trkpt>
      <trkpt lat="45.60467" lon="6.70861">
        <ele>2045.82</ele>
        <time>2016-01-17T12:00:16Z</time>
      </trkpt>
      <trkpt lat="45.6047" lon="6.70855">
        <ele>2047.75</ele>
        <time>2016-01-17T12:00:30Z</time>
      </trkpt>
      <trkpt lat="45.60475" lon="6.7085">
        <ele>2048.71</ele>
        <time>2016-01-17T12:00:43Z</time>
      </trkpt>
      <trkpt lat="45.60484" lon="6.70848">
        <ele>2050.63</ele>
        <time>2016-01-17T12:01:02Z</time>
      </trkpt>
      <trkpt lat="45.6049" lon="6.70847">
        <ele>2051.59</ele>
        <time>2016-01-17T12:01:17Z</time>
      </trkpt>
      <trkpt lat="45.60498" lon="6.70845">
        <ele>2053.03</ele>
        <time>2016-01-17T12:01:33Z</time>
      </trkpt>
      <trkpt lat="45.60502" lon="6.70845">
        <ele>2054.47</ele>
        <time>2016-01-17T12:01:48Z</time>
      </trkpt>
      <trkpt lat="45.6051" lon="6.7084">
        <ele>2055.92</ele>
        <time>2016-01-17T12:02:04Z</time>
      </trkpt>
      <trkpt lat="45.60516" lon="6.70835">
        <ele>2058.32</ele>
        <time>2016-01-17T12:02:19Z</time>
      </trkpt>
      <trkpt lat="45.60521" lon="6.70828">
        <ele>2059.76</ele>
        <time>2016-01-17T12:02:32Z</time>
      </trkpt>
      <trkpt lat="45.60526" lon="6.70824">
        <ele>2061.2</ele>
        <time>2016-01-17T12:02:46Z</time>
      </trkpt>
      <trkpt lat="45.6053" lon="6.7082">
        <ele>2062.65</ele>
        <time>2016-01-17T12:03:01Z</time>
      </trkpt>
      <trkpt lat="45.60532" lon="6.70818">
        <ele>2063.13</ele>
        <time>2016-01-17T12:03:14Z</time>
      </trkpt>
      <trkpt lat="45.60536" lon="6.70817">
        <ele>2065.05</ele>
        <time>2016-01-17T12:03:31Z</time>
      </trkpt>
      <trkpt lat="45.60543" lon="6.70813">
        <ele>2066.97</ele>
        <time>2016-01-17T12:03:50Z</time>
      </trkpt>
      <trkpt lat="45.60547" lon="6.70808">
        <ele>2068.41</ele>
        <time>2016-01-17T12:04:03Z</time>
      </trkpt>
      <trkpt lat="45.60553" lon="6.70806">
        <ele>2069.86</ele>
        <time>2016-01-17T12:04:16Z</time>
      </trkpt>
      <trkpt lat="45.6056" lon="6.70806">
        <ele>2071.78</ele>
        <time>2016-01-17T12:04:34Z</time>
      </trkpt>
      <trkpt lat="45.60566" lon="6.70806">
        <ele>2073.7</ele>
        <time>2016-01-17T12:04:49Z</time>
      </trkpt>
      <trkpt lat="45.60574" lon="6.70804">
        <ele>2075.62</ele>
        <time>2016-01-17T12:05:04Z</time>
      </trkpt>
      <trkpt lat="45.60581" lon="6.70803">
        <ele>2077.07</ele>
        <time>2016-01-17T12:05:19Z</time>
      </trkpt>
      <trkpt lat="45.60588" lon="6.70801">
        <ele>2079.47</ele>
        <time>2016-01-17T12:05:37Z</time>
      </trkpt>
      <trkpt lat="45.60596" lon="6.70799">
        <ele>2081.87</ele>
        <time>2016-01-17T12:05:54Z</time>
      </trkpt>
      <trkpt lat="45.60603" lon="6.70797">
        <ele>2083.79</ele>
        <time>2016-01-17T12:06:09Z</time>
      </trkpt>
      <trkpt lat="45.60609" lon="6.70795">
        <ele>2085.72</ele>
        <time>2016-01-17T12:06:27Z</time>
      </trkpt>
      <trkpt lat="45.60616" lon="6.70791">
        <ele>2087.64</ele>
        <time>2016-01-17T12:06:43Z</time>
      </trkpt>
      <trkpt lat="45.60622" lon="6.70787">
        <ele>2090.04</ele>
        <time>2016-01-17T12:07:01Z</time>
      </trkpt>
      <trkpt lat="45.6063" lon="6.70785">
        <ele>2091.97</ele>
        <time>2016-01-17T12:07:17Z</time>
      </trkpt>
      <trkpt lat="45.60637" lon="6.70778">
        <ele>2094.37</ele>
        <time>2016-01-17T12:07:35Z</time>
      </trkpt>
      <trkpt lat="45.60643" lon="6.70772">
        <ele>2094.85</ele>
        <time>2016-01-17T12:07:52Z</time>
      </trkpt>
      <trkpt lat="45.6065" lon="6.70758">
        <ele>2096.77</ele>
        <time>2016-01-17T12:08:08Z</time>
      </trkpt>
      <trkpt lat="45.60656" lon="6.70746">
        <ele>2099.18</ele>
        <time>2016-01-17T12:08:25Z</time>
      </trkpt>
      <trkpt lat="45.60662" lon="6.70738">
        <ele>2100.62</ele>
        <time>2016-01-17T12:08:39Z</time>
      </trkpt>
      <trkpt lat="45.60666" lon="6.70732">
        <ele>2102.54</ele>
        <time>2016-01-17T12:08:54Z</time>
      </trkpt>
      <trkpt lat="45.60672" lon="6.70725">
        <ele>2104.46</ele>
        <time>2016-01-17T12:09:09Z</time>
      </trkpt>
      <trkpt lat="45.60678" lon="6.7072">
        <ele>2105.91</ele>
        <time>2016-01-17T12:09:25Z</time>
      </trkpt>
      <trkpt lat="45.60683" lon="6.70717">
        <ele>2107.83</ele>
        <time>2016-01-17T12:09:43Z</time>
      </trkpt>
      <trkpt lat="45.60685" lon="6.70719">
        <ele>2107.83</ele>
        <time>2016-01-17T12:10:01Z</time>
      </trkpt>
      <trkpt lat="45.60688" lon="6.70714">
        <ele>2108.31</ele>
        <time>2016-01-17T12:10:15Z</time>
      </trkpt>
      <trkpt lat="45.60694" lon="6.70709">
        <ele>2108.31</ele>
        <time>2016-01-17T12:10:28Z</time>
      </trkpt>
      <trkpt lat="45.60701" lon="6.70702">
        <ele>2108.79</ele>
        <time>2016-01-17T12:10:41Z</time>
      </trkpt>
      <trkpt lat="45.60709" lon="6.70692">
        <ele>2109.75</ele>
        <time>2016-01-17T12:10:55Z</time>
      </trkpt>
      <trkpt lat="45.60713" lon="6.70685">
        <ele>2110.23</ele>
        <time>2016-01-17T12:11:06Z</time>
      </trkpt>
      <trkpt lat="45.60719" lon="6.70675">
        <ele>2111.19</ele>
        <time>2016-01-17T12:11:19Z</time>
      </trkpt>
      <trkpt lat="45.60724" lon="6.70663">
        <ele>2111.67</ele>
        <time>2016-01-17T12:11:35Z</time>
      </trkpt>
      <trkpt lat="45.60728" lon="6.70645">
        <ele>2112.63</ele>
        <time>2016-01-17T12:11:51Z</time>
      </trkpt>
      <trkpt lat="45.60728" lon="6.70643">
        <ele>2112.63</ele>
        <time>2016-01-17T12:11:53Z</time>
      </trkpt>
      <trkpt lat="45.60734" lon="6.70623">
        <ele>2112.15</ele>
        <time>2016-01-17T12:12:09Z</time>
      </trkpt>
      <trkpt lat="45.60739" lon="6.70609">
        <ele>2112.63</ele>
        <time>2016-01-17T12:12:24Z</time>
      </trkpt>
      <trkpt lat="45.60746" lon="6.70602">
        <ele>2114.08</ele>
        <time>2016-01-17T12:12:38Z</time>
      </trkpt>
      <trkpt lat="45.60755" lon="6.70592">
        <ele>2116.96</ele>
        <time>2016-01-17T12:12:57Z</time>
      </trkpt>
      <trkpt lat="45.60764" lon="6.70583">
        <ele>2119.36</ele>
        <time>2016-01-17T12:13:13Z</time>
      </trkpt>
      <trkpt lat="45.60772" lon="6.70575">
        <ele>2121.77</ele>
        <time>2016-01-17T12:13:29Z</time>
      </trkpt>
      <trkpt lat="45.60775" lon="6.70575">
        <ele>2123.21</ele>
        <time>2016-01-17T12:13:43Z</time>
      </trkpt>
      <trkpt lat="45.6078" lon="6.70572">
        <ele>2125.13</ele>
        <time>2016-01-17T12:13:59Z</time>
      </trkpt>
      <trkpt lat="45.6079" lon="6.70566">
        <ele>2127.53</ele>
        <time>2016-01-17T12:14:14Z</time>
      </trkpt>
      <trkpt lat="45.60799" lon="6.70561">
        <ele>2129.94</ele>
        <time>2016-01-17T12:14:30Z</time>
      </trkpt>
      <trkpt lat="45.60806" lon="6.70557">
        <ele>2131.86</ele>
        <time>2016-01-17T12:14:44Z</time>
      </trkpt>
      <trkpt lat="45.60813" lon="6.70555">
        <ele>2133.78</ele>
        <time>2016-01-17T12:14:58Z</time>
      </trkpt>
      <trkpt lat="45.60823" lon="6.70557">
        <ele>2135.23</ele>
        <time>2016-01-17T12:15:15Z</time>
      </trkpt>
      <trkpt lat="45.60832" lon="6.70557">
        <ele>2137.15</ele>
        <time>2016-01-17T12:15:34Z</time>
      </trkpt>
      <trkpt lat="45.6084" lon="6.70555">
        <ele>2138.11</ele>
        <time>2016-01-17T12:15:49Z</time>
      </trkpt>
      <trkpt lat="45.60847" lon="6.70555">
        <ele>2139.07</ele>
        <time>2016-01-17T12:16:02Z</time>
      </trkpt>
      <trkpt lat="45.60854" lon="6.70558">
        <ele>2141.95</ele>
        <time>2016-01-17T12:16:18Z</time>
      </trkpt>
      <trkpt lat="45.60864" lon="6.70559">
        <ele>2143.88</ele>
        <time>2016-01-17T12:16:35Z</time>
      </trkpt>
      <trkpt lat="45.60871" lon="6.7055">
        <ele>2145.32</ele>
        <time>2016-01-17T12:16:49Z</time>
      </trkpt>
      <trkpt lat="45.60879" lon="6.70539">
        <ele>2145.8</ele>
        <time>2016-01-17T12:17:04Z</time>
      </trkpt>
      <trkpt lat="45.60885" lon="6.70529">
        <ele>2146.76</ele>
        <time>2016-01-17T12:17:18Z</time>
      </trkpt>
      <trkpt lat="45.60887" lon="6.70517">
        <ele>2148.2</ele>
        <time>2016-01-17T12:17:33Z</time>
      </trkpt>
      <trkpt lat="45.60888" lon="6.70515">
        <ele>2148.68</ele>
        <time>2016-01-17T12:17:52Z</time>
      </trkpt>
      <trkpt lat="45.60891" lon="6.70502">
        <ele>2151.09</ele>
        <time>2016-01-17T12:18:09Z</time>
      </trkpt>
      <trkpt lat="45.60895" lon="6.70491">
        <ele>2153.49</ele>
        <time>2016-01-17T12:18:23Z</time>
      </trkpt>
      <trkpt lat="45.60897" lon="6.70477">
        <ele>2155.89</ele>
        <time>2016-01-17T12:18:40Z</time>
      </trkpt>
      <trkpt lat="45.60902" lon="6.70464">
        <ele>2157.82</ele>
        <time>2016-01-17T12:18:57Z</time>
      </trkpt>
      <trkpt lat="45.60906" lon="6.70451">
        <ele>2159.74</ele>
        <time>2016-01-17T12:19:14Z</time>
      </trkpt>
      <trkpt lat="45.6091" lon="6.70442">
        <ele>2161.18</ele>
        <time>2016-01-17T12:19:29Z</time>
      </trkpt>
      <trkpt lat="45.60914" lon="6.70435">
        <ele>2162.62</ele>
        <time>2016-01-17T12:19:44Z</time>
      </trkpt>
      <trkpt lat="45.60919" lon="6.70424">
        <ele>2165.51</ele>
        <time>2016-01-17T12:19:59Z</time>
      </trkpt>
      <trkpt lat="45.60922" lon="6.70412">
        <ele>2167.43</ele>
        <time>2016-01-17T12:20:14Z</time>
      </trkpt>
      <trkpt lat="45.60925" lon="6.704">
        <ele>2170.31</ele>
        <time>2016-01-17T12:20:30Z</time>
      </trkpt>
      <trkpt lat="45.60926" lon="6.70397">
        <ele>2170.79</ele>
        <time>2016-01-17T12:20:45Z</time>
      </trkpt>
      <trkpt lat="45.6093" lon="6.70392">
        <ele>2171.27</ele>
        <time>2016-01-17T12:21:01Z</time>
      </trkpt>
      <trkpt lat="45.60935" lon="6.70378">
        <ele>2174.16</ele>
        <time>2016-01-17T12:21:17Z</time>
      </trkpt>
      <trkpt lat="45.60939" lon="6.70364">
        <ele>2177.04</ele>
        <time>2016-01-17T12:21:32Z</time>
      </trkpt>
      <trkpt lat="45.60944" lon="6.7035">
        <ele>2178.97</ele>
        <time>2016-01-17T12:21:48Z</time>
      </trkpt>
      <trkpt lat="45.60948" lon="6.70337">
        <ele>2180.89</ele>
        <time>2016-01-17T12:22:05Z</time>
      </trkpt>
      <trkpt lat="45.60954" lon="6.70323">
        <ele>2181.85</ele>
        <time>2016-01-17T12:22:23Z</time>
      </trkpt>
      <trkpt lat="45.60961" lon="6.7031">
        <ele>2183.29</ele>
        <time>2016-01-17T12:22:40Z</time>
      </trkpt>
      <trkpt lat="45.60964" lon="6.703">
        <ele>2184.73</ele>
        <time>2016-01-17T12:22:58Z</time>
      </trkpt>
      <trkpt lat="45.60966" lon="6.70288">
        <ele>2188.1</ele>
        <time>2016-01-17T12:23:16Z</time>
      </trkpt>
      <trkpt lat="45.60969" lon="6.70273">
        <ele>2190.5</ele>
        <time>2016-01-17T12:23:34Z</time>
      </trkpt>
      <trkpt lat="45.60974" lon="6.70261">
        <ele>2191.94</ele>
        <time>2016-01-17T12:23:49Z</time>
      </trkpt>
      <trkpt lat="45.60978" lon="6.70252">
        <ele>2192.9</ele>
        <time>2016-01-17T12:24:03Z</time>
      </trkpt>
      <trkpt lat="45.60983" lon="6.70246">
        <ele>2194.83</ele>
        <time>2016-01-17T12:24:17Z</time>
      </trkpt>
      <trkpt lat="45.60987" lon="6.70236">
        <ele>2196.75</ele>
        <time>2016-01-17T12:24:33Z</time>
      </trkpt>
      <trkpt lat="45.60992" lon="6.70226">
        <ele>2198.67</ele>
        <time>2016-01-17T12:24:51Z</time>
      </trkpt>
      <trkpt lat="45.60996" lon="6.70215">
        <ele>2201.08</ele>
        <time>2016-01-17T12:25:08Z</time>
      </trkpt>
      <trkpt lat="45.60999" lon="6.70207">
        <ele>2203.96</ele>
        <time>2016-01-17T12:25:24Z</time>
      </trkpt>
      <trkpt lat="45.61006" lon="6.70198">
        <ele>2205.4</ele>
        <time>2016-01-17T12:25:39Z</time>
      </trkpt>
      <trkpt lat="45.61012" lon="6.70191">
        <ele>2207.81</ele>
        <time>2016-01-17T12:25:57Z</time>
      </trkpt>
      <trkpt lat="45.61017" lon="6.70188">
        <ele>2210.21</ele>
        <time>2016-01-17T12:26:14Z</time>
      </trkpt>
      <trkpt lat="45.61025" lon="6.7018">
        <ele>2212.13</ele>
        <time>2016-01-17T12:26:31Z</time>
      </trkpt>
      <trkpt lat="45.61032" lon="6.70174">
        <ele>2214.05</ele>
        <time>2016-01-17T12:26:45Z</time>
      </trkpt>
      <trkpt lat="45.61037" lon="6.70167">
        <ele>2215.98</ele>
        <time>2016-01-17T12:26:59Z</time>
      </trkpt>
      <trkpt lat="45.61037" lon="6.70154">
        <ele>2218.86</ele>
        <time>2016-01-17T12:27:18Z</time>
      </trkpt>
      <trkpt lat="45.61037" lon="6.70143">
        <ele>2221.26</ele>
        <time>2016-01-17T12:27:35Z</time>
      </trkpt>
      <trkpt lat="45.61038" lon="6.70129">
        <ele>2223.19</ele>
        <time>2016-01-17T12:27:50Z</time>
      </trkpt>
      <trkpt lat="45.61039" lon="6.70121">
        <ele>2226.07</ele>
        <time>2016-01-17T12:28:04Z</time>
      </trkpt>
      <trkpt lat="45.61041" lon="6.70112">
        <ele>2226.07</ele>
        <time>2016-01-17T12:28:20Z</time>
      </trkpt>
      <trkpt lat="45.61048" lon="6.70101">
        <ele>2229.43</ele>
        <time>2016-01-17T12:28:36Z</time>
      </trkpt>
      <trkpt lat="45.61054" lon="6.70092">
        <ele>2230.88</ele>
        <time>2016-01-17T12:28:51Z</time>
      </trkpt>
      <trkpt lat="45.61061" lon="6.70086">
        <ele>2232.8</ele>
        <time>2016-01-17T12:29:06Z</time>
      </trkpt>
      <trkpt lat="45.61067" lon="6.7008">
        <ele>2235.2</ele>
        <time>2016-01-17T12:29:20Z</time>
      </trkpt>
      <trkpt lat="45.61067" lon="6.70079">
        <ele>2233.76</ele>
        <time>2016-01-17T12:29:23Z</time>
      </trkpt>
      <trkpt lat="45.61072" lon="6.70084">
        <ele>2231.84</ele>
        <time>2016-01-17T12:29:36Z</time>
      </trkpt>
      <trkpt lat="45.61073" lon="6.70087">
        <ele>2232.32</ele>
        <time>2016-01-17T12:29:51Z</time>
      </trkpt>
      <trkpt lat="45.61074" lon="6.7009">
        <ele>2232.32</ele>
        <time>2016-01-17T12:30:02Z</time>
      </trkpt>
      <trkpt lat="45.61074" lon="6.70092">
        <ele>2232.32</ele>
        <time>2016-01-17T12:30:17Z</time>
      </trkpt>
      <trkpt lat="45.61074" lon="6.70092">
        <ele>2231.84</ele>
        <time>2016-01-17T12:30:36Z</time>
      </trkpt>
      <trkpt lat="45.61072" lon="6.7009">
        <ele>2230.4</ele>
        <time>2016-01-17T12:30:53Z</time>
      </trkpt>
      <trkpt lat="45.61072" lon="6.7009">
        <ele>2231.36</ele>
        <time>2016-01-17T12:31:24Z</time>
      </trkpt>
      <trkpt lat="45.61071" lon="6.7009">
        <ele>2230.88</ele>
        <time>2016-01-17T12:31:55Z</time>
      </trkpt>
      <trkpt lat="45.61072" lon="6.70091">
        <ele>2229.92</ele>
        <time>2016-01-17T12:32:27Z</time>
      </trkpt>
      <trkpt lat="45.61071" lon="6.70089">
        <ele>2229.43</ele>
        <time>2016-01-17T12:33:07Z</time>
      </trkpt>
      <trkpt lat="45.61071" lon="6.70089">
        <ele>2229.43</ele>
        <time>2016-01-17T12:33:34Z</time>
      </trkpt>
      <trkpt lat="45.61071" lon="6.70089">
        <ele>2230.4</ele>
        <time>2016-01-17T12:34:05Z</time>
      </trkpt>
      <trkpt lat="45.61071" lon="6.70089">
        <ele>2230.4</ele>
        <time>2016-01-17T12:34:37Z</time>
      </trkpt>
      <trkpt lat="45.61071" lon="6.7009">
        <ele>2231.84</ele>
        <time>2016-01-17T12:35:17Z</time>
      </trkpt>
      <trkpt lat="45.61071" lon="6.70089">
        <ele>2230.88</ele>
        <time>2016-01-17T12:35:52Z</time>
      </trkpt>
      <trkpt lat="45.61071" lon="6.70089">
        <ele>2230.4</ele>
        <time>2016-01-17T12:36:21Z</time>
      </trkpt>
      <trkpt lat="45.61071" lon="6.70089">
        <ele>2229.92</ele>
        <time>2016-01-17T12:36:56Z</time>
      </trkpt>
      <trkpt lat="45.61072" lon="6.70089">
        <ele>2229.43</ele>
        <time>2016-01-17T12:37:29Z</time>
      </trkpt>
      <trkpt lat="45.61071" lon="6.70089">
        <ele>2229.43</ele>
        <time>2016-01-17T12:38:11Z</time>
      </trkpt>
      <trkpt lat="45.61071" lon="6.7009">
        <ele>2229.92</ele>
        <time>2016-01-17T12:38:46Z</time>
      </trkpt>
      <trkpt lat="45.61072" lon="6.7009">
        <ele>2229.92</ele>
        <time>2016-01-17T12:39:12Z</time>
      </trkpt>
      <trkpt lat="45.61074" lon="6.7009">
        <ele>2229.43</ele>
        <time>2016-01-17T12:39:31Z</time>
      </trkpt>
      <trkpt lat="45.61073" lon="6.70091">
        <ele>2229.43</ele>
        <time>2016-01-17T12:40:02Z</time>
      </trkpt>
      <trkpt lat="45.61072" lon="6.70091">
        <ele>2228.95</ele>
        <time>2016-01-17T12:40:33Z</time>
      </trkpt>
      <trkpt lat="45.61073" lon="6.70089">
        <ele>2227.99</ele>
        <time>2016-01-17T12:41:03Z</time>
      </trkpt>
      <trkpt lat="45.61073" lon="6.7009">
        <ele>2228.47</ele>
        <time>2016-01-17T12:41:22Z</time>
      </trkpt>
      <trkpt lat="45.61074" lon="6.7009">
        <ele>2228.47</ele>
        <time>2016-01-17T12:41:55Z</time>
      </trkpt>
      <trkpt lat="45.61073" lon="6.70089">
        <ele>2228.95</ele>
        <time>2016-01-17T12:42:23Z</time>
      </trkpt>
      <trkpt lat="45.61072" lon="6.7009">
        <ele>2228.95</ele>
        <time>2016-01-17T12:42:57Z</time>
      </trkpt>
      <trkpt lat="45.61074" lon="6.7009">
        <ele>2228.47</ele>
        <time>2016-01-17T12:43:29Z</time>
      </trkpt>
      <trkpt lat="45.61075" lon="6.7009">
        <ele>2229.43</ele>
        <time>2016-01-17T12:44:02Z</time>
      </trkpt>
      <trkpt lat="45.61074" lon="6.70091">
        <ele>2229.92</ele>
        <time>2016-01-17T12:44:31Z</time>
      </trkpt>
      <trkpt lat="45.61074" lon="6.7009">
        <ele>2229.92</ele>
        <time>2016-01-17T12:45:05Z</time>
      </trkpt>
      <trkpt lat="45.61074" lon="6.7009">
        <ele>2230.4</ele>
        <time>2016-01-17T12:45:36Z</time>
      </trkpt>
      <trkpt lat="45.61075" lon="6.7009">
        <ele>2228.95</ele>
        <time>2016-01-17T12:46:00Z</time>
      </trkpt>
      <trkpt lat="45.61075" lon="6.7009">
        <ele>2227.51</ele>
        <time>2016-01-17T12:46:26Z</time>
      </trkpt>
      <trkpt lat="45.61075" lon="6.70091">
        <ele>2229.43</ele>
        <time>2016-01-17T12:47:07Z</time>
      </trkpt>
      <trkpt lat="45.61075" lon="6.70091">
        <ele>2230.4</ele>
        <time>2016-01-17T12:47:22Z</time>
      </trkpt>
      <trkpt lat="45.61073" lon="6.7009">
        <ele>2229.43</ele>
        <time>2016-01-17T12:47:44Z</time>
      </trkpt>
      <trkpt lat="45.61075" lon="6.70089">
        <ele>2229.43</ele>
        <time>2016-01-17T12:48:01Z</time>
      </trkpt>
      <trkpt lat="45.61075" lon="6.70089">
        <ele>2228.95</ele>
        <time>2016-01-17T12:48:16Z</time>
      </trkpt>
      <trkpt lat="45.61074" lon="6.70091">
        <ele>2229.43</ele>
        <time>2016-01-17T12:48:33Z</time>
      </trkpt>
      <trkpt lat="45.61075" lon="6.7009">
        <ele>2228.95</ele>
        <time>2016-01-17T12:48:54Z</time>
      </trkpt>
      <trkpt lat="45.61075" lon="6.70091">
        <ele>2228.95</ele>
        <time>2016-01-17T12:49:23Z</time>
      </trkpt>
      <trkpt lat="45.61076" lon="6.70089">
        <ele>2228.95</ele>
        <time>2016-01-17T12:49:46Z</time>
      </trkpt>
      <trkpt lat="45.61075" lon="6.7009">
        <ele>2229.43</ele>
        <time>2016-01-17T12:50:07Z</time>
      </trkpt>
      <trkpt lat="45.61076" lon="6.7009">
        <ele>2229.92</ele>
        <time>2016-01-17T12:50:30Z</time>
      </trkpt>
      <trkpt lat="45.61075" lon="6.70091">
        <ele>2229.92</ele>
        <time>2016-01-17T12:50:52Z</time>
      </trkpt>
      <trkpt lat="45.61075" lon="6.70091">
        <ele>2229.43</ele>
        <time>2016-01-17T12:51:13Z</time>
      </trkpt>
      <trkpt lat="45.61075" lon="6.7009">
        <ele>2229.92</ele>
        <time>2016-01-17T12:51:42Z</time>
      </trkpt>
      <trkpt lat="45.61068" lon="6.70093">
        <ele>2229.43</ele>
        <time>2016-01-17T12:51:58Z</time>
      </trkpt>
      <trkpt lat="45.61063" lon="6.70097">
        <ele>2228.47</ele>
        <time>2016-01-17T12:52:03Z</time>
      </trkpt>
      <trkpt lat="45.61051" lon="6.70107">
        <ele>2225.11</ele>
        <time>2016-01-17T12:52:09Z</time>
      </trkpt>
      <trkpt lat="45.61047" lon="6.70114">
        <ele>2223.19</ele>
        <time>2016-01-17T12:52:11Z</time>
      </trkpt>
      <trkpt lat="45.61034" lon="6.70126">
        <ele>2219.34</ele>
        <time>2016-01-17T12:52:16Z</time>
      </trkpt>
      <trkpt lat="45.61023" lon="6.70143">
        <ele>2214.53</ele>
        <time>2016-01-17T12:52:21Z</time>
      </trkpt>
      <trkpt lat="45.61014" lon="6.70156">
        <ele>2210.69</ele>
        <time>2016-01-17T12:52:25Z</time>
      </trkpt>
      <trkpt lat="45.61008" lon="6.70166">
        <ele>2207.32</ele>
        <time>2016-01-17T12:52:28Z</time>
      </trkpt>
      <trkpt lat="45.61003" lon="6.70173">
        <ele>2204.44</ele>
        <time>2016-01-17T12:52:30Z</time>
      </trkpt>
      <trkpt lat="45.60998" lon="6.70187">
        <ele>2201.08</ele>
        <time>2016-01-17T12:52:33Z</time>
      </trkpt>
      <trkpt lat="45.60989" lon="6.70208">
        <ele>2196.27</ele>
        <time>2016-01-17T12:52:37Z</time>
      </trkpt>
      <trkpt lat="45.60985" lon="6.70223">
        <ele>2192.9</ele>
        <time>2016-01-17T12:52:40Z</time>
      </trkpt>
      <trkpt lat="45.60979" lon="6.70242">
        <ele>2189.06</ele>
        <time>2016-01-17T12:52:44Z</time>
      </trkpt>
      <trkpt lat="45.60973" lon="6.70272">
        <ele>2186.66</ele>
        <time>2016-01-17T12:52:55Z</time>
      </trkpt>
      <trkpt lat="45.60973" lon="6.70269">
        <ele>2187.14</ele>
        <time>2016-01-17T12:53:15Z</time>
      </trkpt>
      <trkpt lat="45.60972" lon="6.70268">
        <ele>2187.62</ele>
        <time>2016-01-17T12:53:35Z</time>
      </trkpt>
      <trkpt lat="45.60973" lon="6.70268">
        <ele>2186.66</ele>
        <time>2016-01-17T12:53:53Z</time>
      </trkpt>
      <trkpt lat="45.60973" lon="6.70267">
        <ele>2186.18</ele>
        <time>2016-01-17T12:54:13Z</time>
      </trkpt>
      <trkpt lat="45.60973" lon="6.70266">
        <ele>2186.18</ele>
        <time>2016-01-17T12:54:32Z</time>
      </trkpt>
      <trkpt lat="45.60974" lon="6.70267">
        <ele>2185.69</ele>
        <time>2016-01-17T12:55:03Z</time>
      </trkpt>
      <trkpt lat="45.60972" lon="6.70266">
        <ele>2185.69</ele>
        <time>2016-01-17T12:55:26Z</time>
      </trkpt>
      <trkpt lat="45.60972" lon="6.70267">
        <ele>2185.21</ele>
        <time>2016-01-17T12:55:45Z</time>
      </trkpt>
      <trkpt lat="45.6097" lon="6.70266">
        <ele>2184.73</ele>
        <time>2016-01-17T12:56:06Z</time>
      </trkpt>
      <trkpt lat="45.60971" lon="6.70268">
        <ele>2184.73</ele>
        <time>2016-01-17T12:56:34Z</time>
      </trkpt>
      <trkpt lat="45.60972" lon="6.70273">
        <ele>2184.73</ele>
        <time>2016-01-17T12:56:52Z</time>
      </trkpt>
      <trkpt lat="45.60973" lon="6.70285">
        <ele>2182.81</ele>
        <time>2016-01-17T12:56:58Z</time>
      </trkpt>
      <trkpt lat="45.60972" lon="6.70303">
        <ele>2178.48</ele>
        <time>2016-01-17T12:57:02Z</time>
      </trkpt>
      <trkpt lat="45.60966" lon="6.70321">
        <ele>2176.08</ele>
        <time>2016-01-17T12:57:05Z</time>
      </trkpt>
      <trkpt lat="45.6095" lon="6.70359">
        <ele>2171.76</ele>
        <time>2016-01-17T12:57:13Z</time>
      </trkpt>
      <trkpt lat="45.6094" lon="6.7038">
        <ele>2167.91</ele>
        <time>2016-01-17T12:57:17Z</time>
      </trkpt>
      <trkpt lat="45.60935" lon="6.70391">
        <ele>2165.03</ele>
        <time>2016-01-17T12:57:19Z</time>
      </trkpt>
      <trkpt lat="45.60921" lon="6.70416">
        <ele>2161.18</ele>
        <time>2016-01-17T12:57:25Z</time>
      </trkpt>
      <trkpt lat="45.60915" lon="6.70435">
        <ele>2156.37</ele>
        <time>2016-01-17T12:57:29Z</time>
      </trkpt>
      <trkpt lat="45.6091" lon="6.70451">
        <ele>2152.53</ele>
        <time>2016-01-17T12:57:32Z</time>
      </trkpt>
      <trkpt lat="45.60904" lon="6.70465">
        <ele>2150.61</ele>
        <time>2016-01-17T12:57:35Z</time>
      </trkpt>
      <trkpt lat="45.60894" lon="6.70483">
        <ele>2147.72</ele>
        <time>2016-01-17T12:57:39Z</time>
      </trkpt>
      <trkpt lat="45.60895" lon="6.70479">
        <ele>2148.2</ele>
        <time>2016-01-17T12:57:48Z</time>
      </trkpt>
      <trkpt lat="45.60887" lon="6.70492">
        <ele>2146.28</ele>
        <time>2016-01-17T12:57:59Z</time>
      </trkpt>
      <trkpt lat="45.6088" lon="6.70514">
        <ele>2141.47</ele>
        <time>2016-01-17T12:58:03Z</time>
      </trkpt>
      <trkpt lat="45.60878" lon="6.70529">
        <ele>2140.03</ele>
        <time>2016-01-17T12:58:05Z</time>
      </trkpt>
      <trkpt lat="45.60874" lon="6.70541">
        <ele>2139.55</ele>
        <time>2016-01-17T12:58:07Z</time>
      </trkpt>
      <trkpt lat="45.60869" lon="6.70555">
        <ele>2136.19</ele>
        <time>2016-01-17T12:58:10Z</time>
      </trkpt>
      <trkpt lat="45.60861" lon="6.70572">
        <ele>2135.71</ele>
        <time>2016-01-17T12:58:15Z</time>
      </trkpt>
      <trkpt lat="45.60864" lon="6.70562">
        <ele>2135.71</ele>
        <time>2016-01-17T12:58:25Z</time>
      </trkpt>
      <trkpt lat="45.60859" lon="6.70562">
        <ele>2135.23</ele>
        <time>2016-01-17T12:58:33Z</time>
      </trkpt>
      <trkpt lat="45.60857" lon="6.70561">
        <ele>2134.26</ele>
        <time>2016-01-17T12:58:35Z</time>
      </trkpt>
      <trkpt lat="45.60846" lon="6.70567">
        <ele>2129.46</ele>
        <time>2016-01-17T12:58:39Z</time>
      </trkpt>
      <trkpt lat="45.60841" lon="6.7057">
        <ele>2128.02</ele>
        <time>2016-01-17T12:58:40Z</time>
      </trkpt>
      <trkpt lat="45.60822" lon="6.70578">
        <ele>2122.73</ele>
        <time>2016-01-17T12:58:44Z</time>
      </trkpt>
      <trkpt lat="45.60802" lon="6.70584">
        <ele>2118.4</ele>
        <time>2016-01-17T12:58:49Z</time>
      </trkpt>
      <trkpt lat="45.60788" lon="6.7059">
        <ele>2114.08</ele>
        <time>2016-01-17T12:58:53Z</time>
      </trkpt>
      <trkpt lat="45.60785" lon="6.70593">
        <ele>2112.63</ele>
        <time>2016-01-17T12:58:54Z</time>
      </trkpt>
      <trkpt lat="45.6077" lon="6.70601">
        <ele>2107.83</ele>
        <time>2016-01-17T12:58:58Z</time>
      </trkpt>
      <trkpt lat="45.60753" lon="6.70608">
        <ele>2104.46</ele>
        <time>2016-01-17T12:59:04Z</time>
      </trkpt>
      <trkpt lat="45.60735" lon="6.70627">
        <ele>2103.5</ele>
        <time>2016-01-17T12:59:18Z</time>
      </trkpt>
      <trkpt lat="45.60729" lon="6.7065">
        <ele>2103.5</ele>
        <time>2016-01-17T12:59:33Z</time>
      </trkpt>
      <trkpt lat="45.60714" lon="6.7069">
        <ele>2100.62</ele>
        <time>2016-01-17T12:59:48Z</time>
      </trkpt>
      <trkpt lat="45.60679" lon="6.70717">
        <ele>2097.73</ele>
        <time>2016-01-17T13:00:01Z</time>
      </trkpt>
      <trkpt lat="45.6067" lon="6.70721">
        <ele>2094.85</ele>
        <time>2016-01-17T13:00:04Z</time>
      </trkpt>
      <trkpt lat="45.60661" lon="6.70731">
        <ele>2092.93</ele>
        <time>2016-01-17T13:00:07Z</time>
      </trkpt>
      <trkpt lat="45.60655" lon="6.70739">
        <ele>2090.52</ele>
        <time>2016-01-17T13:00:09Z</time>
      </trkpt>
      <trkpt lat="45.60646" lon="6.70756">
        <ele>2085.72</ele>
        <time>2016-01-17T13:00:13Z</time>
      </trkpt>
      <trkpt lat="45.60642" lon="6.70762">
        <ele>2085.24</ele>
        <time>2016-01-17T13:00:15Z</time>
      </trkpt>
      <trkpt lat="45.60625" lon="6.7077">
        <ele>2082.83</ele>
        <time>2016-01-17T13:00:21Z</time>
      </trkpt>
      <trkpt lat="45.60615" lon="6.70776">
        <ele>2079.47</ele>
        <time>2016-01-17T13:00:25Z</time>
      </trkpt>
      <trkpt lat="45.60603" lon="6.70786">
        <ele>2074.18</ele>
        <time>2016-01-17T13:00:30Z</time>
      </trkpt>
      <trkpt lat="45.60594" lon="6.7079">
        <ele>2071.3</ele>
        <time>2016-01-17T13:00:33Z</time>
      </trkpt>
      <trkpt lat="45.60587" lon="6.70791">
        <ele>2069.86</ele>
        <time>2016-01-17T13:00:35Z</time>
      </trkpt>
      <trkpt lat="45.60579" lon="6.70792">
        <ele>2065.53</ele>
        <time>2016-01-17T13:00:38Z</time>
      </trkpt>
      <trkpt lat="45.60578" lon="6.70794">
        <ele>2065.53</ele>
        <time>2016-01-17T13:00:39Z</time>
      </trkpt>
      <trkpt lat="45.60577" lon="6.70793">
        <ele>2065.53</ele>
        <time>2016-01-17T13:00:52Z</time>
      </trkpt>
      <trkpt lat="45.60576" lon="6.70794">
        <ele>2065.53</ele>
        <time>2016-01-17T13:01:13Z</time>
      </trkpt>
      <trkpt lat="45.60576" lon="6.70794">
        <ele>2065.53</ele>
        <time>2016-01-17T13:01:43Z</time>
      </trkpt>
      <trkpt lat="45.60577" lon="6.70794">
        <ele>2065.53</ele>
        <time>2016-01-17T13:02:03Z</time>
      </trkpt>
      <trkpt lat="45.60577" lon="6.70796">
        <ele>2064.57</ele>
        <time>2016-01-17T13:02:29Z</time>
      </trkpt>
      <trkpt lat="45.60578" lon="6.70794">
        <ele>2064.09</ele>
        <time>2016-01-17T13:02:53Z</time>
      </trkpt>
      <trkpt lat="45.60577" lon="6.70793">
        <ele>2064.09</ele>
        <time>2016-01-17T13:03:09Z</time>
      </trkpt>
      <trkpt lat="45.60579" lon="6.70793">
        <ele>2064.09</ele>
        <time>2016-01-17T13:03:30Z</time>
      </trkpt>
      <trkpt lat="45.60577" lon="6.708">
        <ele>2063.61</ele>
        <time>2016-01-17T13:03:39Z</time>
      </trkpt>
      <trkpt lat="45.60566" lon="6.70797">
        <ele>2061.2</ele>
        <time>2016-01-17T13:03:43Z</time>
      </trkpt>
      <trkpt lat="45.60553" lon="6.70799">
        <ele>2057.36</ele>
        <time>2016-01-17T13:03:47Z</time>
      </trkpt>
      <trkpt lat="45.6055" lon="6.70801">
        <ele>2055.92</ele>
        <time>2016-01-17T13:03:48Z</time>
      </trkpt>
      <trkpt lat="45.60544" lon="6.70807">
        <ele>2053.99</ele>
        <time>2016-01-17T13:03:50Z</time>
      </trkpt>
      <trkpt lat="45.6053" lon="6.7082">
        <ele>2050.63</ele>
        <time>2016-01-17T13:03:54Z</time>
      </trkpt>
      <trkpt lat="45.60508" lon="6.70833">
        <ele>2042.94</ele>
        <time>2016-01-17T13:03:58Z</time>
      </trkpt>
      <trkpt lat="45.60504" lon="6.70839">
        <ele>2041.02</ele>
        <time>2016-01-17T13:03:59Z</time>
      </trkpt>
      <trkpt lat="45.60489" lon="6.70856">
        <ele>2040.05</ele>
        <time>2016-01-17T13:04:07Z</time>
      </trkpt>
      <trkpt lat="45.60487" lon="6.70858">
        <ele>2039.57</ele>
        <time>2016-01-17T13:04:15Z</time>
      </trkpt>
      <trkpt lat="45.60478" lon="6.70867">
        <ele>2036.69</ele>
        <time>2016-01-17T13:04:20Z</time>
      </trkpt>
      <trkpt lat="45.60462" lon="6.70878">
        <ele>2028.52</ele>
        <time>2016-01-17T13:04:25Z</time>
      </trkpt>
      <trkpt lat="45.60447" lon="6.7088">
        <ele>2026.12</ele>
        <time>2016-01-17T13:04:28Z</time>
      </trkpt>
      <trkpt lat="45.60439" lon="6.70879">
        <ele>2025.64</ele>
        <time>2016-01-17T13:04:30Z</time>
      </trkpt>
      <trkpt lat="45.60419" lon="6.70878">
        <ele>2023.23</ele>
        <time>2016-01-17T13:04:38Z</time>
      </trkpt>
      <trkpt lat="45.60413" lon="6.70876">
        <ele>2022.27</ele>
        <time>2016-01-17T13:04:40Z</time>
      </trkpt>
      <trkpt lat="45.60392" lon="6.70874">
        <ele>2016.98</ele>
        <time>2016-01-17T13:04:45Z</time>
      </trkpt>
      <trkpt lat="45.60379" lon="6.70874">
        <ele>2014.1</ele>
        <time>2016-01-17T13:04:48Z</time>
      </trkpt>
      <trkpt lat="45.60354" lon="6.70881">
        <ele>2007.85</ele>
        <time>2016-01-17T13:04:54Z</time>
      </trkpt>
      <trkpt lat="45.60349" lon="6.7088">
        <ele>2005.93</ele>
        <time>2016-01-17T13:05:01Z</time>
      </trkpt>
      <trkpt lat="45.60348" lon="6.70878">
        <ele>2005.93</ele>
        <time>2016-01-17T13:05:26Z</time>
      </trkpt>
      <trkpt lat="45.60348" lon="6.70878">
        <ele>2005.93</ele>
        <time>2016-01-17T13:05:52Z</time>
      </trkpt>
      <trkpt lat="45.60347" lon="6.70879">
        <ele>2005.93</ele>
        <time>2016-01-17T13:06:17Z</time>
      </trkpt>
      <trkpt lat="45.60348" lon="6.7088">
        <ele>2005.93</ele>
        <time>2016-01-17T13:06:35Z</time>
      </trkpt>
      <trkpt lat="45.60344" lon="6.70884">
        <ele>2004.97</ele>
        <time>2016-01-17T13:06:38Z</time>
      </trkpt>
      <trkpt lat="45.60341" lon="6.70883">
        <ele>2004.01</ele>
        <time>2016-01-17T13:06:39Z</time>
      </trkpt>
      <trkpt lat="45.60337" lon="6.70881">
        <ele>2003.04</ele>
        <time>2016-01-17T13:06:40Z</time>
      </trkpt>
      <trkpt lat="45.60334" lon="6.70878">
        <ele>2002.08</ele>
        <time>2016-01-17T13:06:41Z</time>
      </trkpt>
      <trkpt lat="45.60331" lon="6.70876">
        <ele>2001.6</ele>
        <time>2016-01-17T13:06:42Z</time>
      </trkpt>
      <trkpt lat="45.60325" lon="6.70869">
        <ele>1999.68</ele>
        <time>2016-01-17T13:06:48Z</time>
      </trkpt>
      <trkpt lat="45.60323" lon="6.70869">
        <ele>1999.2</ele>
        <time>2016-01-17T13:06:49Z</time>
      </trkpt>
      <trkpt lat="45.60322" lon="6.70869">
        <ele>1998.72</ele>
        <time>2016-01-17T13:06:50Z</time>
      </trkpt>
      <trkpt lat="45.60317" lon="6.70871">
        <ele>1997.28</ele>
        <time>2016-01-17T13:06:52Z</time>
      </trkpt>
      <trkpt lat="45.60314" lon="6.70871">
        <ele>1996.32</ele>
        <time>2016-01-17T13:06:53Z</time>
      </trkpt>
      <trkpt lat="45.60312" lon="6.70871">
        <ele>1995.35</ele>
        <time>2016-01-17T13:06:54Z</time>
      </trkpt>
      <trkpt lat="45.60305" lon="6.7088">
        <ele>1991.99</ele>
        <time>2016-01-17T13:06:58Z</time>
      </trkpt>
      <trkpt lat="45.60303" lon="6.7088">
        <ele>1990.55</ele>
        <time>2016-01-17T13:06:59Z</time>
      </trkpt>
      <trkpt lat="45.60295" lon="6.70883">
        <ele>1988.62</ele>
        <time>2016-01-17T13:07:01Z</time>
      </trkpt>
      <trkpt lat="45.60279" lon="6.70886">
        <ele>1985.74</ele>
        <time>2016-01-17T13:07:05Z</time>
      </trkpt>
      <trkpt lat="45.60251" lon="6.70885">
        <ele>1982.38</ele>
        <time>2016-01-17T13:07:15Z</time>
      </trkpt>
      <trkpt lat="45.60235" lon="6.70875">
        <ele>1978.53</ele>
        <time>2016-01-17T13:07:19Z</time>
      </trkpt>
      <trkpt lat="45.60228" lon="6.70867">
        <ele>1975.65</ele>
        <time>2016-01-17T13:07:29Z</time>
      </trkpt>
      <trkpt lat="45.60228" lon="6.70864">
        <ele>1975.65</ele>
        <time>2016-01-17T13:07:54Z</time>
      </trkpt>
      <trkpt lat="45.6023" lon="6.70864">
        <ele>1976.13</ele>
        <time>2016-01-17T13:08:17Z</time>
      </trkpt>
      <trkpt lat="45.60229" lon="6.70864">
        <ele>1975.65</ele>
        <time>2016-01-17T13:08:39Z</time>
      </trkpt>
      <trkpt lat="45.60226" lon="6.70863">
        <ele>1974.69</ele>
        <time>2016-01-17T13:08:55Z</time>
      </trkpt>
      <trkpt lat="45.60226" lon="6.70863">
        <ele>1974.69</ele>
        <time>2016-01-17T13:09:20Z</time>
      </trkpt>
      <trkpt lat="45.60226" lon="6.70867">
        <ele>1974.2</ele>
        <time>2016-01-17T13:09:40Z</time>
      </trkpt>
      <trkpt lat="45.60227" lon="6.70865">
        <ele>1974.69</ele>
        <time>2016-01-17T13:10:09Z</time>
      </trkpt>
      <trkpt lat="45.60227" lon="6.70865">
        <ele>1974.2</ele>
        <time>2016-01-17T13:10:23Z</time>
      </trkpt>
      <trkpt lat="45.60226" lon="6.70864">
        <ele>1974.69</ele>
        <time>2016-01-17T13:10:42Z</time>
      </trkpt>
      <trkpt lat="45.60226" lon="6.70863">
        <ele>1974.69</ele>
        <time>2016-01-17T13:10:58Z</time>
      </trkpt>
      <trkpt lat="45.60225" lon="6.70863">
        <ele>1972.28</ele>
        <time>2016-01-17T13:11:32Z</time>
      </trkpt>
      <trkpt lat="45.60224" lon="6.70863">
        <ele>1974.2</ele>
        <time>2016-01-17T13:11:36Z</time>
      </trkpt>
      <trkpt lat="45.60225" lon="6.70862">
        <ele>1973.72</ele>
        <time>2016-01-17T13:12:03Z</time>
      </trkpt>
      <trkpt lat="45.60226" lon="6.70865">
        <ele>1974.69</ele>
        <time>2016-01-17T13:12:43Z</time>
      </trkpt>
      <trkpt lat="45.60226" lon="6.70866">
        <ele>1975.17</ele>
        <time>2016-01-17T13:13:00Z</time>
      </trkpt>
      <trkpt lat="45.60226" lon="6.70864">
        <ele>1975.17</ele>
        <time>2016-01-17T13:13:12Z</time>
      </trkpt>
      <trkpt lat="45.60225" lon="6.70865">
        <ele>1975.65</ele>
        <time>2016-01-17T13:13:31Z</time>
      </trkpt>
      <trkpt lat="45.60224" lon="6.70866">
        <ele>1976.13</ele>
        <time>2016-01-17T13:13:50Z</time>
      </trkpt>
      <trkpt lat="45.60224" lon="6.70864">
        <ele>1976.61</ele>
        <time>2016-01-17T13:13:59Z</time>
      </trkpt>
      <trkpt lat="45.60213" lon="6.70856">
        <ele>1974.2</ele>
        <time>2016-01-17T13:14:05Z</time>
      </trkpt>
      <trkpt lat="45.6021" lon="6.70852">
        <ele>1973.72</ele>
        <time>2016-01-17T13:14:06Z</time>
      </trkpt>
      <trkpt lat="45.60195" lon="6.70841">
        <ele>1969.88</ele>
        <time>2016-01-17T13:14:10Z</time>
      </trkpt>
      <trkpt lat="45.60178" lon="6.7083">
        <ele>1964.59</ele>
        <time>2016-01-17T13:14:14Z</time>
      </trkpt>
      <trkpt lat="45.60163" lon="6.70819">
        <ele>1960.75</ele>
        <time>2016-01-17T13:14:18Z</time>
      </trkpt>
      <trkpt lat="45.60156" lon="6.70809">
        <ele>1958.34</ele>
        <time>2016-01-17T13:14:21Z</time>
      </trkpt>
      <trkpt lat="45.60153" lon="6.70801">
        <ele>1955.94</ele>
        <time>2016-01-17T13:14:24Z</time>
      </trkpt>
      <trkpt lat="45.60141" lon="6.70795">
        <ele>1952.09</ele>
        <time>2016-01-17T13:14:28Z</time>
      </trkpt>
      <trkpt lat="45.60134" lon="6.70787">
        <ele>1948.73</ele>
        <time>2016-01-17T13:14:31Z</time>
      </trkpt>
      <trkpt lat="45.60132" lon="6.70788">
        <ele>1946.33</ele>
        <time>2016-01-17T13:14:34Z</time>
      </trkpt>
      <trkpt lat="45.60132" lon="6.70787">
        <ele>1946.33</ele>
        <time>2016-01-17T13:14:39Z</time>
      </trkpt>
      <trkpt lat="45.60125" lon="6.70785">
        <ele>1944.88</ele>
        <time>2016-01-17T13:14:43Z</time>
      </trkpt>
      <trkpt lat="45.60118" lon="6.70788">
        <ele>1942.48</ele>
        <time>2016-01-17T13:14:45Z</time>
      </trkpt>
      <trkpt lat="45.60112" lon="6.70796">
        <ele>1940.08</ele>
        <time>2016-01-17T13:14:47Z</time>
      </trkpt>
      <trkpt lat="45.60109" lon="6.70801">
        <ele>1938.64</ele>
        <time>2016-01-17T13:14:48Z</time>
      </trkpt>
      <trkpt lat="45.601" lon="6.70816">
        <ele>1936.71</ele>
        <time>2016-01-17T13:14:54Z</time>
      </trkpt>
      <trkpt lat="45.60099" lon="6.70816">
        <ele>1936.71</ele>
        <time>2016-01-17T13:14:55Z</time>
      </trkpt>
      <trkpt lat="45.60088" lon="6.70825">
        <ele>1935.27</ele>
        <time>2016-01-17T13:15:05Z</time>
      </trkpt>
      <trkpt lat="45.60087" lon="6.70828">
        <ele>1935.27</ele>
        <time>2016-01-17T13:15:15Z</time>
      </trkpt>
      <trkpt lat="45.60078" lon="6.70839">
        <ele>1933.35</ele>
        <time>2016-01-17T13:15:21Z</time>
      </trkpt>
      <trkpt lat="45.60077" lon="6.7085">
        <ele>1933.83</ele>
        <time>2016-01-17T13:15:30Z</time>
      </trkpt>
      <trkpt lat="45.60074" lon="6.70884">
        <ele>1930.46</ele>
        <time>2016-01-17T13:15:40Z</time>
      </trkpt>
      <trkpt lat="45.6007" lon="6.70892">
        <ele>1929.02</ele>
        <time>2016-01-17T13:15:42Z</time>
      </trkpt>
      <trkpt lat="45.60055" lon="6.70899">
        <ele>1925.18</ele>
        <time>2016-01-17T13:15:46Z</time>
      </trkpt>
      <trkpt lat="45.60044" lon="6.70905">
        <ele>1923.25</ele>
        <time>2016-01-17T13:15:49Z</time>
      </trkpt>
      <trkpt lat="45.6004" lon="6.70914">
        <ele>1920.85</ele>
        <time>2016-01-17T13:15:52Z</time>
      </trkpt>
      <trkpt lat="45.6004" lon="6.7092">
        <ele>1920.85</ele>
        <time>2016-01-17T13:16:03Z</time>
      </trkpt>
      <trkpt lat="45.6004" lon="6.7092">
        <ele>1921.33</ele>
        <time>2016-01-17T13:16:22Z</time>
      </trkpt>
      <trkpt lat="45.60028" lon="6.70934">
        <ele>1917.49</ele>
        <time>2016-01-17T13:16:28Z</time>
      </trkpt>
      <trkpt lat="45.60021" lon="6.70942">
        <ele>1912.68</ele>
        <time>2016-01-17T13:16:30Z</time>
      </trkpt>
      <trkpt lat="45.60014" lon="6.70956">
        <ele>1909.8</ele>
        <time>2016-01-17T13:16:33Z</time>
      </trkpt>
      <trkpt lat="45.60011" lon="6.70974">
        <ele>1906.43</ele>
        <time>2016-01-17T13:16:37Z</time>
      </trkpt>
      <trkpt lat="45.60007" lon="6.70983">
        <ele>1902.59</ele>
        <time>2016-01-17T13:16:39Z</time>
      </trkpt>
      <trkpt lat="45.60002" lon="6.70991">
        <ele>1902.11</ele>
        <time>2016-01-17T13:16:41Z</time>
      </trkpt>
      <trkpt lat="45.59996" lon="6.71004">
        <ele>1898.74</ele>
        <time>2016-01-17T13:16:46Z</time>
      </trkpt>
      <trkpt lat="45.59997" lon="6.71008">
        <ele>1898.74</ele>
        <time>2016-01-17T13:17:03Z</time>
      </trkpt>
      <trkpt lat="45.59997" lon="6.71009">
        <ele>1898.74</ele>
        <time>2016-01-17T13:17:21Z</time>
      </trkpt>
      <trkpt lat="45.6" lon="6.71016">
        <ele>1898.74</ele>
        <time>2016-01-17T13:17:33Z</time>
      </trkpt>
      <trkpt lat="45.60009" lon="6.71035">
        <ele>1896.34</ele>
        <time>2016-01-17T13:17:42Z</time>
      </trkpt>
      <trkpt lat="45.60012" lon="6.71045">
        <ele>1893.93</ele>
        <time>2016-01-17T13:17:49Z</time>
      </trkpt>
      <trkpt lat="45.60006" lon="6.71057">
        <ele>1889.13</ele>
        <time>2016-01-17T13:17:53Z</time>
      </trkpt>
      <trkpt lat="45.60004" lon="6.7106">
        <ele>1887.69</ele>
        <time>2016-01-17T13:17:54Z</time>
      </trkpt>
      <trkpt lat="45.59995" lon="6.71072">
        <ele>1880.96</ele>
        <time>2016-01-17T13:17:58Z</time>
      </trkpt>
      <trkpt lat="45.5999" lon="6.71083">
        <ele>1876.63</ele>
        <time>2016-01-17T13:18:00Z</time>
      </trkpt>
      <trkpt lat="45.59988" lon="6.71089">
        <ele>1874.23</ele>
        <time>2016-01-17T13:18:01Z</time>
      </trkpt>
      <trkpt lat="45.59978" lon="6.71118">
        <ele>1868.46</ele>
        <time>2016-01-17T13:18:05Z</time>
      </trkpt>
      <trkpt lat="45.59974" lon="6.71134">
        <ele>1865.09</ele>
        <time>2016-01-17T13:18:07Z</time>
      </trkpt>
      <trkpt lat="45.59971" lon="6.71144">
        <ele>1863.65</ele>
        <time>2016-01-17T13:18:09Z</time>
      </trkpt>
      <trkpt lat="45.59957" lon="6.71158">
        <ele>1862.21</ele>
        <time>2016-01-17T13:18:16Z</time>
      </trkpt>
      <trkpt lat="45.59952" lon="6.71172">
        <ele>1860.29</ele>
        <time>2016-01-17T13:18:25Z</time>
      </trkpt>
      <trkpt lat="45.59952" lon="6.71173">
        <ele>1860.77</ele>
        <time>2016-01-17T13:18:44Z</time>
      </trkpt>
      <trkpt lat="45.59952" lon="6.71174">
        <ele>1860.29</ele>
        <time>2016-01-17T13:19:06Z</time>
      </trkpt>
      <trkpt lat="45.59952" lon="6.71171">
        <ele>1860.77</ele>
        <time>2016-01-17T13:19:32Z</time>
      </trkpt>
      <trkpt lat="45.59952" lon="6.71171">
        <ele>1860.77</ele>
        <time>2016-01-17T13:19:39Z</time>
      </trkpt>
      <trkpt lat="45.5995" lon="6.71168">
        <ele>1859.81</ele>
        <time>2016-01-17T13:19:51Z</time>
      </trkpt>
      <trkpt lat="45.59949" lon="6.71166">
        <ele>1860.29</ele>
        <time>2016-01-17T13:19:53Z</time>
      </trkpt>
      <trkpt lat="45.59948" lon="6.71164">
        <ele>1859.81</ele>
        <time>2016-01-17T13:19:55Z</time>
      </trkpt>
      <trkpt lat="45.59945" lon="6.71165">
        <ele>1858.85</ele>
        <time>2016-01-17T13:19:58Z</time>
      </trkpt>
      <trkpt lat="45.59928" lon="6.71176">
        <ele>1854.04</ele>
        <time>2016-01-17T13:20:04Z</time>
      </trkpt>
      <trkpt lat="45.59916" lon="6.71185">
        <ele>1850.19</ele>
        <time>2016-01-17T13:20:07Z</time>
      </trkpt>
      <trkpt lat="45.59905" lon="6.71196">
        <ele>1846.83</ele>
        <time>2016-01-17T13:20:10Z</time>
      </trkpt>
      <trkpt lat="45.599" lon="6.71197">
        <ele>1845.87</ele>
        <time>2016-01-17T13:20:11Z</time>
      </trkpt>
      <trkpt lat="45.59896" lon="6.71198">
        <ele>1845.39</ele>
        <time>2016-01-17T13:20:12Z</time>
      </trkpt>
      <trkpt lat="45.59891" lon="6.712">
        <ele>1843.47</ele>
        <time>2016-01-17T13:20:13Z</time>
      </trkpt>
      <trkpt lat="45.59887" lon="6.71203">
        <ele>1842.02</ele>
        <time>2016-01-17T13:20:14Z</time>
      </trkpt>
      <trkpt lat="45.59883" lon="6.71205">
        <ele>1841.06</ele>
        <time>2016-01-17T13:20:15Z</time>
      </trkpt>
      <trkpt lat="45.59872" lon="6.71217">
        <ele>1836.26</ele>
        <time>2016-01-17T13:20:18Z</time>
      </trkpt>
      <trkpt lat="45.5987" lon="6.71231">
        <ele>1832.41</ele>
        <time>2016-01-17T13:20:20Z</time>
      </trkpt>
      <trkpt lat="45.59871" lon="6.71239">
        <ele>1831.45</ele>
        <time>2016-01-17T13:20:21Z</time>
      </trkpt>
      <trkpt lat="45.59879" lon="6.71275">
        <ele>1826.64</ele>
        <time>2016-01-17T13:20:26Z</time>
      </trkpt>
      <trkpt lat="45.59886" lon="6.71292">
        <ele>1826.16</ele>
        <time>2016-01-17T13:20:35Z</time>
      </trkpt>
      <trkpt lat="45.59886" lon="6.71294">
        <ele>1826.64</ele>
        <time>2016-01-17T13:20:58Z</time>
      </trkpt>
      <trkpt lat="45.59886" lon="6.71307">
        <ele>1823.76</ele>
        <time>2016-01-17T13:21:03Z</time>
      </trkpt>
      <trkpt lat="45.59895" lon="6.71339">
        <ele>1817.99</ele>
        <time>2016-01-17T13:21:09Z</time>
      </trkpt>
      <trkpt lat="45.59901" lon="6.71355">
        <ele>1814.63</ele>
        <time>2016-01-17T13:21:13Z</time>
      </trkpt>
      <trkpt lat="45.59903" lon="6.71358">
        <ele>1814.63</ele>
        <time>2016-01-17T13:21:14Z</time>
      </trkpt>
      <trkpt lat="45.5991" lon="6.71377">
        <ele>1811.26</ele>
        <time>2016-01-17T13:21:18Z</time>
      </trkpt>
      <trkpt lat="45.59912" lon="6.7139">
        <ele>1809.82</ele>
        <time>2016-01-17T13:21:21Z</time>
      </trkpt>
      <trkpt lat="45.59914" lon="6.71404">
        <ele>1807.9</ele>
        <time>2016-01-17T13:21:29Z</time>
      </trkpt>
      <trkpt lat="45.59909" lon="6.71409">
        <ele>1804.05</ele>
        <time>2016-01-17T13:21:32Z</time>
      </trkpt>
      <trkpt lat="45.59905" lon="6.71413">
        <ele>1800.69</ele>
        <time>2016-01-17T13:21:34Z</time>
      </trkpt>
      <trkpt lat="45.599" lon="6.71419">
        <ele>1797.32</ele>
        <time>2016-01-17T13:21:36Z</time>
      </trkpt>
      <trkpt lat="45.59897" lon="6.71422">
        <ele>1795.88</ele>
        <time>2016-01-17T13:21:37Z</time>
      </trkpt>
      <trkpt lat="45.59893" lon="6.71431">
        <ele>1793.48</ele>
        <time>2016-01-17T13:21:39Z</time>
      </trkpt>
      <trkpt lat="45.59888" lon="6.71451">
        <ele>1789.15</ele>
        <time>2016-01-17T13:21:43Z</time>
      </trkpt>
      <trkpt lat="45.59887" lon="6.71457">
        <ele>1788.19</ele>
        <time>2016-01-17T13:21:45Z</time>
      </trkpt>
      <trkpt lat="45.59873" lon="6.71467">
        <ele>1784.34</ele>
        <time>2016-01-17T13:21:51Z</time>
      </trkpt>
      <trkpt lat="45.5987" lon="6.71476">
        <ele>1782.9</ele>
        <time>2016-01-17T13:21:53Z</time>
      </trkpt>
      <trkpt lat="45.59862" lon="6.71506">
        <ele>1778.58</ele>
        <time>2016-01-17T13:22:00Z</time>
      </trkpt>
      <trkpt lat="45.59858" lon="6.71527">
        <ele>1776.17</ele>
        <time>2016-01-17T13:22:05Z</time>
      </trkpt>
      <trkpt lat="45.59853" lon="6.71561">
        <ele>1774.25</ele>
        <time>2016-01-17T13:22:15Z</time>
      </trkpt>
      <trkpt lat="45.59853" lon="6.71567">
        <ele>1774.25</ele>
        <time>2016-01-17T13:22:28Z</time>
      </trkpt>
      <trkpt lat="45.59853" lon="6.71565">
        <ele>1774.73</ele>
        <time>2016-01-17T13:22:53Z</time>
      </trkpt>
      <trkpt lat="45.59853" lon="6.7157">
        <ele>1774.73</ele>
        <time>2016-01-17T13:23:02Z</time>
      </trkpt>
      <trkpt lat="45.5986" lon="6.71592">
        <ele>1773.77</ele>
        <time>2016-01-17T13:23:17Z</time>
      </trkpt>
      <trkpt lat="45.59862" lon="6.71595">
        <ele>1773.29</ele>
        <time>2016-01-17T13:23:20Z</time>
      </trkpt>
      <trkpt lat="45.59868" lon="6.7161">
        <ele>1772.81</ele>
        <time>2016-01-17T13:23:33Z</time>
      </trkpt>
      <trkpt lat="45.59875" lon="6.71623">
        <ele>1772.33</ele>
        <time>2016-01-17T13:23:47Z</time>
      </trkpt>
      <trkpt lat="45.59881" lon="6.71645">
        <ele>1771.37</ele>
        <time>2016-01-17T13:24:05Z</time>
      </trkpt>
      <trkpt lat="45.59885" lon="6.71658">
        <ele>1770.41</ele>
        <time>2016-01-17T13:24:17Z</time>
      </trkpt>
      <trkpt lat="45.59887" lon="6.71667">
        <ele>1770.41</ele>
        <time>2016-01-17T13:24:28Z</time>
      </trkpt>
      <trkpt lat="45.5989" lon="6.71681">
        <ele>1768.96</ele>
        <time>2016-01-17T13:24:43Z</time>
      </trkpt>
      <trkpt lat="45.59891" lon="6.71687">
        <ele>1768.48</ele>
        <time>2016-01-17T13:25:00Z</time>
      </trkpt>
      <trkpt lat="45.599" lon="6.7172">
        <ele>1765.6</ele>
        <time>2016-01-17T13:25:15Z</time>
      </trkpt>
      <trkpt lat="45.59903" lon="6.7173">
        <ele>1764.64</ele>
        <time>2016-01-17T13:25:17Z</time>
      </trkpt>
      <trkpt lat="45.59908" lon="6.71766">
        <ele>1762.23</ele>
        <time>2016-01-17T13:25:28Z</time>
      </trkpt>
      <trkpt lat="45.59906" lon="6.71786">
        <ele>1760.31</ele>
        <time>2016-01-17T13:25:38Z</time>
      </trkpt>
      <trkpt lat="45.59903" lon="6.71797">
        <ele>1759.83</ele>
        <time>2016-01-17T13:25:52Z</time>
      </trkpt>
      <trkpt lat="45.59903" lon="6.71799">
        <ele>1759.83</ele>
        <time>2016-01-17T13:26:14Z</time>
      </trkpt>
      <trkpt lat="45.59902" lon="6.718">
        <ele>1759.35</ele>
        <time>2016-01-17T13:26:39Z</time>
      </trkpt>
      <trkpt lat="45.59898" lon="6.71813">
        <ele>1756.95</ele>
        <time>2016-01-17T13:26:47Z</time>
      </trkpt>
      <trkpt lat="45.59902" lon="6.71838">
        <ele>1752.14</ele>
        <time>2016-01-17T13:26:51Z</time>
      </trkpt>
      <trkpt lat="45.59906" lon="6.71865">
        <ele>1743.97</ele>
        <time>2016-01-17T13:26:56Z</time>
      </trkpt>
      <trkpt lat="45.59901" lon="6.71885">
        <ele>1737.72</ele>
        <time>2016-01-17T13:27:01Z</time>
      </trkpt>
      <trkpt lat="45.59894" lon="6.71892">
        <ele>1733.88</ele>
        <time>2016-01-17T13:27:04Z</time>
      </trkpt>
      <trkpt lat="45.59889" lon="6.71897">
        <ele>1730.99</ele>
        <time>2016-01-17T13:27:06Z</time>
      </trkpt>
      <trkpt lat="45.59885" lon="6.71904">
        <ele>1728.59</ele>
        <time>2016-01-17T13:27:08Z</time>
      </trkpt>
      <trkpt lat="45.59884" lon="6.71911">
        <ele>1725.7</ele>
        <time>2016-01-17T13:27:11Z</time>
      </trkpt>
      <trkpt lat="45.59883" lon="6.71913">
        <ele>1726.67</ele>
        <time>2016-01-17T13:27:25Z</time>
      </trkpt>
      <trkpt lat="45.59883" lon="6.71913">
        <ele>1726.18</ele>
        <time>2016-01-17T13:27:54Z</time>
      </trkpt>
      <trkpt lat="45.59882" lon="6.71912">
        <ele>1726.18</ele>
        <time>2016-01-17T13:28:15Z</time>
      </trkpt>
      <trkpt lat="45.59881" lon="6.71911">
        <ele>1726.18</ele>
        <time>2016-01-17T13:28:34Z</time>
      </trkpt>
      <trkpt lat="45.59871" lon="6.71916">
        <ele>1722.34</ele>
        <time>2016-01-17T13:28:39Z</time>
      </trkpt>
      <trkpt lat="45.59861" lon="6.71918">
        <ele>1718.49</ele>
        <time>2016-01-17T13:28:42Z</time>
      </trkpt>
      <trkpt lat="45.59851" lon="6.71923">
        <ele>1714.65</ele>
        <time>2016-01-17T13:28:45Z</time>
      </trkpt>
      <trkpt lat="45.59852" lon="6.71934">
        <ele>1711.28</ele>
        <time>2016-01-17T13:28:47Z</time>
      </trkpt>
      <trkpt lat="45.59849" lon="6.71946">
        <ele>1707.92</ele>
        <time>2016-01-17T13:28:50Z</time>
      </trkpt>
      <trkpt lat="45.59846" lon="6.71959">
        <ele>1703.11</ele>
        <time>2016-01-17T13:28:52Z</time>
      </trkpt>
      <trkpt lat="45.59846" lon="6.71967">
        <ele>1699.75</ele>
        <time>2016-01-17T13:28:53Z</time>
      </trkpt>
      <trkpt lat="45.59847" lon="6.71981">
        <ele>1695.9</ele>
        <time>2016-01-17T13:28:55Z</time>
      </trkpt>
      <trkpt lat="45.59847" lon="6.71988">
        <ele>1692.06</ele>
        <time>2016-01-17T13:28:56Z</time>
      </trkpt>
      <trkpt lat="45.59843" lon="6.71999">
        <ele>1689.17</ele>
        <time>2016-01-17T13:28:58Z</time>
      </trkpt>
      <trkpt lat="45.59838" lon="6.72009">
        <ele>1685.33</ele>
        <time>2016-01-17T13:29:00Z</time>
      </trkpt>
      <trkpt lat="45.59835" lon="6.7202">
        <ele>1682.93</ele>
        <time>2016-01-17T13:29:02Z</time>
      </trkpt>
      <trkpt lat="45.59836" lon="6.72024">
        <ele>1681.96</ele>
        <time>2016-01-17T13:29:03Z</time>
      </trkpt>
      <trkpt lat="45.59837" lon="6.72026">
        <ele>1681.48</ele>
        <time>2016-01-17T13:29:04Z</time>
      </trkpt>
      <trkpt lat="45.59839" lon="6.72025">
        <ele>1681.96</ele>
        <time>2016-01-17T13:29:16Z</time>
      </trkpt>
      <trkpt lat="45.59839" lon="6.72026">
        <ele>1681.96</ele>
        <time>2016-01-17T13:29:29Z</time>
      </trkpt>
      <trkpt lat="45.59838" lon="6.72027">
        <ele>1681.96</ele>
        <time>2016-01-17T13:29:55Z</time>
      </trkpt>
      <trkpt lat="45.59838" lon="6.72027">
        <ele>1682.44</ele>
        <time>2016-01-17T13:30:14Z</time>
      </trkpt>
      <trkpt lat="45.59839" lon="6.72027">
        <ele>1681.96</ele>
        <time>2016-01-17T13:30:32Z</time>
      </trkpt>
      <trkpt lat="45.59839" lon="6.72026">
        <ele>1682.44</ele>
        <time>2016-01-17T13:31:04Z</time>
      </trkpt>
      <trkpt lat="45.59839" lon="6.72027">
        <ele>1682.93</ele>
        <time>2016-01-17T13:31:27Z</time>
      </trkpt>
      <trkpt lat="45.59838" lon="6.72027">
        <ele>1683.41</ele>
        <time>2016-01-17T13:31:47Z</time>
      </trkpt>
      <trkpt lat="45.59839" lon="6.72026">
        <ele>1683.41</ele>
        <time>2016-01-17T13:32:10Z</time>
      </trkpt>
      <trkpt lat="45.59839" lon="6.72029">
        <ele>1682.93</ele>
        <time>2016-01-17T13:32:21Z</time>
      </trkpt>
      <trkpt lat="45.5984" lon="6.72032">
        <ele>1682.44</ele>
        <time>2016-01-17T13:32:22Z</time>
      </trkpt>
      <trkpt lat="45.5984" lon="6.72034">
        <ele>1681.96</ele>
        <time>2016-01-17T13:32:23Z</time>
      </trkpt>
      <trkpt lat="45.59841" lon="6.72041">
        <ele>1681</ele>
        <time>2016-01-17T13:32:25Z</time>
      </trkpt>
      <trkpt lat="45.5984" lon="6.72058">
        <ele>1677.16</ele>
        <time>2016-01-17T13:32:28Z</time>
      </trkpt>
      <trkpt lat="45.59838" lon="6.72076">
        <ele>1673.31</ele>
        <time>2016-01-17T13:32:31Z</time>
      </trkpt>
      <trkpt lat="45.59837" lon="6.72093">
        <ele>1668.51</ele>
        <time>2016-01-17T13:32:34Z</time>
      </trkpt>
      <trkpt lat="45.59838" lon="6.72103">
        <ele>1665.14</ele>
        <time>2016-01-17T13:32:36Z</time>
      </trkpt>
      <trkpt lat="45.59839" lon="6.72105">
        <ele>1664.18</ele>
        <time>2016-01-17T13:32:37Z</time>
      </trkpt>
      <trkpt lat="45.59842" lon="6.72102">
        <ele>1664.66</ele>
        <time>2016-01-17T13:32:52Z</time>
      </trkpt>
      <trkpt lat="45.59842" lon="6.72103">
        <ele>1664.18</ele>
        <time>2016-01-17T13:32:55Z</time>
      </trkpt>
      <trkpt lat="45.59837" lon="6.72115">
        <ele>1658.89</ele>
        <time>2016-01-17T13:33:00Z</time>
      </trkpt>
      <trkpt lat="45.5984" lon="6.7213">
        <ele>1654.09</ele>
        <time>2016-01-17T13:33:03Z</time>
      </trkpt>
      <trkpt lat="45.59841" lon="6.72136">
        <ele>1650.72</ele>
        <time>2016-01-17T13:33:04Z</time>
      </trkpt>
      <trkpt lat="45.59841" lon="6.72143">
        <ele>1650.72</ele>
        <time>2016-01-17T13:33:05Z</time>
      </trkpt>
      <trkpt lat="45.5984" lon="6.72158">
        <ele>1645.91</ele>
        <time>2016-01-17T13:33:08Z</time>
      </trkpt>
      <trkpt lat="45.59841" lon="6.72161">
        <ele>1645.43</ele>
        <time>2016-01-17T13:33:09Z</time>
      </trkpt>
      <trkpt lat="45.59842" lon="6.72163">
        <ele>1644.95</ele>
        <time>2016-01-17T13:33:10Z</time>
      </trkpt>
      <trkpt lat="45.59843" lon="6.72165">
        <ele>1644.47</ele>
        <time>2016-01-17T13:33:16Z</time>
      </trkpt>
      <trkpt lat="45.59843" lon="6.72168">
        <ele>1643.99</ele>
        <time>2016-01-17T13:33:17Z</time>
      </trkpt>
      <trkpt lat="45.59838" lon="6.72173">
        <ele>1640.63</ele>
        <time>2016-01-17T13:33:20Z</time>
      </trkpt>
      <trkpt lat="45.59836" lon="6.72174">
        <ele>1639.67</ele>
        <time>2016-01-17T13:33:21Z</time>
      </trkpt>
      <trkpt lat="45.59835" lon="6.72182">
        <ele>1635.34</ele>
        <time>2016-01-17T13:33:23Z</time>
      </trkpt>
      <trkpt lat="45.59836" lon="6.72186">
        <ele>1633.42</ele>
        <time>2016-01-17T13:33:24Z</time>
      </trkpt>
      <trkpt lat="45.59836" lon="6.72189">
        <ele>1632.46</ele>
        <time>2016-01-17T13:33:25Z</time>
      </trkpt>
      <trkpt lat="45.59837" lon="6.72192">
        <ele>1632.46</ele>
        <time>2016-01-17T13:33:26Z</time>
      </trkpt>
      <trkpt lat="45.59836" lon="6.72191">
        <ele>1633.42</ele>
        <time>2016-01-17T13:33:40Z</time>
      </trkpt>
      <trkpt lat="45.59836" lon="6.72192">
        <ele>1633.42</ele>
        <time>2016-01-17T13:33:54Z</time>
      </trkpt>
      <trkpt lat="45.59838" lon="6.72193">
        <ele>1632.94</ele>
        <time>2016-01-17T13:34:12Z</time>
      </trkpt>
      <trkpt lat="45.59838" lon="6.72194">
        <ele>1633.42</ele>
        <time>2016-01-17T13:34:36Z</time>
      </trkpt>
      <trkpt lat="45.59838" lon="6.72194">
        <ele>1633.9</ele>
        <time>2016-01-17T13:35:00Z</time>
      </trkpt>
      <trkpt lat="45.59841" lon="6.72194">
        <ele>1633.9</ele>
        <time>2016-01-17T13:35:11Z</time>
      </trkpt>
      <trkpt lat="45.59842" lon="6.72195">
        <ele>1634.38</ele>
        <time>2016-01-17T13:35:23Z</time>
      </trkpt>
      <trkpt lat="45.59841" lon="6.72193">
        <ele>1634.38</ele>
        <time>2016-01-17T13:35:39Z</time>
      </trkpt>
      <trkpt lat="45.59838" lon="6.72193">
        <ele>1634.38</ele>
        <time>2016-01-17T13:36:00Z</time>
      </trkpt>
      <trkpt lat="45.59837" lon="6.72193">
        <ele>1633.9</ele>
        <time>2016-01-17T13:36:19Z</time>
      </trkpt>
      <trkpt lat="45.59838" lon="6.72193">
        <ele>1633.9</ele>
        <time>2016-01-17T13:36:37Z</time>
      </trkpt>
      <trkpt lat="45.59837" lon="6.72193">
        <ele>1634.38</ele>
        <time>2016-01-17T13:36:53Z</time>
      </trkpt>
      <trkpt lat="45.59835" lon="6.72193">
        <ele>1633.9</ele>
        <time>2016-01-17T13:37:07Z</time>
      </trkpt>
      <trkpt lat="45.59834" lon="6.72193">
        <ele>1634.38</ele>
        <time>2016-01-17T13:37:26Z</time>
      </trkpt>
      <trkpt lat="45.5983" lon="6.72192">
        <ele>1634.38</ele>
        <time>2016-01-17T13:37:33Z</time>
      </trkpt>
      <trkpt lat="45.59829" lon="6.72191">
        <ele>1634.38</ele>
        <time>2016-01-17T13:37:34Z</time>
      </trkpt>
      <trkpt lat="45.59827" lon="6.7219">
        <ele>1634.86</ele>
        <time>2016-01-17T13:37:35Z</time>
      </trkpt>
      <trkpt lat="45.59824" lon="6.72189">
        <ele>1634.38</ele>
        <time>2016-01-17T13:37:36Z</time>
      </trkpt>
      <trkpt lat="45.59821" lon="6.72189">
        <ele>1633.42</ele>
        <time>2016-01-17T13:37:37Z</time>
      </trkpt>
      <trkpt lat="45.59818" lon="6.72192">
        <ele>1630.05</ele>
        <time>2016-01-17T13:37:38Z</time>
      </trkpt>
      <trkpt lat="45.59813" lon="6.72202">
        <ele>1628.13</ele>
        <time>2016-01-17T13:37:40Z</time>
      </trkpt>
      <trkpt lat="45.59811" lon="6.72217">
        <ele>1622.84</ele>
        <time>2016-01-17T13:37:42Z</time>
      </trkpt>
      <trkpt lat="45.59809" lon="6.72242">
        <ele>1619</ele>
        <time>2016-01-17T13:37:45Z</time>
      </trkpt>
      <trkpt lat="45.59805" lon="6.72267">
        <ele>1614.67</ele>
        <time>2016-01-17T13:37:49Z</time>
      </trkpt>
      <trkpt lat="45.598" lon="6.72282">
        <ele>1610.83</ele>
        <time>2016-01-17T13:37:52Z</time>
      </trkpt>
      <trkpt lat="45.59792" lon="6.72292">
        <ele>1606.02</ele>
        <time>2016-01-17T13:37:55Z</time>
      </trkpt>
      <trkpt lat="45.59785" lon="6.723">
        <ele>1602.66</ele>
        <time>2016-01-17T13:37:57Z</time>
      </trkpt>
      <trkpt lat="45.59784" lon="6.72305">
        <ele>1599.29</ele>
        <time>2016-01-17T13:37:58Z</time>
      </trkpt>
      <trkpt lat="45.59785" lon="6.72309">
        <ele>1597.85</ele>
        <time>2016-01-17T13:38:00Z</time>
      </trkpt>
      <trkpt lat="45.59787" lon="6.72306">
        <ele>1598.33</ele>
        <time>2016-01-17T13:38:16Z</time>
      </trkpt>
      <trkpt lat="45.59786" lon="6.72305">
        <ele>1598.81</ele>
        <time>2016-01-17T13:38:32Z</time>
      </trkpt>
      <trkpt lat="45.59782" lon="6.72304">
        <ele>1598.33</ele>
        <time>2016-01-17T13:38:40Z</time>
      </trkpt>
      <trkpt lat="45.59778" lon="6.72303">
        <ele>1597.37</ele>
        <time>2016-01-17T13:38:53Z</time>
      </trkpt>
      <trkpt lat="45.59775" lon="6.72302">
        <ele>1597.37</ele>
        <time>2016-01-17T13:39:14Z</time>
      </trkpt>
      <trkpt lat="45.59767" lon="6.72299">
        <ele>1597.37</ele>
        <time>2016-01-17T13:39:26Z</time>
      </trkpt>
      <trkpt lat="45.59757" lon="6.72296">
        <ele>1595.93</ele>
        <time>2016-01-17T13:39:37Z</time>
      </trkpt>
      <trkpt lat="45.59748" lon="6.72295">
        <ele>1594.96</ele>
        <time>2016-01-17T13:39:48Z</time>
      </trkpt>
      <trkpt lat="45.59728" lon="6.72295">
        <ele>1592.08</ele>
        <time>2016-01-17T13:39:57Z</time>
      </trkpt>
      <trkpt lat="45.59705" lon="6.7229">
        <ele>1587.75</ele>
        <time>2016-01-17T13:40:07Z</time>
      </trkpt>
      <trkpt lat="45.59703" lon="6.72289">
        <ele>1585.83</ele>
        <time>2016-01-17T13:40:15Z</time>
      </trkpt>
      <trkpt lat="45.597" lon="6.7229">
        <ele>1585.35</ele>
        <time>2016-01-17T13:40:19Z</time>
      </trkpt>
      <trkpt lat="45.59694" lon="6.72291">
        <ele>1585.35</ele>
        <time>2016-01-17T13:40:22Z</time>
      </trkpt>
      <trkpt lat="45.59687" lon="6.723">
        <ele>1580.06</ele>
        <time>2016-01-17T13:40:25Z</time>
      </trkpt>
      <trkpt lat="45.59682" lon="6.7231">
        <ele>1575.74</ele>
        <time>2016-01-17T13:40:27Z</time>
      </trkpt>
      <trkpt lat="45.59678" lon="6.7232">
        <ele>1571.41</ele>
        <time>2016-01-17T13:40:29Z</time>
      </trkpt>
      <trkpt lat="45.59678" lon="6.72332">
        <ele>1566.12</ele>
        <time>2016-01-17T13:40:31Z</time>
      </trkpt>
      <trkpt lat="45.59682" lon="6.72341">
        <ele>1563.24</ele>
        <time>2016-01-17T13:40:35Z</time>
      </trkpt>
      <trkpt lat="45.59684" lon="6.7234">
        <ele>1563.72</ele>
        <time>2016-01-17T13:40:42Z</time>
      </trkpt>
      <trkpt lat="45.59681" lon="6.72351">
        <ele>1559.88</ele>
        <time>2016-01-17T13:40:47Z</time>
      </trkpt>
      <trkpt lat="45.59676" lon="6.72358">
        <ele>1556.03</ele>
        <time>2016-01-17T13:40:49Z</time>
      </trkpt>
      <trkpt lat="45.59668" lon="6.72361">
        <ele>1553.15</ele>
        <time>2016-01-17T13:40:51Z</time>
      </trkpt>
      <trkpt lat="45.59653" lon="6.72376">
        <ele>1546.42</ele>
        <time>2016-01-17T13:40:55Z</time>
      </trkpt>
      <trkpt lat="45.59649" lon="6.72387">
        <ele>1542.57</ele>
        <time>2016-01-17T13:40:57Z</time>
      </trkpt>
      <trkpt lat="45.59645" lon="6.72398">
        <ele>1539.21</ele>
        <time>2016-01-17T13:40:59Z</time>
      </trkpt>
      <trkpt lat="45.59634" lon="6.72419">
        <ele>1531.04</ele>
        <time>2016-01-17T13:41:03Z</time>
      </trkpt>
      <trkpt lat="45.5963" lon="6.72423">
        <ele>1529.11</ele>
        <time>2016-01-17T13:41:04Z</time>
      </trkpt>
      <trkpt lat="45.59621" lon="6.72446">
        <ele>1523.83</ele>
        <time>2016-01-17T13:41:08Z</time>
      </trkpt>
      <trkpt lat="45.59618" lon="6.72458">
        <ele>1519.5</ele>
        <time>2016-01-17T13:41:10Z</time>
      </trkpt>
      <trkpt lat="45.59611" lon="6.72466">
        <ele>1516.14</ele>
        <time>2016-01-17T13:41:12Z</time>
      </trkpt>
      <trkpt lat="45.59604" lon="6.7248">
        <ele>1512.29</ele>
        <time>2016-01-17T13:41:15Z</time>
      </trkpt>
      <trkpt lat="45.59604" lon="6.72485">
        <ele>1511.33</ele>
        <time>2016-01-17T13:41:16Z</time>
      </trkpt>
      <trkpt lat="45.59603" lon="6.72492">
        <ele>1510.85</ele>
        <time>2016-01-17T13:41:18Z</time>
      </trkpt>
      <trkpt lat="45.59606" lon="6.72497">
        <ele>1511.33</ele>
        <time>2016-01-17T13:41:30Z</time>
      </trkpt>
      <trkpt lat="45.59607" lon="6.72497">
        <ele>1511.81</ele>
        <time>2016-01-17T13:41:50Z</time>
      </trkpt>
      <trkpt lat="45.59606" lon="6.72497">
        <ele>1511.81</ele>
        <time>2016-01-17T13:42:17Z</time>
      </trkpt>
      <trkpt lat="45.59606" lon="6.72496">
        <ele>1511.81</ele>
        <time>2016-01-17T13:42:40Z</time>
      </trkpt>
      <trkpt lat="45.59609" lon="6.72494">
        <ele>1512.77</ele>
        <time>2016-01-17T13:42:55Z</time>
      </trkpt>
      <trkpt lat="45.5961" lon="6.72494">
        <ele>1512.77</ele>
        <time>2016-01-17T13:43:15Z</time>
      </trkpt>
      <trkpt lat="45.59608" lon="6.72492">
        <ele>1512.77</ele>
        <time>2016-01-17T13:43:22Z</time>
      </trkpt>
      <trkpt lat="45.59599" lon="6.72482">
        <ele>1511.81</ele>
        <time>2016-01-17T13:43:27Z</time>
      </trkpt>
      <trkpt lat="45.59591" lon="6.72476">
        <ele>1507.48</ele>
        <time>2016-01-17T13:43:29Z</time>
      </trkpt>
      <trkpt lat="45.59584" lon="6.72482">
        <ele>1504.12</ele>
        <time>2016-01-17T13:43:31Z</time>
      </trkpt>
      <trkpt lat="45.59577" lon="6.72497">
        <ele>1498.83</ele>
        <time>2016-01-17T13:43:34Z</time>
      </trkpt>
      <trkpt lat="45.59568" lon="6.72511">
        <ele>1495.47</ele>
        <time>2016-01-17T13:43:37Z</time>
      </trkpt>
      <trkpt lat="45.59558" lon="6.72522">
        <ele>1492.1</ele>
        <time>2016-01-17T13:43:40Z</time>
      </trkpt>
      <trkpt lat="45.59553" lon="6.72533">
        <ele>1487.78</ele>
        <time>2016-01-17T13:43:42Z</time>
      </trkpt>
      <trkpt lat="45.59546" lon="6.72544">
        <ele>1483.45</ele>
        <time>2016-01-17T13:43:44Z</time>
      </trkpt>
      <trkpt lat="45.5954" lon="6.72554">
        <ele>1481.05</ele>
        <time>2016-01-17T13:43:46Z</time>
      </trkpt>
      <trkpt lat="45.59527" lon="6.72575">
        <ele>1473.84</ele>
        <time>2016-01-17T13:43:50Z</time>
      </trkpt>
      <trkpt lat="45.59522" lon="6.72586">
        <ele>1470.47</ele>
        <time>2016-01-17T13:43:52Z</time>
      </trkpt>
      <trkpt lat="45.59516" lon="6.72597">
        <ele>1467.59</ele>
        <time>2016-01-17T13:43:54Z</time>
      </trkpt>
      <trkpt lat="45.59507" lon="6.72607">
        <ele>1465.19</ele>
        <time>2016-01-17T13:43:57Z</time>
      </trkpt>
      <trkpt lat="45.59512" lon="6.72609">
        <ele>1464.23</ele>
        <time>2016-01-17T13:44:06Z</time>
      </trkpt>
      <trkpt lat="45.59513" lon="6.72608">
        <ele>1464.23</ele>
        <time>2016-01-17T13:44:30Z</time>
      </trkpt>
      <trkpt lat="45.59513" lon="6.72609">
        <ele>1464.71</ele>
        <time>2016-01-17T13:44:59Z</time>
      </trkpt>
      <trkpt lat="45.59507" lon="6.72609">
        <ele>1464.23</ele>
        <time>2016-01-17T13:45:13Z</time>
      </trkpt>
      <trkpt lat="45.59506" lon="6.7261">
        <ele>1464.23</ele>
        <time>2016-01-17T13:45:14Z</time>
      </trkpt>
      <trkpt lat="45.59501" lon="6.72604">
        <ele>1464.71</ele>
        <time>2016-01-17T13:45:26Z</time>
      </trkpt>
      <trkpt lat="45.59494" lon="6.72596">
        <ele>1464.23</ele>
        <time>2016-01-17T13:45:38Z</time>
      </trkpt>
      <trkpt lat="45.59491" lon="6.72592">
        <ele>1464.23</ele>
        <time>2016-01-17T13:45:53Z</time>
      </trkpt>
      <trkpt lat="45.59491" lon="6.72594">
        <ele>1463.74</ele>
        <time>2016-01-17T13:46:19Z</time>
      </trkpt>
      <trkpt lat="45.59491" lon="6.72594">
        <ele>1463.74</ele>
        <time>2016-01-17T13:46:25Z</time>
      </trkpt>
      <trkpt lat="45.59488" lon="6.72604">
        <ele>1459.9</ele>
        <time>2016-01-17T13:46:29Z</time>
      </trkpt>
      <trkpt lat="45.59486" lon="6.72607">
        <ele>1457.02</ele>
        <time>2016-01-17T13:46:33Z</time>
      </trkpt>
      <trkpt lat="45.59485" lon="6.72608">
        <ele>1457.02</ele>
        <time>2016-01-17T13:47:00Z</time>
      </trkpt>
      <trkpt lat="45.59485" lon="6.72609">
        <ele>1457.02</ele>
        <time>2016-01-17T13:47:20Z</time>
      </trkpt>
      <trkpt lat="45.59485" lon="6.72608">
        <ele>1457.02</ele>
        <time>2016-01-17T13:47:38Z</time>
      </trkpt>
      <trkpt lat="45.59485" lon="6.7261">
        <ele>1457.02</ele>
        <time>2016-01-17T13:47:50Z</time>
      </trkpt>
      <trkpt lat="45.59488" lon="6.72616">
        <ele>1456.05</ele>
        <time>2016-01-17T13:48:02Z</time>
      </trkpt>
      <trkpt lat="45.59489" lon="6.72621">
        <ele>1455.09</ele>
        <time>2016-01-17T13:48:14Z</time>
      </trkpt>
      <trkpt lat="45.59488" lon="6.72623">
        <ele>1454.13</ele>
        <time>2016-01-17T13:48:21Z</time>
      </trkpt>
      <trkpt lat="45.59489" lon="6.72625">
        <ele>1453.65</ele>
        <time>2016-01-17T13:48:31Z</time>
      </trkpt>
      <trkpt lat="45.59489" lon="6.72624">
        <ele>1454.13</ele>
        <time>2016-01-17T13:48:41Z</time>
      </trkpt>
      <trkpt lat="45.5949" lon="6.72624">
        <ele>1454.13</ele>
        <time>2016-01-17T13:48:59Z</time>
      </trkpt>
      <trkpt lat="45.59488" lon="6.72625">
        <ele>1454.13</ele>
        <time>2016-01-17T13:49:25Z</time>
      </trkpt>
      <trkpt lat="45.59488" lon="6.72623">
        <ele>1454.13</ele>
        <time>2016-01-17T13:49:30Z</time>
      </trkpt>
      <trkpt lat="45.59471" lon="6.72618">
        <ele>1451.25</ele>
        <time>2016-01-17T13:49:36Z</time>
      </trkpt>
      <trkpt lat="45.59467" lon="6.72616">
        <ele>1450.29</ele>
        <time>2016-01-17T13:49:38Z</time>
      </trkpt>
      <trkpt lat="45.59466" lon="6.72614">
        <ele>1449.32</ele>
        <time>2016-01-17T13:49:50Z</time>
      </trkpt>
      <trkpt lat="45.59465" lon="6.72613">
        <ele>1449.32</ele>
        <time>2016-01-17T13:50:11Z</time>
      </trkpt>
      <trkpt lat="45.59465" lon="6.72613">
        <ele>1449.32</ele>
        <time>2016-01-17T13:50:35Z</time>
      </trkpt>
      <trkpt lat="45.59445" lon="6.7262">
        <ele>1445.48</ele>
        <time>2016-01-17T13:50:41Z</time>
      </trkpt>
      <trkpt lat="45.5944" lon="6.72621">
        <ele>1444.52</ele>
        <time>2016-01-17T13:50:42Z</time>
      </trkpt>
      <trkpt lat="45.5943" lon="6.72629">
        <ele>1440.19</ele>
        <time>2016-01-17T13:50:44Z</time>
      </trkpt>
      <trkpt lat="45.59421" lon="6.72649">
        <ele>1432.98</ele>
        <time>2016-01-17T13:50:48Z</time>
      </trkpt>
      <trkpt lat="45.59414" lon="6.72656">
        <ele>1429.62</ele>
        <time>2016-01-17T13:50:50Z</time>
      </trkpt>
      <trkpt lat="45.59408" lon="6.72666">
        <ele>1425.77</ele>
        <time>2016-01-17T13:50:52Z</time>
      </trkpt>
      <trkpt lat="45.59403" lon="6.72676">
        <ele>1421.93</ele>
        <time>2016-01-17T13:50:54Z</time>
      </trkpt>
      <trkpt lat="45.59397" lon="6.72687">
        <ele>1417.12</ele>
        <time>2016-01-17T13:50:56Z</time>
      </trkpt>
      <trkpt lat="45.59395" lon="6.72693">
        <ele>1414.24</ele>
        <time>2016-01-17T13:50:57Z</time>
      </trkpt>
      <trkpt lat="45.59393" lon="6.72698">
        <ele>1409.91</ele>
        <time>2016-01-17T13:50:58Z</time>
      </trkpt>
      <trkpt lat="45.59394" lon="6.72709">
        <ele>1406.55</ele>
        <time>2016-01-17T13:51:00Z</time>
      </trkpt>
      <trkpt lat="45.59397" lon="6.72709">
        <ele>1408.47</ele>
        <time>2016-01-17T13:51:10Z</time>
      </trkpt>
      <trkpt lat="45.59397" lon="6.72712">
        <ele>1408.47</ele>
        <time>2016-01-17T13:51:36Z</time>
      </trkpt>
      <trkpt lat="45.59396" lon="6.72712">
        <ele>1408.95</ele>
        <time>2016-01-17T13:51:54Z</time>
      </trkpt>
      <trkpt lat="45.59398" lon="6.72711">
        <ele>1408.47</ele>
        <time>2016-01-17T13:52:17Z</time>
      </trkpt>
      <trkpt lat="45.59396" lon="6.72711">
        <ele>1408.47</ele>
        <time>2016-01-17T13:52:37Z</time>
      </trkpt>
      <trkpt lat="45.59397" lon="6.72711">
        <ele>1408.47</ele>
        <time>2016-01-17T13:52:46Z</time>
      </trkpt>
      <trkpt lat="45.59382" lon="6.72722">
        <ele>1403.66</ele>
        <time>2016-01-17T13:52:52Z</time>
      </trkpt>
      <trkpt lat="45.59373" lon="6.72729">
        <ele>1400.3</ele>
        <time>2016-01-17T13:52:54Z</time>
      </trkpt>
      <trkpt lat="45.59368" lon="6.72732">
        <ele>1398.86</ele>
        <time>2016-01-17T13:52:55Z</time>
      </trkpt>
      <trkpt lat="45.59362" lon="6.72738">
        <ele>1395.97</ele>
        <time>2016-01-17T13:52:57Z</time>
      </trkpt>
      <trkpt lat="45.5936" lon="6.72739">
        <ele>1395.01</ele>
        <time>2016-01-17T13:52:58Z</time>
      </trkpt>
      <trkpt lat="45.5936" lon="6.72739">
        <ele>1395.01</ele>
        <time>2016-01-17T13:52:59Z</time>
      </trkpt>
      <trkpt lat="45.59361" lon="6.72738">
        <ele>1395.01</ele>
        <time>2016-01-17T13:53:13Z</time>
      </trkpt>
      <trkpt lat="45.59361" lon="6.7274">
        <ele>1395.01</ele>
        <time>2016-01-17T13:53:38Z</time>
      </trkpt>
      <trkpt lat="45.59364" lon="6.72744">
        <ele>1395.01</ele>
        <time>2016-01-17T13:53:49Z</time>
      </trkpt>
      <trkpt lat="45.5937" lon="6.72748">
        <ele>1395.97</ele>
        <time>2016-01-17T13:54:00Z</time>
      </trkpt>
      <trkpt lat="45.59374" lon="6.72749">
        <ele>1395.49</ele>
        <time>2016-01-17T13:54:11Z</time>
      </trkpt>
      <trkpt lat="45.5938" lon="6.72753">
        <ele>1395.49</ele>
        <time>2016-01-17T13:54:22Z</time>
      </trkpt>
      <trkpt lat="45.59385" lon="6.7276">
        <ele>1395.49</ele>
        <time>2016-01-17T13:54:34Z</time>
      </trkpt>
      <trkpt lat="45.59387" lon="6.72759">
        <ele>1395.49</ele>
        <time>2016-01-17T13:54:46Z</time>
      </trkpt>
      <trkpt lat="45.59388" lon="6.72761">
        <ele>1396.45</ele>
        <time>2016-01-17T13:54:50Z</time>
      </trkpt>
      <trkpt lat="45.59394" lon="6.72769">
        <ele>1396.45</ele>
        <time>2016-01-17T13:55:01Z</time>
      </trkpt>
      <trkpt lat="45.59394" lon="6.72769">
        <ele>1396.45</ele>
        <time>2016-01-17T13:55:02Z</time>
      </trkpt>
      <trkpt lat="45.59399" lon="6.72777">
        <ele>1395.97</ele>
        <time>2016-01-17T13:55:15Z</time>
      </trkpt>
      <trkpt lat="45.59403" lon="6.72784">
        <ele>1396.45</ele>
        <time>2016-01-17T13:55:28Z</time>
      </trkpt>
      <trkpt lat="45.59405" lon="6.72787">
        <ele>1396.45</ele>
        <time>2016-01-17T13:55:43Z</time>
      </trkpt>
      <trkpt lat="45.59413" lon="6.72801">
        <ele>1396.45</ele>
        <time>2016-01-17T13:55:56Z</time>
      </trkpt>
      <trkpt lat="45.59418" lon="6.72807">
        <ele>1396.93</ele>
        <time>2016-01-17T13:56:09Z</time>
      </trkpt>
      <trkpt lat="45.59425" lon="6.72812">
        <ele>1396.45</ele>
        <time>2016-01-17T13:56:25Z</time>
      </trkpt>
      <trkpt lat="45.59429" lon="6.72817">
        <ele>1396.45</ele>
        <time>2016-01-17T13:56:40Z</time>
      </trkpt>
      <trkpt lat="45.59432" lon="6.72822">
        <ele>1395.01</ele>
        <time>2016-01-17T13:56:43Z</time>
      </trkpt>
      <trkpt lat="45.59431" lon="6.72822">
        <ele>1395.01</ele>
        <time>2016-01-17T13:56:52Z</time>
      </trkpt>
      <trkpt lat="45.59429" lon="6.72826">
        <ele>1394.05</ele>
        <time>2016-01-17T13:56:55Z</time>
      </trkpt>
      <trkpt lat="45.59429" lon="6.72832">
        <ele>1393.57</ele>
        <time>2016-01-17T13:57:06Z</time>
      </trkpt>
      <trkpt lat="45.59428" lon="6.72836">
        <ele>1393.57</ele>
        <time>2016-01-17T13:57:22Z</time>
      </trkpt>
      <trkpt lat="45.59429" lon="6.72842">
        <ele>1392.61</ele>
        <time>2016-01-17T13:57:26Z</time>
      </trkpt>
      <trkpt lat="45.5943" lon="6.72842">
        <ele>1392.61</ele>
        <time>2016-01-17T13:57:41Z</time>
      </trkpt>
      <trkpt lat="45.59429" lon="6.72844">
        <ele>1393.09</ele>
        <time>2016-01-17T13:58:02Z</time>
      </trkpt>
      <trkpt lat="45.59431" lon="6.72847">
        <ele>1393.57</ele>
        <time>2016-01-17T13:58:29Z</time>
      </trkpt>
      <trkpt lat="45.59429" lon="6.72846">
        <ele>1393.57</ele>
        <time>2016-01-17T13:58:55Z</time>
      </trkpt>
      <trkpt lat="45.59429" lon="6.72847">
        <ele>1394.05</ele>
        <time>2016-01-17T13:59:21Z</time>
      </trkpt>
      <trkpt lat="45.59431" lon="6.72849">
        <ele>1393.57</ele>
        <time>2016-01-17T13:59:34Z</time>
      </trkpt>
      <trkpt lat="45.59431" lon="6.72849">
        <ele>1393.57</ele>
        <time>2016-01-17T13:59:52Z</time>
      </trkpt>
      <trkpt lat="45.59421" lon="6.72856">
        <ele>1389.72</ele>
        <time>2016-01-17T13:59:56Z</time>
      </trkpt>
      <trkpt lat="45.59418" lon="6.72859">
        <ele>1387.8</ele>
        <time>2016-01-17T13:59:57Z</time>
      </trkpt>
      <trkpt lat="45.59412" lon="6.72866">
        <ele>1384.44</ele>
        <time>2016-01-17T13:59:59Z</time>
      </trkpt>
      <trkpt lat="45.59401" lon="6.72876">
        <ele>1380.11</ele>
        <time>2016-01-17T14:00:02Z</time>
      </trkpt>
      <trkpt lat="45.59394" lon="6.72884">
        <ele>1376.75</ele>
        <time>2016-01-17T14:00:04Z</time>
      </trkpt>
      <trkpt lat="45.5939" lon="6.72888">
        <ele>1373.38</ele>
        <time>2016-01-17T14:00:05Z</time>
      </trkpt>
      <trkpt lat="45.59383" lon="6.72896">
        <ele>1369.05</ele>
        <time>2016-01-17T14:00:07Z</time>
      </trkpt>
      <trkpt lat="45.59379" lon="6.72899">
        <ele>1367.13</ele>
        <time>2016-01-17T14:00:08Z</time>
      </trkpt>
      <trkpt lat="45.5937" lon="6.72908">
        <ele>1362.33</ele>
        <time>2016-01-17T14:00:10Z</time>
      </trkpt>
      <trkpt lat="45.59358" lon="6.72929">
        <ele>1356.08</ele>
        <time>2016-01-17T14:00:14Z</time>
      </trkpt>
      <trkpt lat="45.59352" lon="6.72944">
        <ele>1354.15</ele>
        <time>2016-01-17T14:00:17Z</time>
      </trkpt>
      <trkpt lat="45.59346" lon="6.72954">
        <ele>1350.79</ele>
        <time>2016-01-17T14:00:19Z</time>
      </trkpt>
      <trkpt lat="45.59345" lon="6.72959">
        <ele>1349.83</ele>
        <time>2016-01-17T14:00:20Z</time>
      </trkpt>
      <trkpt lat="45.59343" lon="6.72962">
        <ele>1349.83</ele>
        <time>2016-01-17T14:00:21Z</time>
      </trkpt>
      <trkpt lat="45.59341" lon="6.72964">
        <ele>1349.35</ele>
        <time>2016-01-17T14:00:22Z</time>
      </trkpt>
      <trkpt lat="45.5934" lon="6.72969">
        <ele>1347.91</ele>
        <time>2016-01-17T14:00:23Z</time>
      </trkpt>
      <trkpt lat="45.59339" lon="6.72973">
        <ele>1346.46</ele>
        <time>2016-01-17T14:00:24Z</time>
      </trkpt>
      <trkpt lat="45.59339" lon="6.72975">
        <ele>1346.46</ele>
        <time>2016-01-17T14:00:25Z</time>
      </trkpt>
      <trkpt lat="45.5934" lon="6.72979">
        <ele>1345.98</ele>
        <time>2016-01-17T14:00:33Z</time>
      </trkpt>
      <trkpt lat="45.5934" lon="6.72982">
        <ele>1345.02</ele>
        <time>2016-01-17T14:00:34Z</time>
      </trkpt>
      <trkpt lat="45.59335" lon="6.72984">
        <ele>1343.1</ele>
        <time>2016-01-17T14:00:36Z</time>
      </trkpt>
      <trkpt lat="45.59333" lon="6.72983">
        <ele>1341.66</ele>
        <time>2016-01-17T14:00:37Z</time>
      </trkpt>
      <trkpt lat="45.59331" lon="6.72981">
        <ele>1341.18</ele>
        <time>2016-01-17T14:00:38Z</time>
      </trkpt>
      <trkpt lat="45.59327" lon="6.72981">
        <ele>1339.25</ele>
        <time>2016-01-17T14:00:39Z</time>
      </trkpt>
      <trkpt lat="45.59323" lon="6.72984">
        <ele>1335.89</ele>
        <time>2016-01-17T14:00:41Z</time>
      </trkpt>
      <trkpt lat="45.59324" lon="6.72984">
        <ele>1335.89</ele>
        <time>2016-01-17T14:00:42Z</time>
      </trkpt>
      <trkpt lat="45.59328" lon="6.72986">
        <ele>1335.89</ele>
        <time>2016-01-17T14:00:53Z</time>
      </trkpt>
      <trkpt lat="45.59326" lon="6.72987">
        <ele>1336.37</ele>
        <time>2016-01-17T14:01:08Z</time>
      </trkpt>
      <trkpt lat="45.59322" lon="6.72994">
        <ele>1336.85</ele>
        <time>2016-01-17T14:01:22Z</time>
      </trkpt>
      <trkpt lat="45.59325" lon="6.72991">
        <ele>1336.37</ele>
        <time>2016-01-17T14:01:39Z</time>
      </trkpt>
      <trkpt lat="45.59327" lon="6.72989">
        <ele>1336.37</ele>
        <time>2016-01-17T14:01:54Z</time>
      </trkpt>
      <trkpt lat="45.59327" lon="6.72987">
        <ele>1336.37</ele>
        <time>2016-01-17T14:02:09Z</time>
      </trkpt>
      <trkpt lat="45.59328" lon="6.72986">
        <ele>1336.37</ele>
        <time>2016-01-17T14:02:20Z</time>
      </trkpt>
      <trkpt lat="45.59327" lon="6.72987">
        <ele>1336.85</ele>
        <time>2016-01-17T14:02:22Z</time>
      </trkpt>
      <trkpt lat="45.59324" lon="6.72987">
        <ele>1336.37</ele>
        <time>2016-01-17T14:02:24Z</time>
      </trkpt>
      <trkpt lat="45.59322" lon="6.72985">
        <ele>1335.89</ele>
        <time>2016-01-17T14:02:25Z</time>
      </trkpt>
      <trkpt lat="45.5932" lon="6.72984">
        <ele>1334.93</ele>
        <time>2016-01-17T14:02:26Z</time>
      </trkpt>
      <trkpt lat="45.59316" lon="6.72985">
        <ele>1333.01</ele>
        <time>2016-01-17T14:02:27Z</time>
      </trkpt>
      <trkpt lat="45.59309" lon="6.72991">
        <ele>1330.12</ele>
        <time>2016-01-17T14:02:29Z</time>
      </trkpt>
      <trkpt lat="45.59299" lon="6.72996">
        <ele>1326.28</ele>
        <time>2016-01-17T14:02:31Z</time>
      </trkpt>
      <trkpt lat="45.5929" lon="6.73002">
        <ele>1322.91</ele>
        <time>2016-01-17T14:02:33Z</time>
      </trkpt>
      <trkpt lat="45.59286" lon="6.73013">
        <ele>1318.1</ele>
        <time>2016-01-17T14:02:35Z</time>
      </trkpt>
      <trkpt lat="45.59283" lon="6.73018">
        <ele>1317.62</ele>
        <time>2016-01-17T14:02:36Z</time>
      </trkpt>
      <trkpt lat="45.59268" lon="6.73036">
        <ele>1311.38</ele>
        <time>2016-01-17T14:02:40Z</time>
      </trkpt>
      <trkpt lat="45.59265" lon="6.73039">
        <ele>1310.41</ele>
        <time>2016-01-17T14:02:41Z</time>
      </trkpt>
      <trkpt lat="45.59262" lon="6.73044">
        <ele>1308.01</ele>
        <time>2016-01-17T14:02:42Z</time>
      </trkpt>
      <trkpt lat="45.59256" lon="6.7305">
        <ele>1307.05</ele>
        <time>2016-01-17T14:02:44Z</time>
      </trkpt>
      <trkpt lat="45.5924" lon="6.73074">
        <ele>1301.76</ele>
        <time>2016-01-17T14:02:50Z</time>
      </trkpt>
      <trkpt lat="45.59239" lon="6.73075">
        <ele>1301.76</ele>
        <time>2016-01-17T14:02:51Z</time>
      </trkpt>
      <trkpt lat="45.59243" lon="6.73076">
        <ele>1301.28</ele>
        <time>2016-01-17T14:03:02Z</time>
      </trkpt>
      <trkpt lat="45.59242" lon="6.73072">
        <ele>1302.24</ele>
        <time>2016-01-17T14:03:15Z</time>
      </trkpt>
      <trkpt lat="45.5924" lon="6.73067">
        <ele>1302.24</ele>
        <time>2016-01-17T14:03:25Z</time>
      </trkpt>
      <trkpt lat="45.5924" lon="6.73068">
        <ele>1302.24</ele>
        <time>2016-01-17T14:03:34Z</time>
      </trkpt>
      <trkpt lat="45.59243" lon="6.73074">
        <ele>1302.72</ele>
        <time>2016-01-17T14:03:45Z</time>
      </trkpt>
      <trkpt lat="45.59245" lon="6.7308">
        <ele>1302.72</ele>
        <time>2016-01-17T14:03:55Z</time>
      </trkpt>
      <trkpt lat="45.59247" lon="6.73083">
        <ele>1301.28</ele>
        <time>2016-01-17T14:04:00Z</time>
      </trkpt>
      <trkpt lat="45.59248" lon="6.73085">
        <ele>1300.8</ele>
        <time>2016-01-17T14:04:01Z</time>
      </trkpt>
      <trkpt lat="45.59246" lon="6.73084">
        <ele>1301.28</ele>
        <time>2016-01-17T14:04:11Z</time>
      </trkpt>
      <trkpt lat="45.59243" lon="6.73084">
        <ele>1300.8</ele>
        <time>2016-01-17T14:04:20Z</time>
      </trkpt>
      <trkpt lat="45.59242" lon="6.73083">
        <ele>1300.8</ele>
        <time>2016-01-17T14:04:21Z</time>
      </trkpt>
      <trkpt lat="45.59241" lon="6.73083">
        <ele>1300.8</ele>
        <time>2016-01-17T14:04:22Z</time>
      </trkpt>
      <trkpt lat="45.5924" lon="6.73083">
        <ele>1300.32</ele>
        <time>2016-01-17T14:04:23Z</time>
      </trkpt>
      <trkpt lat="45.59239" lon="6.73084">
        <ele>1300.32</ele>
        <time>2016-01-17T14:04:41Z</time>
      </trkpt>
      <trkpt lat="45.5924" lon="6.73082">
        <ele>1300.8</ele>
        <time>2016-01-17T14:05:06Z</time>
      </trkpt>
      <trkpt lat="45.59242" lon="6.7308">
        <ele>1300.8</ele>
        <time>2016-01-17T14:05:36Z</time>
      </trkpt>
      <trkpt lat="45.59238" lon="6.73078">
        <ele>1300.8</ele>
        <time>2016-01-17T14:05:54Z</time>
      </trkpt>
      <trkpt lat="45.59236" lon="6.73077">
        <ele>1300.8</ele>
        <time>2016-01-17T14:05:56Z</time>
      </trkpt>
      <trkpt lat="45.59235" lon="6.73076">
        <ele>1300.32</ele>
        <time>2016-01-17T14:05:57Z</time>
      </trkpt>
      <trkpt lat="45.59234" lon="6.73075">
        <ele>1300.32</ele>
        <time>2016-01-17T14:05:58Z</time>
      </trkpt>
      <trkpt lat="45.59216" lon="6.73071">
        <ele>1296.96</ele>
        <time>2016-01-17T14:06:05Z</time>
      </trkpt>
      <trkpt lat="45.59212" lon="6.73073">
        <ele>1295.03</ele>
        <time>2016-01-17T14:06:06Z</time>
      </trkpt>
      <trkpt lat="45.59204" lon="6.73077">
        <ele>1291.67</ele>
        <time>2016-01-17T14:06:08Z</time>
      </trkpt>
      <trkpt lat="45.59195" lon="6.7308">
        <ele>1289.75</ele>
        <time>2016-01-17T14:06:11Z</time>
      </trkpt>
      <trkpt lat="45.59192" lon="6.7308">
        <ele>1288.78</ele>
        <time>2016-01-17T14:06:12Z</time>
      </trkpt>
      <trkpt lat="45.59189" lon="6.73079">
        <ele>1288.3</ele>
        <time>2016-01-17T14:06:13Z</time>
      </trkpt>
      <trkpt lat="45.59175" lon="6.73087">
        <ele>1282.06</ele>
        <time>2016-01-17T14:06:17Z</time>
      </trkpt>
      <trkpt lat="45.59169" lon="6.73093">
        <ele>1278.21</ele>
        <time>2016-01-17T14:06:19Z</time>
      </trkpt>
      <trkpt lat="45.59165" lon="6.73096">
        <ele>1276.29</ele>
        <time>2016-01-17T14:06:20Z</time>
      </trkpt>
      <trkpt lat="45.5916" lon="6.731">
        <ele>1272.92</ele>
        <time>2016-01-17T14:06:21Z</time>
      </trkpt>
      <trkpt lat="45.59156" lon="6.73102">
        <ele>1271</ele>
        <time>2016-01-17T14:06:22Z</time>
      </trkpt>
      <trkpt lat="45.59151" lon="6.73105">
        <ele>1269.08</ele>
        <time>2016-01-17T14:06:23Z</time>
      </trkpt>
      <trkpt lat="45.59138" lon="6.73124">
        <ele>1264.27</ele>
        <time>2016-01-17T14:06:26Z</time>
      </trkpt>
      <trkpt lat="45.59131" lon="6.73134">
        <ele>1261.39</ele>
        <time>2016-01-17T14:06:28Z</time>
      </trkpt>
      <trkpt lat="45.59117" lon="6.73152">
        <ele>1257.06</ele>
        <time>2016-01-17T14:06:31Z</time>
      </trkpt>
      <trkpt lat="45.59104" lon="6.73172">
        <ele>1251.77</ele>
        <time>2016-01-17T14:06:36Z</time>
      </trkpt>
      <trkpt lat="45.59093" lon="6.73186">
        <ele>1248.41</ele>
        <time>2016-01-17T14:06:39Z</time>
      </trkpt>
      <trkpt lat="45.59089" lon="6.73203">
        <ele>1245.04</ele>
        <time>2016-01-17T14:06:42Z</time>
      </trkpt>
      <trkpt lat="45.59089" lon="6.7321">
        <ele>1242.64</ele>
        <time>2016-01-17T14:06:43Z</time>
      </trkpt>
      <trkpt lat="45.5909" lon="6.73213">
        <ele>1242.16</ele>
        <time>2016-01-17T14:06:44Z</time>
      </trkpt>
      <trkpt lat="45.59091" lon="6.73215">
        <ele>1241.2</ele>
        <time>2016-01-17T14:06:46Z</time>
      </trkpt>
      <trkpt lat="45.59098" lon="6.73217">
        <ele>1241.2</ele>
        <time>2016-01-17T14:07:00Z</time>
      </trkpt>
      <trkpt lat="45.59101" lon="6.73229">
        <ele>1240.72</ele>
        <time>2016-01-17T14:07:07Z</time>
      </trkpt>
      <trkpt lat="45.59102" lon="6.73233">
        <ele>1240.72</ele>
        <time>2016-01-17T14:07:18Z</time>
      </trkpt>
      <trkpt lat="45.59103" lon="6.73235">
        <ele>1240.72</ele>
        <time>2016-01-17T14:07:34Z</time>
      </trkpt>
      <trkpt lat="45.59103" lon="6.73234">
        <ele>1240.72</ele>
        <time>2016-01-17T14:08:04Z</time>
      </trkpt>
      <trkpt lat="45.59104" lon="6.73234">
        <ele>1241.68</ele>
        <time>2016-01-17T14:08:36Z</time>
      </trkpt>
      <trkpt lat="45.59105" lon="6.73234">
        <ele>1241.2</ele>
        <time>2016-01-17T14:08:52Z</time>
      </trkpt>
      <trkpt lat="45.59102" lon="6.73237">
        <ele>1240.24</ele>
        <time>2016-01-17T14:09:04Z</time>
      </trkpt>
      <trkpt lat="45.59102" lon="6.73236">
        <ele>1240.24</ele>
        <time>2016-01-17T14:09:17Z</time>
      </trkpt>
      <trkpt lat="45.59102" lon="6.7324">
        <ele>1240.72</ele>
        <time>2016-01-17T14:09:36Z</time>
      </trkpt>
      <trkpt lat="45.59104" lon="6.73239">
        <ele>1240.72</ele>
        <time>2016-01-17T14:09:58Z</time>
      </trkpt>
      <trkpt lat="45.59103" lon="6.73237">
        <ele>1241.2</ele>
        <time>2016-01-17T14:10:06Z</time>
      </trkpt>
      <trkpt lat="45.59102" lon="6.73236">
        <ele>1241.2</ele>
        <time>2016-01-17T14:10:07Z</time>
      </trkpt>
      <trkpt lat="45.591" lon="6.73232">
        <ele>1241.2</ele>
        <time>2016-01-17T14:10:10Z</time>
      </trkpt>
      <trkpt lat="45.59088" lon="6.73215">
        <ele>1243.12</ele>
        <time>2016-01-17T14:10:26Z</time>
      </trkpt>
      <trkpt lat="45.59077" lon="6.73197">
        <ele>1244.56</ele>
        <time>2016-01-17T14:10:42Z</time>
      </trkpt>
      <trkpt lat="45.59069" lon="6.73176">
        <ele>1246.01</ele>
        <time>2016-01-17T14:10:58Z</time>
      </trkpt>
      <trkpt lat="45.59063" lon="6.73155">
        <ele>1247.45</ele>
        <time>2016-01-17T14:11:13Z</time>
      </trkpt>
      <trkpt lat="45.59058" lon="6.73135">
        <ele>1248.41</ele>
        <time>2016-01-17T14:11:28Z</time>
      </trkpt>
      <trkpt lat="45.59051" lon="6.73123">
        <ele>1249.37</ele>
        <time>2016-01-17T14:11:41Z</time>
      </trkpt>
      <trkpt lat="45.5904" lon="6.7311">
        <ele>1250.81</ele>
        <time>2016-01-17T14:11:55Z</time>
      </trkpt>
      <trkpt lat="45.5903" lon="6.73095">
        <ele>1252.25</ele>
        <time>2016-01-17T14:12:10Z</time>
      </trkpt>
      <trkpt lat="45.59018" lon="6.73082">
        <ele>1254.18</ele>
        <time>2016-01-17T14:12:25Z</time>
      </trkpt>
      <trkpt lat="45.58997" lon="6.73063">
        <ele>1256.1</ele>
        <time>2016-01-17T14:12:43Z</time>
      </trkpt>
      <trkpt lat="45.58978" lon="6.73044">
        <ele>1258.02</ele>
        <time>2016-01-17T14:13:02Z</time>
      </trkpt>
      <trkpt lat="45.58964" lon="6.73029">
        <ele>1259.46</ele>
        <time>2016-01-17T14:13:17Z</time>
      </trkpt>
      <trkpt lat="45.58962" lon="6.73023">
        <ele>1259.94</ele>
        <time>2016-01-17T14:13:22Z</time>
      </trkpt>
      <trkpt lat="45.58954" lon="6.73019">
        <ele>1260.43</ele>
        <time>2016-01-17T14:13:36Z</time>
      </trkpt>
      <trkpt lat="45.58955" lon="6.73018">
        <ele>1260.91</ele>
        <time>2016-01-17T14:13:49Z</time>
      </trkpt>
      <trkpt lat="45.58952" lon="6.73014">
        <ele>1260.91</ele>
        <time>2016-01-17T14:13:54Z</time>
      </trkpt>
      <trkpt lat="45.58943" lon="6.73006">
        <ele>1262.35</ele>
        <time>2016-01-17T14:14:04Z</time>
      </trkpt>
      <trkpt lat="45.58932" lon="6.72989">
        <ele>1263.79</ele>
        <time>2016-01-17T14:14:18Z</time>
      </trkpt>
      <trkpt lat="45.58919" lon="6.72976">
        <ele>1265.23</ele>
        <time>2016-01-17T14:14:31Z</time>
      </trkpt>
      <trkpt lat="45.58905" lon="6.72961">
        <ele>1267.16</ele>
        <time>2016-01-17T14:14:46Z</time>
      </trkpt>
      <trkpt lat="45.5889" lon="6.72945">
        <ele>1268.12</ele>
        <time>2016-01-17T14:15:01Z</time>
      </trkpt>
      <trkpt lat="45.58879" lon="6.72932">
        <ele>1269.56</ele>
        <time>2016-01-17T14:15:14Z</time>
      </trkpt>
      <trkpt lat="45.58878" lon="6.72931">
        <ele>1269.56</ele>
        <time>2016-01-17T14:15:16Z</time>
      </trkpt>
      <trkpt lat="45.58864" lon="6.72913">
        <ele>1271.96</ele>
        <time>2016-01-17T14:15:33Z</time>
      </trkpt>
      <trkpt lat="45.58854" lon="6.72894">
        <ele>1272.92</ele>
        <time>2016-01-17T14:15:47Z</time>
      </trkpt>
      <trkpt lat="45.58842" lon="6.72877">
        <ele>1274.85</ele>
        <time>2016-01-17T14:16:04Z</time>
      </trkpt>
      <trkpt lat="45.58845" lon="6.72878">
        <ele>1274.85</ele>
        <time>2016-01-17T14:16:18Z</time>
      </trkpt>
      <trkpt lat="45.5884" lon="6.72866">
        <ele>1275.81</ele>
        <time>2016-01-17T14:16:38Z</time>
      </trkpt>
      <trkpt lat="45.58831" lon="6.72848">
        <ele>1277.25</ele>
        <time>2016-01-17T14:16:54Z</time>
      </trkpt>
      <trkpt lat="45.58826" lon="6.72829">
        <ele>1278.21</ele>
        <time>2016-01-17T14:17:08Z</time>
      </trkpt>
      <trkpt lat="45.5884" lon="6.72832">
        <ele>1279.65</ele>
        <time>2016-01-17T14:17:23Z</time>
      </trkpt>
      <trkpt lat="45.58858" lon="6.72844">
        <ele>1281.57</ele>
        <time>2016-01-17T14:17:40Z</time>
      </trkpt>
      <trkpt lat="45.58862" lon="6.72846">
        <ele>1282.06</ele>
        <time>2016-01-17T14:17:44Z</time>
      </trkpt>
      <trkpt lat="45.58881" lon="6.72858">
        <ele>1283.98</ele>
        <time>2016-01-17T14:18:04Z</time>
      </trkpt>
      <trkpt lat="45.58897" lon="6.72866">
        <ele>1285.9</ele>
        <time>2016-01-17T14:18:20Z</time>
      </trkpt>
      <trkpt lat="45.58898" lon="6.72867">
        <ele>1285.9</ele>
        <time>2016-01-17T14:18:21Z</time>
      </trkpt>
      <trkpt lat="45.589" lon="6.72866">
        <ele>1285.42</ele>
        <time>2016-01-17T14:18:23Z</time>
      </trkpt>
      <trkpt lat="45.58907" lon="6.72868">
        <ele>1286.38</ele>
        <time>2016-01-17T14:18:30Z</time>
      </trkpt>
      <trkpt lat="45.58911" lon="6.72851">
        <ele>1288.3</ele>
        <time>2016-01-17T14:18:44Z</time>
      </trkpt>
      <trkpt lat="45.58909" lon="6.72846">
        <ele>1287.82</ele>
        <time>2016-01-17T14:18:48Z</time>
      </trkpt>
      <trkpt lat="45.58903" lon="6.72833">
        <ele>1287.82</ele>
        <time>2016-01-17T14:18:58Z</time>
      </trkpt>
      <trkpt lat="45.58893" lon="6.72815">
        <ele>1287.82</ele>
        <time>2016-01-17T14:19:15Z</time>
      </trkpt>
      <trkpt lat="45.58876" lon="6.728">
        <ele>1287.82</ele>
        <time>2016-01-17T14:19:29Z</time>
      </trkpt>
      <trkpt lat="45.58859" lon="6.72785">
        <ele>1287.82</ele>
        <time>2016-01-17T14:19:45Z</time>
      </trkpt>
      <trkpt lat="45.58854" lon="6.72782">
        <ele>1287.34</ele>
        <time>2016-01-17T14:20:02Z</time>
      </trkpt>
      <trkpt lat="45.5885" lon="6.72782">
        <ele>1287.34</ele>
        <time>2016-01-17T14:20:16Z</time>
      </trkpt>
      <trkpt lat="45.5885" lon="6.72783">
        <ele>1287.34</ele>
        <time>2016-01-17T14:20:18Z</time>
      </trkpt>
      <trkpt lat="45.5885" lon="6.72785">
        <ele>1287.82</ele>
        <time>2016-01-17T14:20:32Z</time>
      </trkpt>
      <trkpt lat="45.5885" lon="6.72783">
        <ele>1287.34</ele>
        <time>2016-01-17T14:20:44Z</time>
      </trkpt>
      <trkpt lat="45.58845" lon="6.72786">
        <ele>1287.34</ele>
        <time>2016-01-17T14:20:54Z</time>
      </trkpt>
      <trkpt lat="45.58847" lon="6.72786">
        <ele>1287.82</ele>
        <time>2016-01-17T14:21:11Z</time>
      </trkpt>
      <trkpt lat="45.58847" lon="6.72789">
        <ele>1287.34</ele>
        <time>2016-01-17T14:21:24Z</time>
      </trkpt>
      <trkpt lat="45.58845" lon="6.72792">
        <ele>1287.82</ele>
        <time>2016-01-17T14:21:50Z</time>
      </trkpt>
      <trkpt lat="45.58845" lon="6.72791">
        <ele>1287.82</ele>
        <time>2016-01-17T14:22:24Z</time>
      </trkpt>
      <trkpt lat="45.58847" lon="6.7279">
        <ele>1287.82</ele>
        <time>2016-01-17T14:22:50Z</time>
      </trkpt>
      <trkpt lat="45.58846" lon="6.7279">
        <ele>1288.3</ele>
        <time>2016-01-17T14:23:17Z</time>
      </trkpt>
      <trkpt lat="45.58846" lon="6.72791">
        <ele>1287.34</ele>
        <time>2016-01-17T14:23:36Z</time>
      </trkpt>
      <trkpt lat="45.58847" lon="6.72791">
        <ele>1286.38</ele>
        <time>2016-01-17T14:23:52Z</time>
      </trkpt>
    </trkseg>
  </trk>
</gpx>